Darstellungsparameter: Aktuell verwendete Einstellungen:
Skalierung der Graphiken ... ?
xyx+y,   Skalierungsfaktor:      Skalierung: Modus: x, Faktor: 1
Darstellungszeitraum ... ?
Vom - - bis: - -   Zeitraum: 07.07.2008 - 06.01.2009
Min/Max/Avg-Anzeige ... ?
Zeige MMA aktuell
Zeige MMA Monat
Zeige MMA alles
Zeige --A aktuell
Zeige --A Monat
Zeige --A alles
Keine MMA-Anzeige
MMA:
Keine MMA-Graphiken
MMA-Basis: 07.07.2008 - 06.01.2009
Quicknavigation für Darstellung... ?
Tage:      1T, 2T, 3T, 5T -1T -2T -3T -5T +1T +2T +3T +5T
Wochen: 1W, 2W, 3W -1W -2W -3W +1W +2W +3W
Monate: 1M, 3M, 6M -1M -3M -6M +1M +3M +6M
Jahre:    1J, 3J, 5J, 10J -1J -3J -5J -10J +1J +3J +5J +10J
Nutze für die Darstellung ... ?
Originaldaten oder Mittelwerte auf ...
Stundenbasis Tagesbasis Wochenbasis
Monatsbasis Jahresbasis      Datenbasis: Original-Daten
Darstellen als:
Statistik (Auto) Statistik J:M      Darstellung:
Zur Graphik,    zurück zur Übersicht aller Sensoren.
 
Tabellarische Datenbersicht: ?
 
Sensor: Nr:Datum:Temp:Abs-Feuchte:Windchill:Wind:
Aussen-T/F 1 07-07-2008 00:03:02 17.9 C 7.94 g/m*3 17.9 C 0 km/h
2 07-07-2008 00:15:02 17.5 C 8.05 g/m*3 17.5 C 0 km/h
3 07-07-2008 00:27:02 17.4 C 8 g/m*3 17.4 C 0 km/h
4 07-07-2008 00:39:02 17.4 C 8 g/m*3 17.4 C 0 km/h
5 07-07-2008 00:51:02 17.1 C 8.01 g/m*3 17.1 C 0 km/h
6 07-07-2008 01:03:02 16.9 C 8.2 g/m*3 16.9 C 0 km/h
7 07-07-2008 01:15:02 16.9 C 8.05 g/m*3 16.9 C 0 km/h
8 07-07-2008 01:27:02 16.8 C 8.01 g/m*3 16.8 C 0 km/h
9 07-07-2008 01:39:02 16.6 C 8.05 g/m*3 16.6 C 0 km/h
10 07-07-2008 01:51:02 16.4 C 8.1 g/m*3 16.4 C 0 km/h
11 07-07-2008 02:03:02 16.3 C 8.19 g/m*3 16.3 C 0 km/h
12 07-07-2008 02:15:02 16 C 8.45 g/m*3 16 C 0 km/h
13 07-07-2008 02:27:02 15.6 C 8.38 g/m*3 15.6 C 0 km/h
14 07-07-2008 02:39:03 15.6 C 8.51 g/m*3 15.6 C 0 km/h
15 07-07-2008 02:51:03 15.4 C 8.54 g/m*3 15.4 C 0 km/h
16 07-07-2008 03:03:03 15.4 C 8.54 g/m*3 15.4 C 0 km/h
17 07-07-2008 03:15:03 15.6 C 8.64 g/m*3 15.6 C 0 km/h
18 07-07-2008 03:27:03 15.6 C 8.51 g/m*3 15.6 C 0 km/h
19 07-07-2008 03:39:03 15.6 C 8.51 g/m*3 15.6 C 0 km/h
20 07-07-2008 03:51:03 15.5 C 8.59 g/m*3 15.5 C 0 km/h
21 07-07-2008 04:03:03 15.3 C 8.75 g/m*3 15.3 C 0 km/h
22 07-07-2008 04:15:03 15 C 8.85 g/m*3 15 C 0 km/h
23 07-07-2008 04:27:03 14.7 C 8.81 g/m*3 14.7 C 0 km/h
24 07-07-2008 04:39:03 14.5 C 8.83 g/m*3 14.5 C 0 km/h
25 07-07-2008 04:51:03 14.6 C 8.88 g/m*3 14.6 C 0 km/h
Sensor: Nr:Datum:Temp:Abs-Feuchte:Windchill:Wind:
Aussen-T/F 26 07-07-2008 05:03:03 14.6 C 9.01 g/m*3 14.6 C 0 km/h
27 07-07-2008 05:15:03 15.2 C 9.22 g/m*3 15.2 C 0 km/h
28 07-07-2008 05:27:03 14.7 C 9.07 g/m*3 14.7 C 0 km/h
29 07-07-2008 05:39:03 14.8 C 9.12 g/m*3 14.8 C 0 km/h
30 07-07-2008 05:51:03 14.7 C 8.94 g/m*3 14.7 C 0 km/h
31 07-07-2008 06:03:03 14.9 C 9.05 g/m*3 14.9 C 0 km/h
32 07-07-2008 06:15:03 15 C 9.1 g/m*3 15 C 0 km/h
33 07-07-2008 06:27:03 15.1 C 9.03 g/m*3 15.1 C 0 km/h
34 07-07-2008 06:39:04 15.3 C 9.14 g/m*3 15.3 C 0 km/h
35 07-07-2008 06:51:04 15.4 C 9.2 g/m*3 15.4 C 0 km/h
36 07-07-2008 07:03:03 15.6 C 9.18 g/m*3 15.6 C 0 km/h
37 07-07-2008 07:15:03 15.8 C 9.15 g/m*3 15.8 C 0 km/h
38 07-07-2008 07:27:03 16 C 9.13 g/m*3 16 C 0 km/h
39 07-07-2008 07:39:02 16.2 C 8.69 g/m*3 16.2 C 0 km/h
40 07-07-2008 07:51:02 16.5 C 8.85 g/m*3 16.5 C 0 km/h
41 07-07-2008 08:03:02 16.8 C 9.01 g/m*3 16.8 C 0 km/h
42 07-07-2008 08:15:02 17 C 8.54 g/m*3 17 C 0 km/h
43 07-07-2008 08:27:02 17.2 C 8.49 g/m*3 17.2 C 0 km/h
44 07-07-2008 08:39:02 17.6 C 8.4 g/m*3 17.6 C 0 km/h
45 07-07-2008 08:51:01 17.7 C 8.3 g/m*3 17.7 C 0 km/h
46 07-07-2008 09:03:02 17.5 C 8.2 g/m*3 17.5 C 0 km/h
47 07-07-2008 09:15:02 18 C 7.83 g/m*3 18 C 0 km/h
48 07-07-2008 09:27:02 17.9 C 7.79 g/m*3 17.9 C 0 km/h
49 07-07-2008 09:39:01 18 C 7.37 g/m*3 18 C 0 km/h
50 07-07-2008 09:51:01 18.6 C 7.32 g/m*3 18.6 C 0 km/h
Sensor: Nr:Datum:Temp:Abs-Feuchte:Windchill:Wind:
Aussen-T/F 51 07-07-2008 10:03:02 18.7 C 7.36 g/m*3 18.7 C 0 km/h
52 07-07-2008 10:15:01 19.2 C 7.09 g/m*3 19.2 C 0 km/h
53 07-07-2008 10:27:01 18.7 C 7.04 g/m*3 18.7 C 0 km/h
54 07-07-2008 10:39:02 18.6 C 6.84 g/m*3 18.6 C 0 km/h
55 07-07-2008 10:51:02 19.2 C 6.6 g/m*3 19.2 C 0 km/h
56 07-07-2008 11:03:02 20 C 6.39 g/m*3 20 C 0 km/h
57 07-07-2008 11:15:02 20 C 6.22 g/m*3 20 C 0 km/h
58 07-07-2008 11:27:02 20.1 C 6.26 g/m*3 20.1 C 0 km/h
59 07-07-2008 11:39:02 20.5 C 6.05 g/m*3 20.5 C 0 km/h
60 07-07-2008 11:51:01 21.3 C 5.59 g/m*3 21.3 C 0 km/h
61 07-07-2008 12:03:01 19.5 C 6.55 g/m*3 19.5 C 0 km/h
62 07-07-2008 12:15:01 20.9 C 6.19 g/m*3 20.9 C 0 km/h
63 07-07-2008 12:27:01 18.2 C 7.77 g/m*3 18.2 C 0 km/h
64 07-07-2008 12:39:02 19.4 C 8.51 g/m*3 19.4 C 0 km/h
65 07-07-2008 12:51:02 19.7 C 7.98 g/m*3 19.7 C 0 km/h
66 07-07-2008 13:03:02 21.4 C 7.31 g/m*3 21.4 C 0 km/h
67 07-07-2008 13:15:02 20.6 C 6.62 g/m*3 20.6 C 0 km/h
68 07-07-2008 13:27:03 19.5 C 6.71 g/m*3 19.5 C 0 km/h
69 07-07-2008 13:39:02 23.2 C 6.03 g/m*3 23.2 C 0 km/h
70 07-07-2008 13:51:02 22 C 5.82 g/m*3 22 C 0 km/h
71 07-07-2008 14:03:01 22.7 C 5.86 g/m*3 22.7 C 0 km/h
72 07-07-2008 14:15:02 22.7 C 6.06 g/m*3 22.7 C 0 km/h
73 07-07-2008 14:27:02 21.9 C 5.79 g/m*3 21.9 C 0 km/h
74 07-07-2008 14:39:01 22.8 C 6.1 g/m*3 22.8 C 0 km/h
75 07-07-2008 14:51:02 23.2 C 5.82 g/m*3 23.2 C 0 km/h
Sensor: Nr:Datum:Temp:Abs-Feuchte:Windchill:Wind:
Aussen-T/F 76 07-07-2008 15:03:01 23 C 5.76 g/m*3 23 C 0 km/h
77 07-07-2008 15:15:02 23.7 C 5.78 g/m*3 23.7 C 0 km/h
78 07-07-2008 15:27:02 23.5 C 5.29 g/m*3 23.5 C 0 km/h
79 07-07-2008 15:39:01 23.3 C 5.02 g/m*3 23.3 C 0 km/h
80 07-07-2008 15:51:01 22.5 C 5.39 g/m*3 22.5 C 0 km/h
81 07-07-2008 16:03:02 22.7 C 5.05 g/m*3 22.7 C 0 km/h
82 07-07-2008 16:15:02 19.5 C 6.71 g/m*3 19.5 C 0 km/h
83 07-07-2008 16:27:02 17.3 C 8.54 g/m*3 17.3 C 0 km/h
84 07-07-2008 16:39:01 18.7 C 9.77 g/m*3 18.7 C 0 km/h
85 07-07-2008 16:51:01 20.8 C 9.6 g/m*3 20.8 C 0 km/h
86 07-07-2008 17:03:02 20.7 C 8.1 g/m*3 20.7 C 0 km/h
87 07-07-2008 17:15:01 21.5 C 7.73 g/m*3 21.5 C 0 km/h
88 07-07-2008 17:27:01 20.7 C 7.02 g/m*3 20.7 C 0 km/h
89 07-07-2008 17:39:02 21 C 6.78 g/m*3 21 C 0 km/h
90 07-07-2008 17:51:02 20.9 C 6.74 g/m*3 20.9 C 0 km/h
91 07-07-2008 18:03:02 20.5 C 7.47 g/m*3 20.5 C 0 km/h
92 07-07-2008 18:15:02 21 C 7.33 g/m*3 21 C 0 km/h
93 07-07-2008 18:27:02 22.4 C 5.96 g/m*3 22.4 C 0 km/h
94 07-07-2008 18:39:02 23.3 C 6.06 g/m*3 23.3 C 0 km/h
95 07-07-2008 18:51:02 22.2 C 5.89 g/m*3 22.2 C 0 km/h
96 07-07-2008 19:03:01 21.9 C 6.37 g/m*3 21.9 C 0 km/h
97 07-07-2008 19:15:02 21 C 6.59 g/m*3 21 C 0 km/h
98 07-07-2008 19:27:02 21.4 C 6.94 g/m*3 21.4 C 0 km/h
99 07-07-2008 19:39:01 21.8 C 6.91 g/m*3 21.8 C 0 km/h
100 07-07-2008 19:51:01 21.6 C 7.02 g/m*3 21.6 C 0 km/h
Sensor: Nr:Datum:Temp:Abs-Feuchte:Windchill:Wind:
Aussen-T/F 101 07-07-2008 20:03:02 21.1 C 6.63 g/m*3 21.1 C 0 km/h
102 07-07-2008 20:15:01 19.5 C 7.05 g/m*3 19.5 C 0 km/h
103 07-07-2008 20:27:01 19.3 C 7.3 g/m*3 19.3 C 0 km/h
104 07-07-2008 20:39:02 18.9 C 7.45 g/m*3 18.9 C 0 km/h
105 07-07-2008 20:51:02 18.5 C 7.75 g/m*3 18.5 C 0 km/h
106 07-07-2008 21:03:02 15.9 C 9.75 g/m*3 15.9 C 0 km/h
107 07-07-2008 21:15:02 15.9 C 9.89 g/m*3 15.9 C 0 km/h
108 07-07-2008 21:27:02 15.7 C 9.9 g/m*3 15.7 C 0 km/h
109 07-07-2008 21:39:02 15.5 C 9.91 g/m*3 15.5 C 0 km/h
110 07-07-2008 21:51:02 15.6 C 10.11 g/m*3 15.6 C 0 km/h
111 07-07-2008 22:03:01 15.7 C 9.77 g/m*3 15.7 C 0 km/h
112 07-07-2008 22:15:01 15.7 C 9.37 g/m*3 15.7 C 0 km/h
113 07-07-2008 22:27:01 15.6 C 9.18 g/m*3 15.6 C 0 km/h
114 07-07-2008 22:40:02 15.4 C 9.2 g/m*3 15.4 C 0 km/h
115 07-07-2008 22:52:02 15.4 C 9.07 g/m*3 15.4 C 0 km/h
116 07-07-2008 23:04:02 15.7 C 8.96 g/m*3 15.7 C 0 km/h
117 07-07-2008 23:16:03 15.9 C 8.94 g/m*3 15.9 C 0 km/h
118 07-07-2008 23:28:03 16 C 8.86 g/m*3 16 C 0 km/h
119 07-07-2008 23:40:03 15.3 C 9.66 g/m*3 15.3 C 0 km/h
120 07-07-2008 23:52:03 14.7 C 9.95 g/m*3 14.7 C 0 km/h
121 08-07-2008 00:04:03 15 C 9.87 g/m*3 15 C 0 km/h
122 08-07-2008 00:16:03 15 C 9.62 g/m*3 15 C 0 km/h
123 08-07-2008 00:28:03 15 C 9.62 g/m*3 15 C 0 km/h
124 08-07-2008 00:40:03 14.8 C 9.75 g/m*3 14.8 C 0 km/h
125 08-07-2008 00:52:03 14.7 C 9.57 g/m*3 14.7 C 0 km/h
Sensor: Nr:Datum:Temp:Abs-Feuchte:Windchill:Wind:
Aussen-T/F 126 08-07-2008 01:04:03 14.8 C 9.37 g/m*3 14.8 C 0 km/h
127 08-07-2008 01:16:03 15.1 C 9.16 g/m*3 15.1 C 0 km/h
128 08-07-2008 01:28:03 15.3 C 9.14 g/m*3 15.3 C 0 km/h
129 08-07-2008 01:40:03 15.3 C 9.01 g/m*3 15.3 C 0 km/h
130 08-07-2008 01:52:03 15.3 C 8.88 g/m*3 15.3 C 0 km/h
131 08-07-2008 02:04:03 15.8 C 8.88 g/m*3 15.8 C 0 km/h
132 08-07-2008 02:16:03 15.9 C 8.8 g/m*3 15.9 C 0 km/h
133 08-07-2008 02:28:03 16 C 8.72 g/m*3 16 C 0 km/h
134 08-07-2008 02:40:03 15.9 C 8.67 g/m*3 15.9 C 0 km/h
135 08-07-2008 02:52:03 16 C 8.72 g/m*3 16 C 0 km/h
136 08-07-2008 03:04:04 15.7 C 9.1 g/m*3 15.7 C 0 km/h
137 08-07-2008 03:16:04 15.3 C 9.4 g/m*3 15.3 C 0 km/h
138 08-07-2008 03:28:04 14.8 C 9.88 g/m*3 14.8 C 0 km/h
139 08-07-2008 03:40:04 14.6 C 10.14 g/m*3 14.6 C 0 km/h
140 08-07-2008 03:52:04 14.4 C 10.01 g/m*3 14.4 C 0 km/h
141 08-07-2008 04:04:04 14.7 C 10.07 g/m*3 14.7 C 0 km/h
142 08-07-2008 04:16:04 14.7 C 9.95 g/m*3 14.7 C 0 km/h
143 08-07-2008 04:28:04 14.7 C 9.69 g/m*3 14.7 C 0 km/h
144 08-07-2008 04:40:04 14.5 C 9.58 g/m*3 14.5 C 0 km/h
145 08-07-2008 04:52:04 14.5 C 9.45 g/m*3 14.5 C 0 km/h
146 08-07-2008 05:04:04 14.5 C 9.33 g/m*3 14.5 C 0 km/h
147 08-07-2008 05:16:04 14.7 C 9.32 g/m*3 14.7 C 0 km/h
148 08-07-2008 05:28:04 14.7 C 9.19 g/m*3 14.7 C 0 km/h
149 08-07-2008 05:40:04 14.8 C 9.25 g/m*3 14.8 C 0 km/h
150 08-07-2008 05:52:04 15 C 9.23 g/m*3 15 C 0 km/h
Sensor: Nr:Datum:Temp:Abs-Feuchte:Windchill:Wind:
Aussen-T/F 151 08-07-2008 06:04:04 15.1 C 9.03 g/m*3 15.1 C 0 km/h
152 08-07-2008 06:16:04 15.3 C 8.88 g/m*3 15.3 C 0 km/h
153 08-07-2008 06:28:04 15.4 C 8.93 g/m*3 15.4 C 0 km/h
154 08-07-2008 06:40:02 15.6 C 8.91 g/m*3 15.6 C 0 km/h
155 08-07-2008 06:52:02 15 C 9.23 g/m*3 15 C 0 km/h
156 08-07-2008 07:04:02 14.7 C 9.57 g/m*3 14.7 C 0 km/h
157 08-07-2008 07:16:02 14.3 C 9.95 g/m*3 14.3 C 0 km/h
158 08-07-2008 07:28:02 14.2 C 10.26 g/m*3 14.2 C 0 km/h
159 08-07-2008 07:40:02 14.1 C 10.32 g/m*3 14.1 C 0 km/h
160 08-07-2008 07:52:02 14.3 C 10.57 g/m*3 14.3 C 0 km/h
161 08-07-2008 08:04:01 14.6 C 10.39 g/m*3 14.6 C 0 km/h
162 08-07-2008 08:16:01 15.1 C 10.19 g/m*3 15.1 C 0 km/h
163 08-07-2008 08:28:01 15.8 C 9.83 g/m*3 15.8 C 0 km/h
164 08-07-2008 08:40:02 15.9 C 9.48 g/m*3 15.9 C 0 km/h
165 08-07-2008 08:52:02 15.8 C 9.15 g/m*3 15.8 C 0 km/h
166 08-07-2008 09:04:02 16.4 C 9.07 g/m*3 16.4 C 0 km/h
167 08-07-2008 09:16:02 16.2 C 8.96 g/m*3 16.2 C 0 km/h
168 08-07-2008 09:28:02 16.9 C 8.92 g/m*3 16.9 C 0 km/h
169 08-07-2008 09:40:02 16.9 C 8.77 g/m*3 16.9 C 0 km/h
170 08-07-2008 09:52:02 17.1 C 8.59 g/m*3 17.1 C 0 km/h
171 08-07-2008 10:04:02 17.2 C 8.35 g/m*3 17.2 C 0 km/h
172 08-07-2008 10:16:02 17.6 C 8.55 g/m*3 17.6 C 0 km/h
173 08-07-2008 10:28:02 17.7 C 8.15 g/m*3 17.7 C 0 km/h
174 08-07-2008 10:40:02 18.2 C 8.39 g/m*3 18.2 C 0 km/h
175 08-07-2008 10:52:02 19 C 8.31 g/m*3 19 C 0 km/h
Sensor: Nr:Datum:Temp:Abs-Feuchte:Windchill:Wind:
Aussen-T/F 176 08-07-2008 11:04:02 19.7 C 8.15 g/m*3 19.7 C 0 km/h
177 08-07-2008 11:16:02 18.7 C 8.17 g/m*3 18.7 C 0 km/h
178 08-07-2008 11:28:02 19.2 C 8.41 g/m*3 19.2 C 0 km/h
179 08-07-2008 11:40:02 20 C 7.95 g/m*3 20 C 0 km/h
180 08-07-2008 11:52:02 19.9 C 8.08 g/m*3 19.9 C 0 km/h
181 08-07-2008 12:04:02 20.2 C 8.04 g/m*3 20.2 C 0 km/h
182 08-07-2008 12:16:02 18.9 C 8.42 g/m*3 18.9 C 0 km/h
183 08-07-2008 12:28:02 17.8 C 9.71 g/m*3 17.8 C 0 km/h
184 08-07-2008 12:40:02 19.8 C 8.88 g/m*3 19.8 C 0 km/h
185 08-07-2008 12:52:01 20.3 C 8.62 g/m*3 20.3 C 0 km/h
186 08-07-2008 13:04:02 21.3 C 7.83 g/m*3 21.3 C 0 km/h
187 08-07-2008 13:16:01 21.6 C 7.78 g/m*3 21.6 C 0 km/h
188 08-07-2008 13:28:01 22.5 C 7.59 g/m*3 22.5 C 0 km/h
189 08-07-2008 13:40:02 21.8 C 7.48 g/m*3 21.8 C 0 km/h
190 08-07-2008 13:52:02 21.2 C 7.41 g/m*3 21.2 C 0 km/h
191 08-07-2008 14:04:02 21.7 C 7.25 g/m*3 21.7 C 0 km/h
192 08-07-2008 14:16:02 20.3 C 7.39 g/m*3 20.3 C 0 km/h
193 08-07-2008 14:28:02 20.7 C 7.38 g/m*3 20.7 C 0 km/h
194 08-07-2008 14:40:02 21.9 C 7.33 g/m*3 21.9 C 0 km/h
195 08-07-2008 14:52:02 21.6 C 7.21 g/m*3 21.6 C 0 km/h
196 08-07-2008 15:04:01 20.4 C 7.08 g/m*3 20.4 C 0 km/h
197 08-07-2008 15:16:02 20 C 7.26 g/m*3 20 C 0 km/h
198 08-07-2008 15:28:02 21.2 C 7.23 g/m*3 21.2 C 0 km/h
199 08-07-2008 15:40:01 21.2 C 6.67 g/m*3 21.2 C 0 km/h
200 08-07-2008 15:52:03 20.9 C 6.92 g/m*3 20.9 C 0 km/h
Sensor: Nr:Datum:Temp:Abs-Feuchte:Windchill:Wind:
Aussen-T/F 201 08-07-2008 16:04:02 18.3 C 8.13 g/m*3 18.3 C 0 km/h
202 08-07-2008 16:16:03 19 C 7.82 g/m*3 19 C 0 km/h
203 08-07-2008 16:28:03 20.4 C 7.61 g/m*3 20.4 C 0 km/h
204 08-07-2008 16:40:02 19.2 C 7.75 g/m*3 19.2 C 0 km/h
205 08-07-2008 16:52:03 19.2 C 8.24 g/m*3 19.2 C 0 km/h
206 08-07-2008 17:04:02 19.8 C 8.03 g/m*3 19.8 C 0 km/h
207 08-07-2008 17:16:03 19.4 C 8.18 g/m*3 19.4 C 0 km/h
208 08-07-2008 17:28:03 17.1 C 9.46 g/m*3 17.1 C 0 km/h
209 08-07-2008 17:40:02 17 C 9.12 g/m*3 17 C 0 km/h
210 08-07-2008 17:52:02 17.7 C 8.75 g/m*3 17.7 C 0 km/h
211 08-07-2008 18:04:03 18.6 C 8.12 g/m*3 18.6 C 0 km/h
212 08-07-2008 18:16:02 19.1 C 7.87 g/m*3 19.1 C 0 km/h
213 08-07-2008 18:28:02 19.4 C 7.67 g/m*3 19.4 C 0 km/h
214 08-07-2008 18:40:03 19.4 C 7.67 g/m*3 19.4 C 0 km/h
215 08-07-2008 18:52:02 19 C 7.82 g/m*3 19 C 0 km/h
216 08-07-2008 19:04:02 18.4 C 7.71 g/m*3 18.4 C 0 km/h
217 08-07-2008 19:16:02 16.8 C 8.58 g/m*3 16.8 C 0 km/h
218 08-07-2008 19:28:02 16.2 C 8.55 g/m*3 16.2 C 0 km/h
219 08-07-2008 19:40:02 16.6 C 7.91 g/m*3 16.6 C 0 km/h
220 08-07-2008 19:52:02 17.8 C 7.59 g/m*3 17.8 C 0 km/h
221 08-07-2008 20:04:02 19.1 C 7.38 g/m*3 19.1 C 0 km/h
222 08-07-2008 20:16:02 19.3 C 6.97 g/m*3 19.3 C 0 km/h
223 08-07-2008 20:28:03 18.9 C 6.97 g/m*3 18.9 C 0 km/h
224 08-07-2008 20:40:02 18.3 C 7.19 g/m*3 18.3 C 0 km/h
225 08-07-2008 20:52:03 17.7 C 7.54 g/m*3 17.7 C 0 km/h
Sensor: Nr:Datum:Temp:Abs-Feuchte:Windchill:Wind:
Aussen-T/F 226 08-07-2008 21:04:02 17.3 C 7.51 g/m*3 17.3 C 0 km/h
227 08-07-2008 21:16:02 17.1 C 7.42 g/m*3 17.1 C 0 km/h
228 08-07-2008 21:28:02 16.9 C 7.48 g/m*3 16.9 C 0 km/h
229 08-07-2008 21:40:02 16.8 C 7.58 g/m*3 16.8 C 0 km/h
230 08-07-2008 21:52:02 16.4 C 7.82 g/m*3 16.4 C 0 km/h
231 08-07-2008 22:04:02 16 C 7.77 g/m*3 16 C 0 km/h
232 08-07-2008 22:16:02 15.7 C 7.89 g/m*3 15.7 C 0 km/h
233 08-07-2008 22:28:02 15.7 C 8.03 g/m*3 15.7 C 0 km/h
234 08-07-2008 22:40:02 15.8 C 7.94 g/m*3 15.8 C 0 km/h
235 08-07-2008 22:53:02 15.8 C 7.94 g/m*3 15.8 C 0 km/h
236 08-07-2008 23:05:02 15.8 C 7.81 g/m*3 15.8 C 0 km/h
237 08-07-2008 23:17:02 15.8 C 7.67 g/m*3 15.8 C 0 km/h
238 08-07-2008 23:29:02 15.6 C 7.71 g/m*3 15.6 C 0 km/h
239 08-07-2008 23:41:02 15.3 C 7.84 g/m*3 15.3 C 0 km/h
240 08-07-2008 23:53:02 15.1 C 7.87 g/m*3 15.1 C 0 km/h
241 09-07-2008 00:05:02 15.1 C 7.74 g/m*3 15.1 C 0 km/h
242 09-07-2008 00:17:03 15 C 7.69 g/m*3 15 C 0 km/h
243 09-07-2008 00:29:03 15 C 7.69 g/m*3 15 C 0 km/h
244 09-07-2008 00:41:03 15.1 C 7.61 g/m*3 15.1 C 0 km/h
245 09-07-2008 00:53:03 15.1 C 7.61 g/m*3 15.1 C 0 km/h
246 09-07-2008 01:05:03 15.3 C 7.57 g/m*3 15.3 C 0 km/h
247 09-07-2008 01:17:03 15.3 C 7.57 g/m*3 15.3 C 0 km/h
248 09-07-2008 01:29:03 15.1 C 7.48 g/m*3 15.1 C 0 km/h
249 09-07-2008 01:41:03 15.1 C 7.48 g/m*3 15.1 C 0 km/h
250 09-07-2008 01:53:03 14.9 C 7.65 g/m*3 14.9 C 0 km/h
Sensor: Nr:Datum:Temp:Abs-Feuchte:Windchill:Wind:
Aussen-T/F 251 09-07-2008 02:05:03 14.7 C 7.55 g/m*3 14.7 C 0 km/h
252 09-07-2008 02:17:03 14.6 C 7.63 g/m*3 14.6 C 0 km/h
253 09-07-2008 02:29:03 14.5 C 7.71 g/m*3 14.5 C 0 km/h
254 09-07-2008 02:41:03 14.5 C 7.84 g/m*3 14.5 C 0 km/h
255 09-07-2008 02:53:03 14.4 C 7.79 g/m*3 14.4 C 0 km/h
256 09-07-2008 03:05:03 14.4 C 7.79 g/m*3 14.4 C 0 km/h
257 09-07-2008 03:17:03 14.1 C 7.77 g/m*3 14.1 C 0 km/h
258 09-07-2008 03:29:03 14.2 C 7.94 g/m*3 14.2 C 0 km/h
259 09-07-2008 03:41:03 14.2 C 8.06 g/m*3 14.2 C 0 km/h
260 09-07-2008 03:53:03 14.1 C 8.13 g/m*3 14.1 C 0 km/h
261 09-07-2008 04:05:04 14 C 8.08 g/m*3 14 C 0 km/h
262 09-07-2008 04:17:04 13.8 C 8.22 g/m*3 13.8 C 0 km/h
263 09-07-2008 04:29:04 13.8 C 8.22 g/m*3 13.8 C 0 km/h
264 09-07-2008 04:41:04 13.8 C 8.22 g/m*3 13.8 C 0 km/h
265 09-07-2008 04:53:04 13.8 C 8.34 g/m*3 13.8 C 0 km/h
266 09-07-2008 05:05:04 13.8 C 8.22 g/m*3 13.8 C 0 km/h
267 09-07-2008 05:17:04 14.1 C 8.13 g/m*3 14.1 C 0 km/h
268 09-07-2008 05:29:04 14.2 C 8.06 g/m*3 14.2 C 0 km/h
269 09-07-2008 05:41:04 14.3 C 8.11 g/m*3 14.3 C 0 km/h
270 09-07-2008 05:53:04 14.3 C 7.99 g/m*3 14.3 C 0 km/h
271 09-07-2008 06:05:04 14.2 C 8.06 g/m*3 14.2 C 0 km/h
272 09-07-2008 06:17:03 14.2 C 8.18 g/m*3 14.2 C 0 km/h
273 09-07-2008 06:29:03 14.1 C 8.13 g/m*3 14.1 C 0 km/h
274 09-07-2008 06:41:02 14.1 C 8.13 g/m*3 14.1 C 0 km/h
275 09-07-2008 06:53:03 14 C 8.08 g/m*3 14 C 0 km/h
Sensor: Nr:Datum:Temp:Abs-Feuchte:Windchill:Wind:
Aussen-T/F 276 09-07-2008 07:05:02 14 C 8.08 g/m*3 14 C 0 km/h
277 09-07-2008 07:17:02 14.1 C 8.25 g/m*3 14.1 C 0 km/h
278 09-07-2008 07:29:02 14.1 C 8.25 g/m*3 14.1 C 0 km/h
279 09-07-2008 07:41:03 14.3 C 8.11 g/m*3 14.3 C 0 km/h
280 09-07-2008 07:53:02 14.5 C 8.08 g/m*3 14.5 C 0 km/h
281 09-07-2008 08:05:02 14.6 C 8.13 g/m*3 14.6 C 0 km/h
282 09-07-2008 08:17:02 14.7 C 8.06 g/m*3 14.7 C 0 km/h
283 09-07-2008 08:29:02 14.8 C 8.11 g/m*3 14.8 C 0 km/h
284 09-07-2008 08:41:02 15.2 C 8.05 g/m*3 15.2 C 0 km/h
285 09-07-2008 08:53:02 15.5 C 7.8 g/m*3 15.5 C 0 km/h
286 09-07-2008 09:05:02 16 C 7.63 g/m*3 16 C 0 km/h
287 09-07-2008 09:17:02 16.5 C 7.3 g/m*3 16.5 C 0 km/h
288 09-07-2008 09:29:02 17.2 C 6.88 g/m*3 17.2 C 0 km/h
289 09-07-2008 09:41:02 17.5 C 7.01 g/m*3 17.5 C 0 km/h
290 09-07-2008 09:53:01 17.8 C 6.68 g/m*3 17.8 C 0 km/h
291 09-07-2008 10:05:02 18.3 C 6.41 g/m*3 18.3 C 0 km/h
292 09-07-2008 10:17:02 18.4 C 6.61 g/m*3 18.4 C 0 km/h
293 09-07-2008 10:29:02 18.7 C 6.88 g/m*3 18.7 C 0 km/h
294 09-07-2008 10:41:02 19.5 C 6.88 g/m*3 19.5 C 0 km/h
295 09-07-2008 10:53:02 19.8 C 6.66 g/m*3 19.8 C 0 km/h
296 09-07-2008 11:05:02 19.6 C 6.75 g/m*3 19.6 C 0 km/h
297 09-07-2008 11:17:01 19.5 C 6.88 g/m*3 19.5 C 0 km/h
298 09-07-2008 11:29:01 19.5 C 6.55 g/m*3 19.5 C 0 km/h
299 09-07-2008 11:41:02 19.9 C 6.53 g/m*3 19.9 C 0 km/h
300 09-07-2008 11:53:02 21.2 C 6.67 g/m*3 21.2 C 0 km/h
Sensor: Nr:Datum:Temp:Abs-Feuchte:Windchill:Wind:
Aussen-T/F 301 09-07-2008 12:05:02 21.3 C 6.34 g/m*3 21.3 C 0 km/h
302 09-07-2008 12:17:02 21.7 C 6.29 g/m*3 21.7 C 0 km/h
303 09-07-2008 12:29:02 22.1 C 6.25 g/m*3 22.1 C 0 km/h
304 09-07-2008 12:41:02 22.5 C 5.99 g/m*3 22.5 C 0 km/h
305 09-07-2008 12:53:01 21.8 C 5.95 g/m*3 21.8 C 0 km/h
306 09-07-2008 13:05:02 21.6 C 6.26 g/m*3 21.6 C 0 km/h
307 09-07-2008 13:17:01 21.9 C 6.37 g/m*3 21.9 C 0 km/h
308 09-07-2008 13:29:01 22.3 C 6.32 g/m*3 22.3 C 0 km/h
309 09-07-2008 13:41:02 21.8 C 6.52 g/m*3 21.8 C 0 km/h
310 09-07-2008 13:53:02 21.5 C 6.41 g/m*3 21.5 C 0 km/h
311 09-07-2008 14:05:03 21.3 C 6.52 g/m*3 21.3 C 0 km/h
312 09-07-2008 14:17:02 22 C 6.6 g/m*3 22 C 0 km/h
313 09-07-2008 14:29:02 21.5 C 6.6 g/m*3 21.5 C 0 km/h
314 09-07-2008 14:41:02 21.5 C 6.6 g/m*3 21.5 C 0 km/h
315 09-07-2008 14:53:02 21.2 C 6.67 g/m*3 21.2 C 0 km/h
316 09-07-2008 15:05:02 21.4 C 6.75 g/m*3 21.4 C 0 km/h
317 09-07-2008 15:17:02 21.1 C 6.82 g/m*3 21.1 C 0 km/h
318 09-07-2008 15:29:02 20.9 C 7.47 g/m*3 20.9 C 0 km/h
319 09-07-2008 15:41:02 20.8 C 7.42 g/m*3 20.8 C 0 km/h
320 09-07-2008 15:53:02 20.9 C 7.65 g/m*3 20.9 C 0 km/h
321 09-07-2008 16:05:02 20.5 C 8.01 g/m*3 20.5 C 0 km/h
322 09-07-2008 16:17:02 20.4 C 7.96 g/m*3 20.4 C 0 km/h
323 09-07-2008 16:29:02 19.7 C 8.49 g/m*3 19.7 C 0 km/h
324 09-07-2008 16:41:03 19.7 C 8.83 g/m*3 19.7 C 0 km/h
325 09-07-2008 16:53:02 19.6 C 9.28 g/m*3 19.6 C 0 km/h
Sensor: Nr:Datum:Temp:Abs-Feuchte:Windchill:Wind:
Aussen-T/F 326 09-07-2008 17:05:02 19.1 C 9.84 g/m*3 19.1 C 0 km/h
327 09-07-2008 17:17:02 18.6 C 9.71 g/m*3 18.6 C 0 km/h
328 09-07-2008 17:29:02 19 C 10.43 g/m*3 19 C 0 km/h
329 09-07-2008 17:41:02 19.5 C 10.74 g/m*3 19.5 C 0 km/h
330 09-07-2008 17:53:02 19.7 C 11.21 g/m*3 19.7 C 0 km/h
331 09-07-2008 18:05:02 18.9 C 11.34 g/m*3 18.9 C 0 km/h
332 09-07-2008 18:17:02 17.5 C 11.48 g/m*3 17.5 C 0 km/h
333 09-07-2008 18:29:02 17 C 11.58 g/m*3 17 C 0 km/h
334 09-07-2008 18:41:02 17.2 C 12.15 g/m*3 17.2 C 0 km/h
335 09-07-2008 18:53:01 16.8 C 12.01 g/m*3 16.8 C 0 km/h
336 09-07-2008 19:05:02 17 C 12.15 g/m*3 17 C 0 km/h
337 09-07-2008 19:17:02 17 C 11.58 g/m*3 17 C 0 km/h
338 09-07-2008 19:29:02 16.7 C 11.37 g/m*3 16.7 C 0 km/h
339 09-07-2008 19:41:02 16.8 C 11.44 g/m*3 16.8 C 0 km/h
340 09-07-2008 19:53:01 17 C 11.58 g/m*3 17 C 0 km/h
341 09-07-2008 20:05:02 17.1 C 11.65 g/m*3 17.1 C 0 km/h
342 09-07-2008 20:17:01 17.2 C 11.57 g/m*3 17.2 C 0 km/h
343 09-07-2008 20:29:01 17.1 C 11.5 g/m*3 17.1 C 0 km/h
344 09-07-2008 20:41:02 16.7 C 11.37 g/m*3 16.7 C 0 km/h
345 09-07-2008 20:53:02 16.2 C 11.45 g/m*3 16.2 C 0 km/h
346 09-07-2008 21:05:02 16.1 C 11.51 g/m*3 16.1 C 0 km/h
347 09-07-2008 21:17:02 15.9 C 11.65 g/m*3 15.9 C 0 km/h
348 09-07-2008 21:29:02 15.9 C 11.65 g/m*3 15.9 C 0 km/h
349 09-07-2008 21:41:02 16 C 11.72 g/m*3 16 C 0 km/h
350 09-07-2008 21:53:02 16.1 C 11.79 g/m*3 16.1 C 0 km/h
Sensor: Nr:Datum:Temp:Abs-Feuchte:Windchill:Wind:
Aussen-T/F 351 09-07-2008 22:05:03 16 C 11.72 g/m*3 16 C 0 km/h
352 09-07-2008 22:17:02 15.8 C 11.71 g/m*3 15.8 C 0 km/h
353 09-07-2008 22:29:02 15.5 C 11.5 g/m*3 15.5 C 0 km/h
354 09-07-2008 22:42:03 15.2 C 11.42 g/m*3 15.2 C 0 km/h
355 09-07-2008 22:54:03 15 C 11.28 g/m*3 15 C 0 km/h
356 09-07-2008 23:06:03 15.1 C 11.48 g/m*3 15.1 C 0 km/h
357 09-07-2008 23:18:03 15 C 11.54 g/m*3 15 C 0 km/h
358 09-07-2008 23:30:03 15 C 11.54 g/m*3 15 C 0 km/h
359 09-07-2008 23:42:03 15 C 11.54 g/m*3 15 C 0 km/h
360 09-07-2008 23:54:03 15.2 C 11.81 g/m*3 15.2 C 0 km/h
361 10-07-2008 00:06:03 15.2 C 11.81 g/m*3 15.2 C 0 km/h
362 10-07-2008 00:18:03 15.3 C 11.88 g/m*3 15.3 C 0 km/h
363 10-07-2008 00:30:03 15.3 C 11.88 g/m*3 15.3 C 0 km/h
364 10-07-2008 00:42:03 15.3 C 11.88 g/m*3 15.3 C 0 km/h
365 10-07-2008 00:54:03 15.2 C 11.81 g/m*3 15.2 C 0 km/h
366 10-07-2008 01:06:03 15.2 C 11.81 g/m*3 15.2 C 0 km/h
367 10-07-2008 01:18:03 15.2 C 11.81 g/m*3 15.2 C 0 km/h
368 10-07-2008 01:30:03 15 C 11.67 g/m*3 15 C 0 km/h
369 10-07-2008 01:42:04 15 C 11.67 g/m*3 15 C 0 km/h
370 10-07-2008 01:54:04 15 C 11.67 g/m*3 15 C 0 km/h
371 10-07-2008 02:06:04 15.2 C 11.81 g/m*3 15.2 C 0 km/h
372 10-07-2008 02:18:04 15.2 C 11.81 g/m*3 15.2 C 0 km/h
373 10-07-2008 02:30:04 15.2 C 11.68 g/m*3 15.2 C 0 km/h
374 10-07-2008 02:42:04 15.1 C 11.61 g/m*3 15.1 C 0 km/h
375 10-07-2008 02:54:04 14.9 C 11.6 g/m*3 14.9 C 0 km/h
Sensor: Nr:Datum:Temp:Abs-Feuchte:Windchill:Wind:
Aussen-T/F 376 10-07-2008 03:06:04 14.7 C 11.46 g/m*3 14.7 C 0 km/h
377 10-07-2008 03:18:04 14.7 C 11.46 g/m*3 14.7 C 0 km/h
378 10-07-2008 03:30:04 14.4 C 11.25 g/m*3 14.4 C 0 km/h
379 10-07-2008 03:42:04 14.3 C 11.18 g/m*3 14.3 C 0 km/h
380 10-07-2008 03:54:04 14.3 C 11.18 g/m*3 14.3 C 0 km/h
381 10-07-2008 04:06:04 14.2 C 11.11 g/m*3 14.2 C 0 km/h
382 10-07-2008 04:18:04 14.6 C 11.51 g/m*3 14.6 C 0 km/h
383 10-07-2008 04:30:04 14.7 C 11.58 g/m*3 14.7 C 0 km/h
384 10-07-2008 04:42:04 14.9 C 11.73 g/m*3 14.9 C 0 km/h
385 10-07-2008 04:54:04 14.9 C 11.73 g/m*3 14.9 C 0 km/h
386 10-07-2008 05:06:04 15 C 11.67 g/m*3 15 C 0 km/h
387 10-07-2008 05:18:04 14.9 C 11.6 g/m*3 14.9 C 0 km/h
388 10-07-2008 05:30:04 14.8 C 11.53 g/m*3 14.8 C 0 km/h
389 10-07-2008 05:42:04 14.6 C 11.39 g/m*3 14.6 C 0 km/h
390 10-07-2008 05:54:05 14.5 C 11.19 g/m*3 14.5 C 0 km/h
391 10-07-2008 06:06:05 14.5 C 11.19 g/m*3 14.5 C 0 km/h
392 10-07-2008 06:18:05 14.5 C 11.32 g/m*3 14.5 C 0 km/h
393 10-07-2008 06:30:05 14.6 C 11.39 g/m*3 14.6 C 0 km/h
394 10-07-2008 06:42:03 14.8 C 11.53 g/m*3 14.8 C 0 km/h
395 10-07-2008 06:54:02 15 C 11.54 g/m*3 15 C 0 km/h
396 10-07-2008 07:06:02 15.4 C 11.96 g/m*3 15.4 C 0 km/h
397 10-07-2008 07:18:02 15.8 C 12.25 g/m*3 15.8 C 0 km/h
398 10-07-2008 07:30:02 16.1 C 12.2 g/m*3 16.1 C 0 km/h
399 10-07-2008 07:42:02 16.4 C 12.14 g/m*3 16.4 C 0 km/h
400 10-07-2008 07:54:02 16.7 C 12.22 g/m*3 16.7 C 0 km/h
Sensor: Nr:Datum:Temp:Abs-Feuchte:Windchill:Wind:
Aussen-T/F 401 10-07-2008 08:06:03 16.8 C 12.01 g/m*3 16.8 C 0 km/h
402 10-07-2008 08:18:02 17 C 11.87 g/m*3 17 C 0 km/h
403 10-07-2008 08:30:02 17.2 C 12.01 g/m*3 17.2 C 0 km/h
404 10-07-2008 08:42:02 17.2 C 11.86 g/m*3 17.2 C 0 km/h
405 10-07-2008 08:54:02 17.4 C 11.41 g/m*3 17.4 C 0 km/h
406 10-07-2008 09:06:02 17.7 C 11.32 g/m*3 17.7 C 0 km/h
407 10-07-2008 09:18:02 18.3 C 11.41 g/m*3 18.3 C 0 km/h
408 10-07-2008 09:30:02 19.3 C 11.78 g/m*3 19.3 C 0 km/h
409 10-07-2008 09:42:02 20.5 C 11.74 g/m*3 20.5 C 0 km/h
410 10-07-2008 09:54:02 20.9 C 10.93 g/m*3 20.9 C 0 km/h
411 10-07-2008 10:06:02 21.2 C 10.19 g/m*3 21.2 C 0 km/h
412 10-07-2008 10:18:02 21.6 C 10.24 g/m*3 21.6 C 0 km/h
413 10-07-2008 10:30:02 22.2 C 10.01 g/m*3 22.2 C 0 km/h
414 10-07-2008 10:42:03 22.7 C 9.9 g/m*3 22.7 C 0 km/h
415 10-07-2008 10:54:02 23.6 C 9.57 g/m*3 23.6 C 0 km/h
416 10-07-2008 11:06:01 24.1 C 8.97 g/m*3 24.1 C 0 km/h
417 10-07-2008 11:18:02 24.2 C 8.8 g/m*3 24.2 C 0 km/h
418 10-07-2008 11:30:03 23.9 C 8.87 g/m*3 23.9 C 0 km/h
419 10-07-2008 11:42:01 23.8 C 8.82 g/m*3 23.8 C 0 km/h
420 10-07-2008 11:54:02 24.9 C 8.93 g/m*3 24.9 C 0 km/h
421 10-07-2008 12:06:01 25.3 C 8.19 g/m*3 25.3 C 0 km/h
422 10-07-2008 12:18:02 25.8 C 8.19 g/m*3 25.8 C 0 km/h
423 10-07-2008 12:30:02 26.5 C 8.01 g/m*3 26.5 C 0 km/h
424 10-07-2008 12:42:01 26.7 C 7.85 g/m*3 26.7 C 0 km/h
425 10-07-2008 12:54:02 26.8 C 7.89 g/m*3 26.8 C 0 km/h
Sensor: Nr:Datum:Temp:Abs-Feuchte:Windchill:Wind:
Aussen-T/F 426 10-07-2008 13:06:01 27.9 C 8.11 g/m*3 27.9 C 0 km/h
427 10-07-2008 13:18:02 28.9 C 7.71 g/m*3 28.9 C 0 km/h
428 10-07-2008 13:30:02 27.7 C 6.95 g/m*3 27.7 C 0 km/h
429 10-07-2008 13:42:01 29.2 C 7.26 g/m*3 29.2 C 0 km/h
430 10-07-2008 13:54:01 29.5 C 7.08 g/m*3 29.5 C 0 km/h
431 10-07-2008 14:06:01 29.7 C 7.16 g/m*3 29.7 C 0 km/h
432 10-07-2008 14:18:02 29.4 C 7.34 g/m*3 29.4 C 0 km/h
433 10-07-2008 14:30:02 29.3 C 7.3 g/m*3 29.3 C 0 km/h
434 10-07-2008 14:42:01 29.5 C 7.08 g/m*3 29.5 C 0 km/h
435 10-07-2008 14:54:01 30 C 6.67 g/m*3 30 C 0 km/h
436 10-07-2008 15:06:01 29.7 C 6.56 g/m*3 29.7 C 0 km/h
437 10-07-2008 15:18:01 29.7 C 6.56 g/m*3 29.7 C 0 km/h
438 10-07-2008 15:30:01 29.9 C 6.64 g/m*3 29.9 C 0 km/h
439 10-07-2008 15:42:01 29.6 C 6.23 g/m*3 29.6 C 0 km/h
440 10-07-2008 15:54:01 29.6 C 6.53 g/m*3 29.6 C 0 km/h
441 10-07-2008 16:06:02 29.8 C 6.9 g/m*3 29.8 C 0 km/h
442 10-07-2008 16:18:01 29.7 C 6.56 g/m*3 29.7 C 0 km/h
443 10-07-2008 16:30:01 30 C 6.67 g/m*3 30 C 0 km/h
444 10-07-2008 16:42:02 30.3 C 6.47 g/m*3 30.3 C 0 km/h
445 10-07-2008 16:54:02 30.6 C 6.26 g/m*3 30.6 C 0 km/h
446 10-07-2008 17:06:02 30.7 C 6.3 g/m*3 30.7 C 0 km/h
447 10-07-2008 17:18:01 30.9 C 6.37 g/m*3 30.9 C 0 km/h
448 10-07-2008 17:30:01 30.3 C 6.47 g/m*3 30.3 C 0 km/h
449 10-07-2008 17:42:02 30.4 C 6.2 g/m*3 30.4 C 0 km/h
450 10-07-2008 17:54:02 31 C 6.4 g/m*3 31 C 0 km/h
Sensor: Nr:Datum:Temp:Abs-Feuchte:Windchill:Wind:
Aussen-T/F 451 10-07-2008 18:06:03 30.7 C 6.3 g/m*3 30.7 C 0 km/h
452 10-07-2008 18:18:02 30.3 C 6.16 g/m*3 30.3 C 0 km/h
453 10-07-2008 18:30:02 30.1 C 6.1 g/m*3 30.1 C 0 km/h
454 10-07-2008 18:42:03 29.7 C 6.27 g/m*3 29.7 C 0 km/h
455 10-07-2008 18:54:02 29.3 C 6.42 g/m*3 29.3 C 0 km/h
456 10-07-2008 19:06:01 28.9 C 6.57 g/m*3 28.9 C 0 km/h
457 10-07-2008 19:18:02 29.8 C 6.6 g/m*3 29.8 C 0 km/h
458 10-07-2008 19:30:03 30 C 6.37 g/m*3 30 C 0 km/h
459 10-07-2008 19:42:01 29.6 C 6.53 g/m*3 29.6 C 0 km/h
460 10-07-2008 19:54:02 29 C 7.18 g/m*3 29 C 0 km/h
461 10-07-2008 20:06:01 28.5 C 6.99 g/m*3 28.5 C 0 km/h
462 10-07-2008 20:18:02 28 C 7.34 g/m*3 28 C 0 km/h
463 10-07-2008 20:30:02 27.3 C 7.85 g/m*3 27.3 C 0 km/h
464 10-07-2008 20:42:01 26.5 C 8.01 g/m*3 26.5 C 0 km/h
465 10-07-2008 20:54:02 26 C 8.03 g/m*3 26 C 0 km/h
466 10-07-2008 21:06:01 25.7 C 7.9 g/m*3 25.7 C 0 km/h
467 10-07-2008 21:18:02 25.4 C 8 g/m*3 25.4 C 0 km/h
468 10-07-2008 21:30:02 24.8 C 8.42 g/m*3 24.8 C 0 km/h
469 10-07-2008 21:42:01 24.4 C 8.23 g/m*3 24.4 C 0 km/h
470 10-07-2008 21:54:01 24.1 C 8.31 g/m*3 24.1 C 0 km/h
471 10-07-2008 22:06:01 23.7 C 8.34 g/m*3 23.7 C 0 km/h
472 10-07-2008 22:18:02 23.7 C 8.56 g/m*3 23.7 C 0 km/h
473 10-07-2008 22:30:02 23.5 C 8.67 g/m*3 23.5 C 0 km/h
474 10-07-2008 22:42:01 23.4 C 8.62 g/m*3 23.4 C 0 km/h
475 10-07-2008 22:55:01 23.2 C 8.73 g/m*3 23.2 C 0 km/h
Sensor: Nr:Datum:Temp:Abs-Feuchte:Windchill:Wind:
Aussen-T/F 476 10-07-2008 23:07:01 23.1 C 8.89 g/m*3 23.1 C 0 km/h
477 10-07-2008 23:19:01 23 C 8.84 g/m*3 23 C 0 km/h
478 10-07-2008 23:31:01 22.9 C 9.2 g/m*3 22.9 C 0 km/h
479 10-07-2008 23:43:01 22.8 C 9.14 g/m*3 22.8 C 0 km/h
480 10-07-2008 23:55:02 22.5 C 9.39 g/m*3 22.5 C 0 km/h
481 11-07-2008 00:07:02 22.3 C 9.87 g/m*3 22.3 C 0 km/h
482 11-07-2008 00:19:02 20.3 C 11.61 g/m*3 20.3 C 0 km/h
483 11-07-2008 00:31:02 20.5 C 11.74 g/m*3 20.5 C 0 km/h
484 11-07-2008 00:43:02 20.7 C 11.88 g/m*3 20.7 C 0 km/h
485 11-07-2008 00:55:02 20.6 C 11.28 g/m*3 20.6 C 0 km/h
486 11-07-2008 01:07:02 20.6 C 10.92 g/m*3 20.6 C 0 km/h
487 11-07-2008 01:19:02 20.6 C 10.74 g/m*3 20.6 C 0 km/h
488 11-07-2008 01:31:02 20.4 C 10.61 g/m*3 20.4 C 0 km/h
489 11-07-2008 01:43:02 20.5 C 10.85 g/m*3 20.5 C 0 km/h
490 11-07-2008 01:55:02 20.4 C 11.14 g/m*3 20.4 C 0 km/h
491 11-07-2008 02:07:02 19.9 C 11.34 g/m*3 19.9 C 0 km/h
492 11-07-2008 02:19:02 19.7 C 11.21 g/m*3 19.7 C 0 km/h
493 11-07-2008 02:31:02 19.7 C 11.21 g/m*3 19.7 C 0 km/h
494 11-07-2008 02:43:02 19.6 C 11.48 g/m*3 19.6 C 0 km/h
495 11-07-2008 02:55:02 19.4 C 11.51 g/m*3 19.4 C 0 km/h
496 11-07-2008 03:07:02 19.3 C 11.44 g/m*3 19.3 C 0 km/h
497 11-07-2008 03:19:02 19.1 C 11.47 g/m*3 19.1 C 0 km/h
498 11-07-2008 03:31:02 19.2 C 11.21 g/m*3 19.2 C 0 km/h
499 11-07-2008 03:43:02 19.5 C 11.08 g/m*3 19.5 C 0 km/h
500 11-07-2008 03:55:03 19.5 C 11.08 g/m*3 19.5 C 0 km/h
Sensor: Nr:Datum:Temp:Abs-Feuchte:Windchill:Wind:
Aussen-T/F 501 11-07-2008 04:07:03 19.4 C 11.18 g/m*3 19.4 C 0 km/h
502 11-07-2008 04:19:03 19.5 C 10.91 g/m*3 19.5 C 0 km/h
503 11-07-2008 04:31:03 19.5 C 11.24 g/m*3 19.5 C 0 km/h
504 11-07-2008 04:43:03 19.4 C 11.18 g/m*3 19.4 C 0 km/h
505 11-07-2008 04:55:03 19.3 C 11.11 g/m*3 19.3 C 0 km/h
506 11-07-2008 05:07:03 19.1 C 10.98 g/m*3 19.1 C 0 km/h
507 11-07-2008 05:19:03 19.2 C 11.05 g/m*3 19.2 C 0 km/h
508 11-07-2008 05:31:03 19 C 11.08 g/m*3 19 C 0 km/h
509 11-07-2008 05:43:03 18.8 C 11.43 g/m*3 18.8 C 0 km/h
510 11-07-2008 05:55:03 18.9 C 11.66 g/m*3 18.9 C 0 km/h
511 11-07-2008 06:07:03 19.1 C 11.31 g/m*3 19.1 C 0 km/h
512 11-07-2008 06:19:03 19.1 C 11.31 g/m*3 19.1 C 0 km/h
513 11-07-2008 06:31:03 19 C 11.57 g/m*3 19 C 0 km/h
514 11-07-2008 06:43:03 18.8 C 11.92 g/m*3 18.8 C 0 km/h
515 11-07-2008 06:55:03 18.8 C 12.08 g/m*3 18.8 C 0 km/h
516 11-07-2008 07:07:02 19.2 C 12.04 g/m*3 19.2 C 0 km/h
517 11-07-2008 07:19:02 19.6 C 11.99 g/m*3 19.6 C 0 km/h
518 11-07-2008 07:31:01 19.9 C 11.68 g/m*3 19.9 C 0 km/h
519 11-07-2008 07:43:01 20 C 11.41 g/m*3 20 C 0 km/h
520 11-07-2008 07:55:03 19.7 C 11.55 g/m*3 19.7 C 0 km/h
521 11-07-2008 08:07:02 19.7 C 11.72 g/m*3 19.7 C 0 km/h
522 11-07-2008 08:19:03 20.3 C 11.61 g/m*3 20.3 C 0 km/h
523 11-07-2008 08:31:02 21.2 C 11.3 g/m*3 21.2 C 0 km/h
524 11-07-2008 08:43:02 21.5 C 11.31 g/m*3 21.5 C 0 km/h
525 11-07-2008 08:55:02 21.7 C 11.45 g/m*3 21.7 C 0 km/h
Sensor: Nr:Datum:Temp:Abs-Feuchte:Windchill:Wind:
Aussen-T/F 526 11-07-2008 09:07:02 21.6 C 11.38 g/m*3 21.6 C 0 km/h
527 11-07-2008 09:19:03 21.5 C 11.31 g/m*3 21.5 C 0 km/h
528 11-07-2008 09:31:02 22 C 11.06 g/m*3 22 C 0 km/h
529 11-07-2008 09:43:02 22.6 C 11.05 g/m*3 22.6 C 0 km/h
530 11-07-2008 09:55:02 23 C 10.89 g/m*3 23 C 0 km/h
531 11-07-2008 10:07:02 23 C 10.69 g/m*3 23 C 0 km/h
532 11-07-2008 10:19:02 23.2 C 10.6 g/m*3 23.2 C 0 km/h
533 11-07-2008 10:31:02 22.9 C 10.83 g/m*3 22.9 C 0 km/h
534 11-07-2008 10:43:02 22.7 C 10.91 g/m*3 22.7 C 0 km/h
535 11-07-2008 10:55:01 22.5 C 10.59 g/m*3 22.5 C 0 km/h
536 11-07-2008 11:07:02 22.3 C 10.47 g/m*3 22.3 C 0 km/h
537 11-07-2008 11:19:01 21.9 C 10.81 g/m*3 21.9 C 0 km/h
538 11-07-2008 11:31:02 22.5 C 10.59 g/m*3 22.5 C 0 km/h
539 11-07-2008 11:43:03 23.6 C 10.21 g/m*3 23.6 C 0 km/h
540 11-07-2008 11:55:02 23.5 C 9.94 g/m*3 23.5 C 0 km/h
541 11-07-2008 12:07:02 22.8 C 10.16 g/m*3 22.8 C 0 km/h
542 11-07-2008 12:19:01 22.4 C 10.33 g/m*3 22.4 C 0 km/h
543 11-07-2008 12:31:02 23 C 10.28 g/m*3 23 C 0 km/h
544 11-07-2008 12:43:02 22.6 C 10.45 g/m*3 22.6 C 0 km/h
545 11-07-2008 12:55:02 22.9 C 10.42 g/m*3 22.9 C 0 km/h
546 11-07-2008 13:07:02 23.5 C 10.36 g/m*3 23.5 C 0 km/h
547 11-07-2008 13:19:02 23.7 C 10.05 g/m*3 23.7 C 0 km/h
548 11-07-2008 13:31:03 24.2 C 10.12 g/m*3 24.2 C 0 km/h
549 11-07-2008 13:43:03 23 C 10.07 g/m*3 23 C 0 km/h
550 11-07-2008 13:55:02 22 C 10.29 g/m*3 22 C 0 km/h
Sensor: Nr:Datum:Temp:Abs-Feuchte:Windchill:Wind:
Aussen-T/F 551 11-07-2008 14:07:01 22.1 C 10.15 g/m*3 22.1 C 0 km/h
552 11-07-2008 14:19:02 22.4 C 10.13 g/m*3 22.4 C 0 km/h
553 11-07-2008 14:31:01 22.1 C 10.35 g/m*3 22.1 C 0 km/h
554 11-07-2008 14:43:01 20.8 C 11.41 g/m*3 20.8 C 0 km/h
555 11-07-2008 14:55:02 20.1 C 11.99 g/m*3 20.1 C 0 km/h
556 11-07-2008 15:07:01 20.4 C 12.21 g/m*3 20.4 C 0 km/h
557 11-07-2008 15:19:02 20.7 C 11.52 g/m*3 20.7 C 0 km/h
558 11-07-2008 15:31:01 20.9 C 11.47 g/m*3 20.9 C 0 km/h
559 11-07-2008 15:43:01 21.2 C 11.3 g/m*3 21.2 C 0 km/h
560 11-07-2008 15:55:01 21.3 C 11 g/m*3 21.3 C 0 km/h
561 11-07-2008 16:07:01 21.5 C 10.94 g/m*3 21.5 C 0 km/h
562 11-07-2008 16:19:02 21.9 C 11 g/m*3 21.9 C 0 km/h
563 11-07-2008 16:31:01 21.7 C 10.68 g/m*3 21.7 C 0 km/h
564 11-07-2008 16:43:01 20.9 C 10.93 g/m*3 20.9 C 0 km/h
565 11-07-2008 16:55:01 20.7 C 11.16 g/m*3 20.7 C 0 km/h
566 11-07-2008 17:07:02 21.2 C 11.3 g/m*3 21.2 C 0 km/h
567 11-07-2008 17:19:01 22 C 11.06 g/m*3 22 C 0 km/h
568 11-07-2008 17:31:01 22 C 10.67 g/m*3 22 C 0 km/h
569 11-07-2008 17:43:01 22 C 10.67 g/m*3 22 C 0 km/h
570 11-07-2008 17:55:01 22.6 C 10.45 g/m*3 22.6 C 0 km/h
571 11-07-2008 18:07:02 23.5 C 10.15 g/m*3 23.5 C 0 km/h
572 11-07-2008 18:19:01 23.4 C 9.67 g/m*3 23.4 C 0 km/h
573 11-07-2008 18:31:02 22.9 C 9.61 g/m*3 22.9 C 0 km/h
574 11-07-2008 18:43:02 22.2 C 9.42 g/m*3 22.2 C 0 km/h
575 11-07-2008 18:55:02 21.7 C 9.73 g/m*3 21.7 C 0 km/h
Sensor: Nr:Datum:Temp:Abs-Feuchte:Windchill:Wind:
Aussen-T/F 576 11-07-2008 19:07:02 21.5 C 9.99 g/m*3 21.5 C 0 km/h
577 11-07-2008 19:19:02 21.6 C 9.86 g/m*3 21.6 C 0 km/h
578 11-07-2008 19:31:02 21.5 C 9.99 g/m*3 21.5 C 0 km/h
579 11-07-2008 19:43:02 19.7 C 11.72 g/m*3 19.7 C 0 km/h
580 11-07-2008 19:55:02 18.6 C 12.57 g/m*3 18.6 C 0 km/h
581 11-07-2008 20:07:01 18.3 C 12.82 g/m*3 18.3 C 0 km/h
582 11-07-2008 20:19:01 18 C 12.59 g/m*3 18 C 0 km/h
583 11-07-2008 20:31:02 18.3 C 12.51 g/m*3 18.3 C 0 km/h
584 11-07-2008 20:43:02 18.1 C 11.43 g/m*3 18.1 C 0 km/h
585 11-07-2008 20:55:02 17.9 C 11.3 g/m*3 17.9 C 0 km/h
586 11-07-2008 21:07:02 17.8 C 11.23 g/m*3 17.8 C 0 km/h
587 11-07-2008 21:19:02 17.6 C 11.1 g/m*3 17.6 C 0 km/h
588 11-07-2008 21:31:02 17.5 C 11.18 g/m*3 17.5 C 0 km/h
589 11-07-2008 21:43:02 17.4 C 11.12 g/m*3 17.4 C 0 km/h
590 11-07-2008 21:55:02 17.5 C 11.33 g/m*3 17.5 C 0 km/h
591 11-07-2008 22:07:02 17.2 C 11.13 g/m*3 17.2 C 0 km/h
592 11-07-2008 22:19:02 17.2 C 11.28 g/m*3 17.2 C 0 km/h
593 11-07-2008 22:31:02 17.2 C 11.28 g/m*3 17.2 C 0 km/h
594 11-07-2008 22:43:02 17.2 C 11.28 g/m*3 17.2 C 0 km/h
595 11-07-2008 22:55:02 17.2 C 11.42 g/m*3 17.2 C 0 km/h
596 11-07-2008 23:07:02 17.7 C 11.62 g/m*3 17.7 C 0 km/h
597 11-07-2008 23:19:02 17.5 C 11.33 g/m*3 17.5 C 0 km/h
598 11-07-2008 23:31:02 17.6 C 11.25 g/m*3 17.6 C 0 km/h
599 11-07-2008 23:43:02 17.5 C 11.18 g/m*3 17.5 C 0 km/h
600 11-07-2008 23:55:01 17.6 C 11.1 g/m*3 17.6 C 0 km/h
Sensor: Nr:Datum:Temp:Abs-Feuchte:Windchill:Wind:
Aussen-T/F 601 12-07-2008 00:08:03 17.4 C 11.12 g/m*3 17.4 C 0 km/h
602 12-07-2008 00:20:03 17.5 C 11.03 g/m*3 17.5 C 0 km/h
603 12-07-2008 00:32:03 17.2 C 10.84 g/m*3 17.2 C 0 km/h
604 12-07-2008 00:44:03 17.1 C 10.92 g/m*3 17.1 C 0 km/h
605 12-07-2008 00:56:03 17.1 C 10.92 g/m*3 17.1 C 0 km/h
606 12-07-2008 01:08:03 17.1 C 10.77 g/m*3 17.1 C 0 km/h
607 12-07-2008 01:20:03 17.2 C 10.84 g/m*3 17.2 C 0 km/h
608 12-07-2008 01:32:03 17.1 C 10.77 g/m*3 17.1 C 0 km/h
609 12-07-2008 01:44:03 17 C 10.71 g/m*3 17 C 0 km/h
610 12-07-2008 01:56:03 16.9 C 10.79 g/m*3 16.9 C 0 km/h
611 12-07-2008 02:08:03 16.9 C 10.79 g/m*3 16.9 C 0 km/h
612 12-07-2008 02:20:03 16.8 C 10.72 g/m*3 16.8 C 0 km/h
613 12-07-2008 02:32:03 16.7 C 10.66 g/m*3 16.7 C 0 km/h
614 12-07-2008 02:44:03 16.8 C 10.58 g/m*3 16.8 C 0 km/h
615 12-07-2008 02:56:03 16.9 C 10.64 g/m*3 16.9 C 0 km/h
616 12-07-2008 03:08:03 16.9 C 10.5 g/m*3 16.9 C 0 km/h
617 12-07-2008 03:20:04 16.8 C 10.44 g/m*3 16.8 C 0 km/h
618 12-07-2008 03:32:04 16.7 C 10.37 g/m*3 16.7 C 0 km/h
619 12-07-2008 03:44:04 16.7 C 10.37 g/m*3 16.7 C 0 km/h
620 12-07-2008 03:56:04 16.7 C 10.37 g/m*3 16.7 C 0 km/h
621 12-07-2008 04:08:04 16.8 C 10.58 g/m*3 16.8 C 0 km/h
622 12-07-2008 04:20:04 16.9 C 10.5 g/m*3 16.9 C 0 km/h
623 12-07-2008 04:32:04 16.9 C 10.5 g/m*3 16.9 C 0 km/h
624 12-07-2008 04:44:04 17 C 10.27 g/m*3 17 C 0 km/h
625 12-07-2008 04:56:04 17.1 C 10.19 g/m*3 17.1 C 0 km/h
Sensor: Nr:Datum:Temp:Abs-Feuchte:Windchill:Wind:
Aussen-T/F 626 12-07-2008 05:08:04 17 C 10.13 g/m*3 17 C 0 km/h
627 12-07-2008 05:20:04 16.8 C 10.29 g/m*3 16.8 C 0 km/h
628 12-07-2008 05:32:04 16.6 C 10.31 g/m*3 16.6 C 0 km/h
629 12-07-2008 05:44:04 16.4 C 10.19 g/m*3 16.4 C 0 km/h
630 12-07-2008 05:56:04 16.2 C 10.2 g/m*3 16.2 C 0 km/h
631 12-07-2008 06:08:04 16 C 10.22 g/m*3 16 C 0 km/h
632 12-07-2008 06:20:04 15.8 C 10.36 g/m*3 15.8 C 0 km/h
633 12-07-2008 06:32:04 15.8 C 10.5 g/m*3 15.8 C 0 km/h
634 12-07-2008 06:44:04 15.8 C 10.5 g/m*3 15.8 C 0 km/h
635 12-07-2008 06:56:04 16 C 10.49 g/m*3 16 C 0 km/h
636 12-07-2008 07:08:04 16.1 C 10.55 g/m*3 16.1 C 0 km/h
637 12-07-2008 07:20:04 16.3 C 10.41 g/m*3 16.3 C 0 km/h
638 12-07-2008 07:32:05 16.6 C 10.31 g/m*3 16.6 C 0 km/h
639 12-07-2008 07:44:05 16.8 C 10.01 g/m*3 16.8 C 0 km/h
640 12-07-2008 07:56:05 17 C 9.69 g/m*3 17 C 0 km/h
641 12-07-2008 08:08:05 17.2 C 9.67 g/m*3 17.2 C 0 km/h
642 12-07-2008 08:20:02 17.4 C 9.34 g/m*3 17.4 C 0 km/h
643 12-07-2008 08:32:02 17.8 C 9.26 g/m*3 17.8 C 0 km/h
644 12-07-2008 08:44:02 17.9 C 9.01 g/m*3 17.9 C 0 km/h
645 12-07-2008 08:56:02 18.1 C 8.65 g/m*3 18.1 C 0 km/h
646 12-07-2008 09:08:02 18.2 C 8.7 g/m*3 18.2 C 0 km/h
647 12-07-2008 09:20:03 18 C 8.6 g/m*3 18 C 0 km/h
648 12-07-2008 09:32:02 18.5 C 8.86 g/m*3 18.5 C 0 km/h
649 12-07-2008 09:44:02 18.5 C 9.18 g/m*3 18.5 C 0 km/h
650 12-07-2008 09:56:01 16.2 C 10.34 g/m*3 16.2 C 0 km/h
Sensor: Nr:Datum:Temp:Abs-Feuchte:Windchill:Wind:
Aussen-T/F 651 12-07-2008 10:08:02 16 C 10.9 g/m*3 16 C 0 km/h
652 12-07-2008 10:20:01 16 C 11.04 g/m*3 16 C 0 km/h
653 12-07-2008 10:32:01 16.7 C 11.51 g/m*3 16.7 C 0 km/h
654 12-07-2008 10:44:01 18 C 11.21 g/m*3 18 C 0 km/h
655 12-07-2008 10:56:01 19.3 C 10.62 g/m*3 19.3 C 0 km/h
656 12-07-2008 11:08:02 20.3 C 9.5 g/m*3 20.3 C 0 km/h
657 12-07-2008 11:20:01 19.6 C 8.78 g/m*3 19.6 C 0 km/h
658 12-07-2008 11:32:02 17.6 C 10.05 g/m*3 17.6 C 0 km/h
659 12-07-2008 11:44:03 15.7 C 10.17 g/m*3 15.7 C 0 km/h
660 12-07-2008 11:56:02 15.5 C 10.57 g/m*3 15.5 C 0 km/h
661 12-07-2008 12:08:02 16.6 C 11.3 g/m*3 16.6 C 0 km/h
662 12-07-2008 12:20:02 17.5 C 11.03 g/m*3 17.5 C 0 km/h
663 12-07-2008 12:32:02 18.9 C 11.02 g/m*3 18.9 C 0 km/h
664 12-07-2008 12:44:02 20.7 C 10.26 g/m*3 20.7 C 0 km/h
665 12-07-2008 12:56:01 21.4 C 9.37 g/m*3 21.4 C 0 km/h
666 12-07-2008 13:08:02 20.1 C 8.69 g/m*3 20.1 C 0 km/h
667 12-07-2008 13:20:01 19.7 C 8.66 g/m*3 19.7 C 0 km/h
668 12-07-2008 13:32:02 19.4 C 8.34 g/m*3 19.4 C 0 km/h
669 12-07-2008 13:44:02 19.3 C 9.62 g/m*3 19.3 C 0 km/h
670 12-07-2008 13:56:01 20 C 8.64 g/m*3 20 C 0 km/h
671 12-07-2008 14:08:01 20.8 C 8.69 g/m*3 20.8 C 0 km/h
672 12-07-2008 14:20:02 21.6 C 7.78 g/m*3 21.6 C 0 km/h
673 12-07-2008 14:32:01 21.6 C 8.16 g/m*3 21.6 C 0 km/h
674 12-07-2008 14:44:01 21.5 C 7.92 g/m*3 21.5 C 0 km/h
675 12-07-2008 14:56:01 21.4 C 7.5 g/m*3 21.4 C 0 km/h
Sensor: Nr:Datum:Temp:Abs-Feuchte:Windchill:Wind:
Aussen-T/F 676 12-07-2008 15:08:02 20.3 C 7.39 g/m*3 20.3 C 0 km/h
677 12-07-2008 15:20:01 21.2 C 7.78 g/m*3 21.2 C 0 km/h
678 12-07-2008 15:32:03 21.1 C 7.55 g/m*3 21.1 C 0 km/h
679 12-07-2008 15:44:03 20.4 C 7.43 g/m*3 20.4 C 0 km/h
680 12-07-2008 15:56:03 19.1 C 7.54 g/m*3 19.1 C 0 km/h
681 12-07-2008 16:08:02 18.6 C 8.59 g/m*3 18.6 C 0 km/h
682 12-07-2008 16:20:03 19.6 C 8.27 g/m*3 19.6 C 0 km/h
683 12-07-2008 16:32:02 20.3 C 7.91 g/m*3 20.3 C 0 km/h
684 12-07-2008 16:44:02 20.4 C 7.61 g/m*3 20.4 C 0 km/h
685 12-07-2008 16:56:02 18.9 C 8.75 g/m*3 18.9 C 0 km/h
686 12-07-2008 17:08:02 17.1 C 9.75 g/m*3 17.1 C 0 km/h
687 12-07-2008 17:20:03 17.2 C 10.4 g/m*3 17.2 C 0 km/h
688 12-07-2008 17:32:02 17.2 C 10.54 g/m*3 17.2 C 0 km/h
689 12-07-2008 17:44:02 17.3 C 10.31 g/m*3 17.3 C 0 km/h
690 12-07-2008 17:56:02 16.4 C 10.33 g/m*3 16.4 C 0 km/h
691 12-07-2008 18:08:02 16.3 C 10.68 g/m*3 16.3 C 0 km/h
692 12-07-2008 18:20:02 16.4 C 10.89 g/m*3 16.4 C 0 km/h
693 12-07-2008 18:32:02 17.1 C 10.77 g/m*3 17.1 C 0 km/h
694 12-07-2008 18:44:02 17.8 C 11.23 g/m*3 17.8 C 0 km/h
695 12-07-2008 18:56:01 19.7 C 9.68 g/m*3 19.7 C 0 km/h
696 12-07-2008 19:08:01 19.7 C 9.51 g/m*3 19.7 C 0 km/h
697 12-07-2008 19:20:01 20.3 C 9.67 g/m*3 20.3 C 0 km/h
698 12-07-2008 19:32:01 19.7 C 9 g/m*3 19.7 C 0 km/h
699 12-07-2008 19:44:02 19 C 9.29 g/m*3 19 C 0 km/h
700 12-07-2008 19:56:01 18.7 C 9.29 g/m*3 18.7 C 0 km/h
Sensor: Nr:Datum:Temp:Abs-Feuchte:Windchill:Wind:
Aussen-T/F 701 12-07-2008 20:08:02 18.4 C 9.12 g/m*3 18.4 C 0 km/h
702 12-07-2008 20:20:01 18 C 9.68 g/m*3 18 C 0 km/h
703 12-07-2008 20:32:02 17.6 C 9.75 g/m*3 17.6 C 0 km/h
704 12-07-2008 20:44:02 17 C 9.55 g/m*3 17 C 0 km/h
705 12-07-2008 20:56:02 16.6 C 9.75 g/m*3 16.6 C 0 km/h
706 12-07-2008 21:08:02 16.5 C 9.41 g/m*3 16.5 C 0 km/h
707 12-07-2008 21:20:02 16.2 C 9.24 g/m*3 16.2 C 0 km/h
708 12-07-2008 21:32:02 16 C 9.4 g/m*3 16 C 0 km/h
709 12-07-2008 21:44:02 16.1 C 9.46 g/m*3 16.1 C 0 km/h
710 12-07-2008 21:56:02 16 C 9.54 g/m*3 16 C 0 km/h
711 12-07-2008 22:08:01 15.9 C 9.75 g/m*3 15.9 C 0 km/h
712 12-07-2008 22:20:01 15.8 C 9.83 g/m*3 15.8 C 0 km/h
713 12-07-2008 22:32:02 15.8 C 9.83 g/m*3 15.8 C 0 km/h
714 12-07-2008 22:44:02 15.7 C 9.9 g/m*3 15.7 C 0 km/h
715 12-07-2008 22:56:02 15.7 C 9.9 g/m*3 15.7 C 0 km/h
716 12-07-2008 23:08:02 15.8 C 9.96 g/m*3 15.8 C 0 km/h
717 12-07-2008 23:20:02 15.6 C 9.84 g/m*3 15.6 C 0 km/h
718 12-07-2008 23:33:03 15.5 C 9.78 g/m*3 15.5 C 0 km/h
719 12-07-2008 23:45:03 15.5 C 9.78 g/m*3 15.5 C 0 km/h
720 12-07-2008 23:57:03 15.5 C 9.78 g/m*3 15.5 C 0 km/h
721 13-07-2008 00:09:03 15.2 C 9.61 g/m*3 15.2 C 0 km/h
722 13-07-2008 00:21:03 14.9 C 9.56 g/m*3 14.9 C 0 km/h
723 13-07-2008 00:33:03 14.8 C 9.63 g/m*3 14.8 C 0 km/h
724 13-07-2008 00:45:03 14.7 C 9.57 g/m*3 14.7 C 0 km/h
725 13-07-2008 00:57:03 14.4 C 9.52 g/m*3 14.4 C 0 km/h
Sensor: Nr:Datum:Temp:Abs-Feuchte:Windchill:Wind:
Aussen-T/F 726 13-07-2008 01:09:03 14.2 C 9.52 g/m*3 14.2 C 0 km/h
727 13-07-2008 01:21:03 14.2 C 9.65 g/m*3 14.2 C 0 km/h
728 13-07-2008 01:33:03 14.2 C 9.77 g/m*3 14.2 C 0 km/h
729 13-07-2008 01:45:03 14.2 C 9.65 g/m*3 14.2 C 0 km/h
730 13-07-2008 01:57:03 14.2 C 9.65 g/m*3 14.2 C 0 km/h
731 13-07-2008 02:09:03 14.1 C 9.71 g/m*3 14.1 C 0 km/h
732 13-07-2008 02:21:03 14 C 9.65 g/m*3 14 C 0 km/h
733 13-07-2008 02:33:03 14 C 9.77 g/m*3 14 C 0 km/h
734 13-07-2008 02:45:03 13.9 C 9.83 g/m*3 13.9 C 0 km/h
735 13-07-2008 02:57:03 13.8 C 9.77 g/m*3 13.8 C 0 km/h
736 13-07-2008 03:09:04 13.8 C 9.77 g/m*3 13.8 C 0 km/h
737 13-07-2008 03:21:04 14 C 9.89 g/m*3 14 C 0 km/h
738 13-07-2008 03:33:04 14.1 C 9.95 g/m*3 14.1 C 0 km/h
739 13-07-2008 03:45:04 14.1 C 9.95 g/m*3 14.1 C 0 km/h
740 13-07-2008 03:57:04 13.9 C 9.95 g/m*3 13.9 C 0 km/h
741 13-07-2008 04:09:04 13.8 C 9.89 g/m*3 13.8 C 0 km/h
742 13-07-2008 04:21:04 13.8 C 10.01 g/m*3 13.8 C 0 km/h
743 13-07-2008 04:33:04 13.9 C 10.07 g/m*3 13.9 C 0 km/h
744 13-07-2008 04:45:04 14 C 10.01 g/m*3 14 C 0 km/h
745 13-07-2008 04:57:04 13.9 C 9.95 g/m*3 13.9 C 0 km/h
746 13-07-2008 05:09:04 14 C 10.01 g/m*3 14 C 0 km/h
747 13-07-2008 05:21:04 13.8 C 10.01 g/m*3 13.8 C 0 km/h
748 13-07-2008 05:33:04 13.8 C 10.01 g/m*3 13.8 C 0 km/h
749 13-07-2008 05:45:04 13.8 C 10.01 g/m*3 13.8 C 0 km/h
750 13-07-2008 05:57:04 13.8 C 10.01 g/m*3 13.8 C 0 km/h
Sensor: Nr:Datum:Temp:Abs-Feuchte:Windchill:Wind:
Aussen-T/F 751 13-07-2008 06:09:04 13.8 C 10.01 g/m*3 13.8 C 0 km/h
752 13-07-2008 06:21:04 13.8 C 9.89 g/m*3 13.8 C 0 km/h
753 13-07-2008 06:33:04 13.9 C 9.95 g/m*3 13.9 C 0 km/h
754 13-07-2008 06:45:04 13.9 C 9.95 g/m*3 13.9 C 0 km/h
755 13-07-2008 06:57:04 13.9 C 9.83 g/m*3 13.9 C 0 km/h
756 13-07-2008 07:09:05 14 C 9.53 g/m*3 14 C 0 km/h
757 13-07-2008 07:21:05 14.1 C 9.47 g/m*3 14.1 C 0 km/h
758 13-07-2008 07:33:05 14.2 C 9.52 g/m*3 14.2 C 0 km/h
759 13-07-2008 07:45:05 14.4 C 9.39 g/m*3 14.4 C 0 km/h
760 13-07-2008 07:57:05 14.6 C 9.51 g/m*3 14.6 C 0 km/h
761 13-07-2008 08:09:05 14.7 C 9.44 g/m*3 14.7 C 0 km/h
762 13-07-2008 08:21:05 15 C 9.1 g/m*3 15 C 0 km/h
763 13-07-2008 08:33:03 15.1 C 8.64 g/m*3 15.1 C 0 km/h
764 13-07-2008 08:45:02 15.2 C 8.57 g/m*3 15.2 C 0 km/h
765 13-07-2008 08:57:02 15.6 C 8.64 g/m*3 15.6 C 0 km/h
766 13-07-2008 09:09:02 16.1 C 8.64 g/m*3 16.1 C 0 km/h
767 13-07-2008 09:21:02 16.2 C 8.55 g/m*3 16.2 C 0 km/h
768 13-07-2008 09:33:02 15.7 C 8.03 g/m*3 15.7 C 0 km/h
769 13-07-2008 09:45:01 15.7 C 8.3 g/m*3 15.7 C 0 km/h
770 13-07-2008 09:57:01 16.2 C 8.55 g/m*3 16.2 C 0 km/h
771 13-07-2008 10:09:02 17.8 C 8.2 g/m*3 17.8 C 0 km/h
772 13-07-2008 10:21:01 18.1 C 7.88 g/m*3 18.1 C 0 km/h
773 13-07-2008 10:33:02 17.8 C 7.74 g/m*3 17.8 C 0 km/h
774 13-07-2008 10:45:02 17.9 C 7.79 g/m*3 17.9 C 0 km/h
775 13-07-2008 10:57:02 18.6 C 7.48 g/m*3 18.6 C 0 km/h
Sensor: Nr:Datum:Temp:Abs-Feuchte:Windchill:Wind:
Aussen-T/F 776 13-07-2008 11:09:02 18.8 C 6.6 g/m*3 18.8 C 0 km/h
777 13-07-2008 11:21:01 19 C 6.52 g/m*3 19 C 0 km/h
778 13-07-2008 11:33:02 19.8 C 6.83 g/m*3 19.8 C 0 km/h
779 13-07-2008 11:45:02 20.2 C 6.29 g/m*3 20.2 C 0 km/h
780 13-07-2008 11:57:02 19.9 C 6.01 g/m*3 19.9 C 0 km/h
781 13-07-2008 12:09:02 21.3 C 5.78 g/m*3 21.3 C 0 km/h
782 13-07-2008 12:21:02 21.2 C 5.93 g/m*3 21.2 C 0 km/h
783 13-07-2008 12:33:03 22.1 C 5.86 g/m*3 22.1 C 0 km/h
784 13-07-2008 12:45:02 22 C 5.43 g/m*3 22 C 0 km/h
785 13-07-2008 12:57:02 21.4 C 5.81 g/m*3 21.4 C 0 km/h
786 13-07-2008 13:09:01 21 C 5.5 g/m*3 21 C 0 km/h
787 13-07-2008 13:21:02 21.1 C 5.53 g/m*3 21.1 C 0 km/h
788 13-07-2008 13:33:01 21.2 C 6.12 g/m*3 21.2 C 0 km/h
789 13-07-2008 13:45:02 22.5 C 6.19 g/m*3 22.5 C 0 km/h
790 13-07-2008 13:57:02 23.6 C 5.96 g/m*3 23.6 C 0 km/h
791 13-07-2008 14:09:02 23.6 C 5.53 g/m*3 23.6 C 0 km/h
792 13-07-2008 14:21:01 21.4 C 5.62 g/m*3 21.4 C 0 km/h
793 13-07-2008 14:33:02 20.4 C 5.66 g/m*3 20.4 C 0 km/h
794 13-07-2008 14:45:02 19.4 C 5.84 g/m*3 19.4 C 0 km/h
795 13-07-2008 14:57:02 19.9 C 6.19 g/m*3 19.9 C 0 km/h
796 13-07-2008 15:09:02 21.5 C 5.66 g/m*3 21.5 C 0 km/h
797 13-07-2008 15:21:02 23.7 C 5.78 g/m*3 23.7 C 0 km/h
798 13-07-2008 15:33:02 23.3 C 4.81 g/m*3 23.3 C 0 km/h
799 13-07-2008 15:45:02 22.5 C 4.99 g/m*3 22.5 C 0 km/h
800 13-07-2008 15:57:02 21.6 C 5.12 g/m*3 21.6 C 0 km/h
Sensor: Nr:Datum:Temp:Abs-Feuchte:Windchill:Wind:
Aussen-T/F 801 13-07-2008 16:09:03 21.6 C 5.12 g/m*3 21.6 C 0 km/h
802 13-07-2008 16:21:02 23.5 C 5.08 g/m*3 23.5 C 0 km/h
803 13-07-2008 16:33:02 23.5 C 5.08 g/m*3 23.5 C 0 km/h
804 13-07-2008 16:45:02 22.2 C 5.1 g/m*3 22.2 C 0 km/h
805 13-07-2008 16:57:02 21.5 C 5.47 g/m*3 21.5 C 0 km/h
806 13-07-2008 17:09:01 21.3 C 5.78 g/m*3 21.3 C 0 km/h
807 13-07-2008 17:21:02 21.2 C 5.93 g/m*3 21.2 C 0 km/h
808 13-07-2008 17:33:02 20.9 C 5.83 g/m*3 20.9 C 0 km/h
809 13-07-2008 17:45:02 20.5 C 6.23 g/m*3 20.5 C 0 km/h
810 13-07-2008 17:57:03 20.4 C 6.01 g/m*3 20.4 C 0 km/h
811 13-07-2008 18:09:02 21 C 5.86 g/m*3 21 C 0 km/h
812 13-07-2008 18:21:02 21.6 C 5.69 g/m*3 21.6 C 0 km/h
813 13-07-2008 18:33:02 21.6 C 5.5 g/m*3 21.6 C 0 km/h
814 13-07-2008 18:45:02 23 C 5.34 g/m*3 23 C 0 km/h
815 13-07-2008 18:57:02 23.2 C 5.2 g/m*3 23.2 C 0 km/h
816 13-07-2008 19:09:02 22 C 4.85 g/m*3 22 C 0 km/h
817 13-07-2008 19:21:02 22.2 C 5.1 g/m*3 22.2 C 0 km/h
818 13-07-2008 19:33:01 22.3 C 4.94 g/m*3 22.3 C 0 km/h
819 13-07-2008 19:45:02 22.7 C 5.46 g/m*3 22.7 C 0 km/h
820 13-07-2008 19:57:02 22.7 C 5.25 g/m*3 22.7 C 0 km/h
821 13-07-2008 20:09:01 22.7 C 5.05 g/m*3 22.7 C 0 km/h
822 13-07-2008 20:21:02 22.6 C 5.22 g/m*3 22.6 C 0 km/h
823 13-07-2008 20:33:01 22.1 C 5.27 g/m*3 22.1 C 0 km/h
824 13-07-2008 20:45:02 21.6 C 6.07 g/m*3 21.6 C 0 km/h
825 13-07-2008 20:57:02 21 C 5.68 g/m*3 21 C 0 km/h
Sensor: Nr:Datum:Temp:Abs-Feuchte:Windchill:Wind:
Aussen-T/F 826 13-07-2008 21:09:01 20.1 C 5.91 g/m*3 20.1 C 0 km/h
827 13-07-2008 21:21:01 19.3 C 5.81 g/m*3 19.3 C 0 km/h
828 13-07-2008 21:33:01 18.8 C 5.96 g/m*3 18.8 C 0 km/h
829 13-07-2008 21:45:01 18 C 6.3 g/m*3 18 C 0 km/h
830 13-07-2008 21:57:01 17.3 C 6.19 g/m*3 17.3 C 0 km/h
831 13-07-2008 22:09:02 16.9 C 6.33 g/m*3 16.9 C 0 km/h
832 13-07-2008 22:21:01 16.6 C 6.5 g/m*3 16.6 C 0 km/h
833 13-07-2008 22:33:02 16.4 C 6.42 g/m*3 16.4 C 0 km/h
834 13-07-2008 22:45:02 16.1 C 6.58 g/m*3 16.1 C 0 km/h
835 13-07-2008 22:57:02 15.8 C 6.73 g/m*3 15.8 C 0 km/h
836 13-07-2008 23:10:02 15.4 C 6.83 g/m*3 15.4 C 0 km/h
837 13-07-2008 23:22:02 15.1 C 6.97 g/m*3 15.1 C 0 km/h
838 13-07-2008 23:34:02 14.9 C 7.01 g/m*3 14.9 C 0 km/h
839 13-07-2008 23:46:02 14.7 C 7.05 g/m*3 14.7 C 0 km/h
840 13-07-2008 23:58:02 14.2 C 7.2 g/m*3 14.2 C 0 km/h
841 14-07-2008 00:10:02 14 C 7.24 g/m*3 14 C 0 km/h
842 14-07-2008 00:22:02 13.8 C 7.39 g/m*3 13.8 C 0 km/h
843 14-07-2008 00:34:02 13.6 C 7.53 g/m*3 13.6 C 0 km/h
844 14-07-2008 00:46:02 13.4 C 7.44 g/m*3 13.4 C 0 km/h
845 14-07-2008 00:58:02 13.2 C 7.58 g/m*3 13.2 C 0 km/h
846 14-07-2008 01:10:02 13.1 C 7.65 g/m*3 13.1 C 0 km/h
847 14-07-2008 01:22:03 13 C 7.6 g/m*3 13 C 0 km/h
848 14-07-2008 01:34:03 13 C 7.71 g/m*3 13 C 0 km/h
849 14-07-2008 01:46:03 12.8 C 7.73 g/m*3 12.8 C 0 km/h
850 14-07-2008 01:58:03 12.7 C 7.68 g/m*3 12.7 C 0 km/h
Sensor: Nr:Datum:Temp:Abs-Feuchte:Windchill:Wind:
Aussen-T/F 851 14-07-2008 02:10:03 12.4 C 7.76 g/m*3 12.4 C 0 km/h
852 14-07-2008 02:22:03 12.3 C 7.82 g/m*3 12.3 C 0 km/h
853 14-07-2008 02:34:03 12.1 C 7.83 g/m*3 12.1 C 0 km/h
854 14-07-2008 02:46:03 12 C 7.78 g/m*3 12 C 0 km/h
855 14-07-2008 02:58:03 11.8 C 7.89 g/m*3 11.8 C 0 km/h
856 14-07-2008 03:10:03 11.5 C 7.75 g/m*3 11.5 C 0 km/h
857 14-07-2008 03:22:03 11.4 C 7.8 g/m*3 11.4 C 0 km/h
858 14-07-2008 03:34:03 11.3 C 7.85 g/m*3 11.3 C 0 km/h
859 14-07-2008 03:46:03 11.2 C 7.8 g/m*3 11.2 C 0 km/h
860 14-07-2008 03:58:03 11 C 7.81 g/m*3 11 C 0 km/h
861 14-07-2008 04:10:03 10.9 C 7.86 g/m*3 10.9 C 0 km/h
862 14-07-2008 04:22:03 10.8 C 7.81 g/m*3 10.8 C 0 km/h
863 14-07-2008 04:34:03 10.7 C 7.86 g/m*3 10.7 C 0 km/h
864 14-07-2008 04:46:03 10.4 C 7.81 g/m*3 10.4 C 0 km/h
865 14-07-2008 04:58:03 10.4 C 7.81 g/m*3 10.4 C 0 km/h
866 14-07-2008 05:10:03 10.3 C 7.76 g/m*3 10.3 C 0 km/h
867 14-07-2008 05:22:04 10.2 C 7.8 g/m*3 10.2 C 0 km/h
868 14-07-2008 05:34:04 10.1 C 7.75 g/m*3 10.1 C 0 km/h
869 14-07-2008 05:46:04 10 C 7.8 g/m*3 10 C 0 km/h
870 14-07-2008 05:58:04 10 C 7.8 g/m*3 10 C 0 km/h
871 14-07-2008 06:10:04 9.9 C 7.84 g/m*3 9.9 C 0 km/h
872 14-07-2008 06:22:04 9.9 C 7.94 g/m*3 9.9 C 0 km/h
873 14-07-2008 06:34:04 10 C 7.89 g/m*3 10 C 0 km/h
874 14-07-2008 06:46:04 9.9 C 7.94 g/m*3 9.9 C 0 km/h
875 14-07-2008 06:58:04 9.9 C 7.84 g/m*3 9.9 C 0 km/h
Sensor: Nr:Datum:Temp:Abs-Feuchte:Windchill:Wind:
Aussen-T/F 876 14-07-2008 07:10:03 10.1 C 7.85 g/m*3 10.1 C 0 km/h
877 14-07-2008 07:22:02 10.2 C 7.9 g/m*3 10.2 C 0 km/h
878 14-07-2008 07:34:03 10.5 C 7.95 g/m*3 10.5 C 0 km/h
879 14-07-2008 07:46:02 10.8 C 8.11 g/m*3 10.8 C 0 km/h
880 14-07-2008 07:58:02 11.1 C 8.06 g/m*3 11.1 C 0 km/h
881 14-07-2008 08:10:02 11.3 C 8.06 g/m*3 11.3 C 0 km/h
882 14-07-2008 08:22:02 11.7 C 8.16 g/m*3 11.7 C 0 km/h
883 14-07-2008 08:34:02 12.5 C 8.69 g/m*3 12.5 C 0 km/h
884 14-07-2008 08:46:02 12.9 C 8.68 g/m*3 12.9 C 0 km/h
885 14-07-2008 08:58:02 13.5 C 8.66 g/m*3 13.5 C 0 km/h
886 14-07-2008 09:10:02 14.4 C 9.02 g/m*3 14.4 C 0 km/h
887 14-07-2008 09:22:01 15.2 C 8.96 g/m*3 15.2 C 0 km/h
888 14-07-2008 09:34:02 16.2 C 8.83 g/m*3 16.2 C 0 km/h
889 14-07-2008 09:46:02 17.3 C 8.84 g/m*3 17.3 C 0 km/h
890 14-07-2008 09:58:02 16.8 C 8.15 g/m*3 16.8 C 0 km/h
891 14-07-2008 10:10:02 16.6 C 8.19 g/m*3 16.6 C 0 km/h
892 14-07-2008 10:22:02 17.4 C 8 g/m*3 17.4 C 0 km/h
893 14-07-2008 10:34:02 16.8 C 7.15 g/m*3 16.8 C 0 km/h
894 14-07-2008 10:46:01 18.1 C 7.88 g/m*3 18.1 C 0 km/h
895 14-07-2008 10:58:01 19.2 C 7.09 g/m*3 19.2 C 0 km/h
896 14-07-2008 11:10:02 18.5 C 6.8 g/m*3 18.5 C 0 km/h
897 14-07-2008 11:22:01 19.2 C 6.76 g/m*3 19.2 C 0 km/h
898 14-07-2008 11:34:01 19.5 C 6.88 g/m*3 19.5 C 0 km/h
899 14-07-2008 11:46:02 20.7 C 7.02 g/m*3 20.7 C 0 km/h
900 14-07-2008 11:58:02 20.2 C 6.99 g/m*3 20.2 C 0 km/h
Sensor: Nr:Datum:Temp:Abs-Feuchte:Windchill:Wind:
Aussen-T/F 901 14-07-2008 12:10:02 21.6 C 6.83 g/m*3 21.6 C 0 km/h
902 14-07-2008 12:22:02 22 C 6.79 g/m*3 22 C 0 km/h
903 14-07-2008 12:34:03 22.1 C 6.44 g/m*3 22.1 C 0 km/h
904 14-07-2008 12:46:02 23.2 C 6.65 g/m*3 23.2 C 0 km/h
905 14-07-2008 12:58:03 23.2 C 6.24 g/m*3 23.2 C 0 km/h
906 14-07-2008 13:10:01 24.2 C 6.16 g/m*3 24.2 C 0 km/h
907 14-07-2008 13:22:02 25.8 C 6.02 g/m*3 25.8 C 0 km/h
908 14-07-2008 13:34:01 26 C 5.36 g/m*3 26 C 0 km/h
909 14-07-2008 13:46:02 25.5 C 5.21 g/m*3 25.5 C 0 km/h
910 14-07-2008 13:58:02 24.5 C 5.15 g/m*3 24.5 C 0 km/h
911 14-07-2008 14:10:01 25.5 C 5.45 g/m*3 25.5 C 0 km/h
912 14-07-2008 14:22:01 24.3 C 5.09 g/m*3 24.3 C 0 km/h
913 14-07-2008 14:34:01 24.1 C 5.47 g/m*3 24.1 C 0 km/h
914 14-07-2008 14:46:02 24.5 C 5.6 g/m*3 24.5 C 0 km/h
915 14-07-2008 14:58:02 25.8 C 5.54 g/m*3 25.8 C 0 km/h
916 14-07-2008 15:10:02 25.7 C 5.03 g/m*3 25.7 C 0 km/h
917 14-07-2008 15:22:02 25.6 C 5.48 g/m*3 25.6 C 0 km/h
918 14-07-2008 15:34:02 25.7 C 4.79 g/m*3 25.7 C 0 km/h
919 14-07-2008 15:46:01 26.3 C 5.2 g/m*3 26.3 C 0 km/h
920 14-07-2008 15:58:01 26.8 C 5.09 g/m*3 26.8 C 0 km/h
921 14-07-2008 16:10:02 27 C 5.15 g/m*3 27 C 0 km/h
922 14-07-2008 16:22:02 27.6 C 5.32 g/m*3 27.6 C 0 km/h
923 14-07-2008 16:34:02 27.4 C 5.26 g/m*3 27.4 C 0 km/h
924 14-07-2008 16:46:02 27.5 C 5.29 g/m*3 27.5 C 0 km/h
925 14-07-2008 16:58:02 26.9 C 5.12 g/m*3 26.9 C 0 km/h
Sensor: Nr:Datum:Temp:Abs-Feuchte:Windchill:Wind:
Aussen-T/F 926 14-07-2008 17:10:02 27.3 C 5.23 g/m*3 27.3 C 0 km/h
927 14-07-2008 17:22:02 27.3 C 5.23 g/m*3 27.3 C 0 km/h
928 14-07-2008 17:34:02 27.2 C 5.2 g/m*3 27.2 C 0 km/h
929 14-07-2008 17:46:02 27 C 5.15 g/m*3 27 C 0 km/h
930 14-07-2008 17:58:02 27.9 C 5.41 g/m*3 27.9 C 0 km/h
931 14-07-2008 18:10:02 27.1 C 5.18 g/m*3 27.1 C 0 km/h
932 14-07-2008 18:22:01 25.1 C 5.56 g/m*3 25.1 C 0 km/h
933 14-07-2008 18:34:02 24.2 C 5.5 g/m*3 24.2 C 0 km/h
934 14-07-2008 18:46:02 25.3 C 5.38 g/m*3 25.3 C 0 km/h
935 14-07-2008 18:58:02 24.8 C 5.01 g/m*3 24.8 C 0 km/h
936 14-07-2008 19:10:02 24.6 C 5.18 g/m*3 24.6 C 0 km/h
937 14-07-2008 19:22:02 23.8 C 5.38 g/m*3 23.8 C 0 km/h
938 14-07-2008 19:34:03 23.7 C 5.56 g/m*3 23.7 C 0 km/h
939 14-07-2008 19:46:02 24.5 C 5.6 g/m*3 24.5 C 0 km/h
940 14-07-2008 19:58:02 25.3 C 5.62 g/m*3 25.3 C 0 km/h
941 14-07-2008 20:10:02 25.4 C 4.94 g/m*3 25.4 C 0 km/h
942 14-07-2008 20:22:02 24.6 C 4.95 g/m*3 24.6 C 0 km/h
943 14-07-2008 20:34:02 23.9 C 5.41 g/m*3 23.9 C 0 km/h
944 14-07-2008 20:46:02 23.4 C 5.68 g/m*3 23.4 C 0 km/h
945 14-07-2008 20:58:02 23.1 C 5.79 g/m*3 23.1 C 0 km/h
946 14-07-2008 21:10:02 22.6 C 6.23 g/m*3 22.6 C 0 km/h
947 14-07-2008 21:22:02 21.7 C 6.49 g/m*3 21.7 C 0 km/h
948 14-07-2008 21:34:03 20.8 C 6.7 g/m*3 20.8 C 0 km/h
949 14-07-2008 21:46:02 20.2 C 6.64 g/m*3 20.2 C 0 km/h
950 14-07-2008 21:58:02 19.9 C 6.87 g/m*3 19.9 C 0 km/h
Sensor: Nr:Datum:Temp:Abs-Feuchte:Windchill:Wind:
Aussen-T/F 951 14-07-2008 22:10:02 19.7 C 6.96 g/m*3 19.7 C 0 km/h
952 14-07-2008 22:22:02 19.3 C 6.97 g/m*3 19.3 C 0 km/h
953 14-07-2008 22:34:01 19 C 7.01 g/m*3 19 C 0 km/h
954 14-07-2008 22:46:02 18.7 C 7.2 g/m*3 18.7 C 0 km/h
955 14-07-2008 22:58:02 18.4 C 7.08 g/m*3 18.4 C 0 km/h
956 14-07-2008 23:10:01 18 C 7.22 g/m*3 18 C 0 km/h
957 14-07-2008 23:22:02 17.7 C 7.39 g/m*3 17.7 C 0 km/h
958 14-07-2008 23:35:02 17.6 C 7.35 g/m*3 17.6 C 0 km/h
959 14-07-2008 23:47:02 17.2 C 7.18 g/m*3 17.2 C 0 km/h
960 14-07-2008 23:59:02 16.8 C 7.43 g/m*3 16.8 C 0 km/h
961 15-07-2008 00:11:03 16.4 C 7.54 g/m*3 16.4 C 0 km/h
962 15-07-2008 00:23:03 16.3 C 7.49 g/m*3 16.3 C 0 km/h
963 15-07-2008 00:35:03 16.2 C 7.45 g/m*3 16.2 C 0 km/h
964 15-07-2008 00:47:03 15.8 C 7.67 g/m*3 15.8 C 0 km/h
965 15-07-2008 00:59:03 15.6 C 7.85 g/m*3 15.6 C 0 km/h
966 15-07-2008 01:11:03 15.3 C 7.84 g/m*3 15.3 C 0 km/h
967 15-07-2008 01:23:03 15.2 C 7.66 g/m*3 15.2 C 0 km/h
968 15-07-2008 01:35:03 15 C 7.69 g/m*3 15 C 0 km/h
969 15-07-2008 01:47:03 14.8 C 7.85 g/m*3 14.8 C 0 km/h
970 15-07-2008 01:59:03 14.7 C 7.93 g/m*3 14.7 C 0 km/h
971 15-07-2008 02:11:03 14.3 C 7.74 g/m*3 14.3 C 0 km/h
972 15-07-2008 02:23:03 14.3 C 7.74 g/m*3 14.3 C 0 km/h
973 15-07-2008 02:35:03 14.1 C 7.77 g/m*3 14.1 C 0 km/h
974 15-07-2008 02:47:03 14 C 7.84 g/m*3 14 C 0 km/h
975 15-07-2008 02:59:03 13.8 C 7.98 g/m*3 13.8 C 0 km/h
Sensor: Nr:Datum:Temp:Abs-Feuchte:Windchill:Wind:
Aussen-T/F 976 15-07-2008 03:11:03 13.7 C 7.93 g/m*3 13.7 C 0 km/h
977 15-07-2008 03:23:03 13.6 C 7.89 g/m*3 13.6 C 0 km/h
978 15-07-2008 03:35:03 13.5 C 7.84 g/m*3 13.5 C 0 km/h
979 15-07-2008 03:47:03 13.4 C 7.79 g/m*3 13.4 C 0 km/h
980 15-07-2008 03:59:04 13.4 C 7.9 g/m*3 13.4 C 0 km/h
981 15-07-2008 04:11:04 13.2 C 7.81 g/m*3 13.2 C 0 km/h
982 15-07-2008 04:23:04 13.1 C 7.87 g/m*3 13.1 C 0 km/h
983 15-07-2008 04:35:04 12.9 C 7.89 g/m*3 12.9 C 0 km/h
984 15-07-2008 04:47:04 12.8 C 7.95 g/m*3 12.8 C 0 km/h
985 15-07-2008 04:59:04 12.7 C 7.9 g/m*3 12.7 C 0 km/h
986 15-07-2008 05:11:04 12.7 C 7.9 g/m*3 12.7 C 0 km/h
987 15-07-2008 05:23:04 12.5 C 7.81 g/m*3 12.5 C 0 km/h
988 15-07-2008 05:35:04 12.5 C 7.92 g/m*3 12.5 C 0 km/h
989 15-07-2008 05:47:04 12.4 C 7.98 g/m*3 12.4 C 0 km/h
990 15-07-2008 05:59:04 12.3 C 7.93 g/m*3 12.3 C 0 km/h
991 15-07-2008 06:11:04 12.1 C 8.04 g/m*3 12.1 C 0 km/h
992 15-07-2008 06:23:04 12.1 C 8.04 g/m*3 12.1 C 0 km/h
993 15-07-2008 06:35:04 12.4 C 8.19 g/m*3 12.4 C 0 km/h
994 15-07-2008 06:47:04 12.6 C 8.19 g/m*3 12.6 C 0 km/h
995 15-07-2008 06:59:04 12.8 C 8.29 g/m*3 12.8 C 0 km/h
996 15-07-2008 07:11:02 13 C 8.28 g/m*3 13 C 0 km/h
997 15-07-2008 07:23:02 13.2 C 8.15 g/m*3 13.2 C 0 km/h
998 15-07-2008 07:35:03 13.4 C 8.37 g/m*3 13.4 C 0 km/h
999 15-07-2008 07:47:02 13.5 C 8.3 g/m*3 13.5 C 0 km/h
1000 15-07-2008 07:59:02 13.8 C 8.46 g/m*3 13.8 C 0 km/h
Sensor: Nr:Datum:Temp:Abs-Feuchte:Windchill:Wind:
Aussen-T/F 1001 15-07-2008 08:11:02 14.1 C 8.5 g/m*3 14.1 C 0 km/h
1002 15-07-2008 08:23:02 14.5 C 8.58 g/m*3 14.5 C 0 km/h
1003 15-07-2008 08:35:02 15 C 8.59 g/m*3 15 C 0 km/h
1004 15-07-2008 08:47:01 15.7 C 8.56 g/m*3 15.7 C 0 km/h
1005 15-07-2008 08:59:01 16.4 C 8.37 g/m*3 16.4 C 0 km/h
1006 15-07-2008 09:11:02 17 C 8.25 g/m*3 17 C 0 km/h
1007 15-07-2008 09:23:01 17.8 C 8.2 g/m*3 17.8 C 0 km/h
1008 15-07-2008 09:35:02 18.4 C 8.02 g/m*3 18.4 C 0 km/h
1009 15-07-2008 09:47:02 19 C 7.99 g/m*3 19 C 0 km/h
1010 15-07-2008 09:59:03 19.5 C 8.06 g/m*3 19.5 C 0 km/h
1011 15-07-2008 10:11:02 20.3 C 7.91 g/m*3 20.3 C 0 km/h
1012 15-07-2008 10:23:02 21.1 C 7.74 g/m*3 21.1 C 0 km/h
1013 15-07-2008 10:35:01 21.5 C 7.73 g/m*3 21.5 C 0 km/h
1014 15-07-2008 10:47:02 22 C 7.38 g/m*3 22 C 0 km/h
1015 15-07-2008 10:59:02 22.6 C 7.23 g/m*3 22.6 C 0 km/h
1016 15-07-2008 11:11:01 22.8 C 7.32 g/m*3 22.8 C 0 km/h
1017 15-07-2008 11:23:02 23.2 C 7.28 g/m*3 23.2 C 0 km/h
1018 15-07-2008 11:35:01 23.2 C 7.07 g/m*3 23.2 C 0 km/h
1019 15-07-2008 11:47:02 24 C 6.96 g/m*3 24 C 0 km/h
1020 15-07-2008 11:59:02 24.1 C 7 g/m*3 24.1 C 0 km/h
1021 15-07-2008 12:11:01 24.9 C 6.87 g/m*3 24.9 C 0 km/h
1022 15-07-2008 12:23:02 25.4 C 6.36 g/m*3 25.4 C 0 km/h
1023 15-07-2008 12:35:01 25.8 C 6.26 g/m*3 25.8 C 0 km/h
1024 15-07-2008 12:47:02 25.7 C 6.22 g/m*3 25.7 C 0 km/h
1025 15-07-2008 12:59:02 26.2 C 6.15 g/m*3 26.2 C 0 km/h
Sensor: Nr:Datum:Temp:Abs-Feuchte:Windchill:Wind:
Aussen-T/F 1026 15-07-2008 13:11:02 26.7 C 5.82 g/m*3 26.7 C 0 km/h
1027 15-07-2008 13:23:02 27.9 C 5.68 g/m*3 27.9 C 0 km/h
1028 15-07-2008 13:35:02 28.3 C 5.53 g/m*3 28.3 C 0 km/h
1029 15-07-2008 13:47:01 27.8 C 5.65 g/m*3 27.8 C 0 km/h
1030 15-07-2008 13:59:01 27.4 C 5.53 g/m*3 27.4 C 0 km/h
1031 15-07-2008 14:11:01 27.3 C 5.49 g/m*3 27.3 C 0 km/h
1032 15-07-2008 14:19:01 27.4 C 5.53 g/m*3 27.4 C 0 km/h
1033 15-07-2008 14:49:01 28.2 C 6.05 g/m*3 28.2 C 0 km/h
1034 15-07-2008 15:19:01 28.8 C 5.97 g/m*3 28.8 C 0 km/h
1035 15-07-2008 15:49:01 29 C 6.32 g/m*3 29 C 0 km/h
1036 15-07-2008 16:19:02 30 C 6.37 g/m*3 30 C 0 km/h
1037 15-07-2008 16:49:01 30 C 6.06 g/m*3 30 C 0 km/h
1038 15-07-2008 17:19:02 30.6 C 6.26 g/m*3 30.6 C 0 km/h
1039 15-07-2008 17:49:03 31 C 6.4 g/m*3 31 C 0 km/h
1040 15-07-2008 18:19:02 30.7 C 6.3 g/m*3 30.7 C 0 km/h
1041 15-07-2008 18:49:01 30.6 C 6.26 g/m*3 30.6 C 0 km/h
1042 15-07-2008 19:19:01 30.4 C 6.2 g/m*3 30.4 C 0 km/h
1043 15-07-2008 19:49:01 29.3 C 6.42 g/m*3 29.3 C 0 km/h
1044 15-07-2008 20:19:01 28.2 C 6.87 g/m*3 28.2 C 0 km/h
1045 15-07-2008 20:49:01 26.6 C 7.55 g/m*3 26.6 C 0 km/h
1046 15-07-2008 21:19:02 25.8 C 7.7 g/m*3 25.8 C 0 km/h
1047 15-07-2008 21:49:01 24.4 C 9.79 g/m*3 24.4 C 0 km/h
1048 15-07-2008 22:19:02 23.4 C 10.3 g/m*3 23.4 C 0 km/h
1049 15-07-2008 22:49:01 22.7 C 10.3 g/m*3 22.7 C 0 km/h
1050 15-07-2008 23:19:02 21.9 C 10.42 g/m*3 21.9 C 0 km/h
Sensor: Nr:Datum:Temp:Abs-Feuchte:Windchill:Wind:
Aussen-T/F 1051 15-07-2008 23:49:02 21.4 C 10.31 g/m*3 21.4 C 0 km/h
1052 16-07-2008 00:19:02 21.5 C 10.37 g/m*3 21.5 C 0 km/h
1053 16-07-2008 00:49:01 21.5 C 10.37 g/m*3 21.5 C 0 km/h
1054 16-07-2008 01:19:02 21.4 C 10.5 g/m*3 21.4 C 0 km/h
1055 16-07-2008 01:49:01 21.5 C 10.56 g/m*3 21.5 C 0 km/h
1056 16-07-2008 02:19:02 21 C 10.62 g/m*3 21 C 0 km/h
1057 16-07-2008 02:49:02 20.8 C 10.68 g/m*3 20.8 C 0 km/h
1058 16-07-2008 03:19:01 20.2 C 10.84 g/m*3 20.2 C 0 km/h
1059 16-07-2008 03:49:01 20 C 10.71 g/m*3 20 C 0 km/h
1060 16-07-2008 04:19:01 20.2 C 10.32 g/m*3 20.2 C 0 km/h
1061 16-07-2008 04:49:01 20 C 10.02 g/m*3 20 C 0 km/h
1062 16-07-2008 05:19:01 19.6 C 10.3 g/m*3 19.6 C 0 km/h
1063 16-07-2008 05:49:01 19.6 C 10.3 g/m*3 19.6 C 0 km/h
1064 16-07-2008 06:35:05 19.5 C 10.41 g/m*3 19.5 C 0 km/h
1065 16-07-2008 07:05:05 19.3 C 10.45 g/m*3 19.3 C 0 km/h
1066 16-07-2008 07:35:05 19.6 C 10.64 g/m*3 19.6 C 0 km/h
1067 16-07-2008 08:05:05 19.8 C 10.76 g/m*3 19.8 C 0 km/h
1068 16-07-2008 08:35:06 20.7 C 10.62 g/m*3 20.7 C 0 km/h
1069 16-07-2008 09:05:06 21 C 10.26 g/m*3 21 C 0 km/h
1070 16-07-2008 09:35:06 21.7 C 9.92 g/m*3 21.7 C 0 km/h
1071 16-07-2008 10:05:06 22.5 C 8.99 g/m*3 22.5 C 0 km/h
1072 16-07-2008 10:35:06 22.7 C 9.09 g/m*3 22.7 C 0 km/h
1073 16-07-2008 11:05:06 24 C 8.7 g/m*3 24 C 0 km/h
1074 16-07-2008 11:35:06 24.1 C 8.1 g/m*3 24.1 C 0 km/h
1075 16-07-2008 12:05:06 24.7 C 8.15 g/m*3 24.7 C 0 km/h
Sensor: Nr:Datum:Temp:Abs-Feuchte:Windchill:Wind:
Aussen-T/F 1076 16-07-2008 12:35:06 25.7 C 7.42 g/m*3 25.7 C 0 km/h
1077 16-07-2008 13:05:06 26.4 C 7.22 g/m*3 26.4 C 0 km/h
1078 16-07-2008 13:35:06 26.6 C 7.05 g/m*3 26.6 C 0 km/h
1079 16-07-2008 14:05:06 25.5 C 7.34 g/m*3 25.5 C 0 km/h
1080 16-07-2008 14:35:06 24.5 C 7.83 g/m*3 24.5 C 0 km/h
1081 16-07-2008 15:05:06 22.8 C 9.14 g/m*3 22.8 C 0 km/h
1082 16-07-2008 15:35:06 19.2 C 11.05 g/m*3 19.2 C 0 km/h
1083 16-07-2008 16:05:06 18.1 C 12.98 g/m*3 18.1 C 0 km/h
1084 16-07-2008 16:35:06 17 C 12.15 g/m*3 17 C 0 km/h
1085 16-07-2008 17:05:06 17.3 C 12.67 g/m*3 17.3 C 0 km/h
1086 16-07-2008 17:35:06 17.5 C 12.67 g/m*3 17.5 C 0 km/h
1087 16-07-2008 18:05:07 17.6 C 12.9 g/m*3 17.6 C 0 km/h
1088 16-07-2008 18:35:07 18.4 C 13.05 g/m*3 18.4 C 0 km/h
1089 16-07-2008 19:05:07 18.5 C 12.34 g/m*3 18.5 C 0 km/h
1090 16-07-2008 19:35:07 19.9 C 12.03 g/m*3 19.9 C 0 km/h
1091 16-07-2008 20:05:07 19.1 C 11.64 g/m*3 19.1 C 0 km/h
1092 16-07-2008 20:35:07 17.8 C 11.84 g/m*3 17.8 C 0 km/h
1093 16-07-2008 21:05:07 17.2 C 11.72 g/m*3 17.2 C 0 km/h
1094 16-07-2008 21:35:07 16.9 C 11.65 g/m*3 16.9 C 0 km/h
1095 16-07-2008 22:05:07 16.4 C 11.17 g/m*3 16.4 C 0 km/h
1096 16-07-2008 22:35:07 16 C 10.9 g/m*3 16 C 0 km/h
1097 16-07-2008 23:05:07 16.2 C 11.17 g/m*3 16.2 C 0 km/h
1098 16-07-2008 23:35:07 16.5 C 11.37 g/m*3 16.5 C 0 km/h
1099 17-07-2008 00:05:07 16.5 C 11.51 g/m*3 16.5 C 0 km/h
1100 17-07-2008 00:35:07 16.5 C 11.23 g/m*3 16.5 C 0 km/h
Sensor: Nr:Datum:Temp:Abs-Feuchte:Windchill:Wind:
Aussen-T/F 1101 17-07-2008 01:05:07 16 C 10.22 g/m*3 16 C 0 km/h
1102 17-07-2008 01:35:07 15.5 C 9.91 g/m*3 15.5 C 0 km/h
1103 17-07-2008 02:05:07 15.1 C 9.42 g/m*3 15.1 C 0 km/h
1104 17-07-2008 02:35:07 14.7 C 9.32 g/m*3 14.7 C 0 km/h
1105 17-07-2008 03:05:07 14.7 C 9.07 g/m*3 14.7 C 0 km/h
1106 17-07-2008 03:35:08 14.7 C 8.69 g/m*3 14.7 C 0 km/h
1107 17-07-2008 04:05:08 14.5 C 8.83 g/m*3 14.5 C 0 km/h
1108 17-07-2008 04:35:08 14.2 C 8.67 g/m*3 14.2 C 0 km/h
1109 17-07-2008 05:05:08 14 C 8.44 g/m*3 14 C 0 km/h
1110 17-07-2008 05:35:08 13.8 C 8.7 g/m*3 13.8 C 0 km/h
1111 17-07-2008 06:05:08 13.4 C 8.95 g/m*3 13.4 C 0 km/h
1112 17-07-2008 06:35:08 13.5 C 9.12 g/m*3 13.5 C 0 km/h
1113 17-07-2008 07:05:08 13.9 C 9.23 g/m*3 13.9 C 0 km/h
1114 17-07-2008 07:35:08 14.4 C 9.02 g/m*3 14.4 C 0 km/h
1115 17-07-2008 08:05:08 14.9 C 9.43 g/m*3 14.9 C 0 km/h
1116 17-07-2008 08:35:08 15.4 C 9.33 g/m*3 15.4 C 0 km/h
1117 17-07-2008 09:05:08 16 C 9.13 g/m*3 16 C 0 km/h
1118 17-07-2008 09:35:08 17 C 8.54 g/m*3 17 C 0 km/h
1119 17-07-2008 10:05:08 17.9 C 8.4 g/m*3 17.9 C 0 km/h
1120 17-07-2008 10:35:08 18.3 C 7.35 g/m*3 18.3 C 0 km/h
1121 17-07-2008 11:05:08 19.2 C 7.09 g/m*3 19.2 C 0 km/h
1122 17-07-2008 11:35:08 19.1 C 7.05 g/m*3 19.1 C 0 km/h
1123 17-07-2008 12:05:08 19.8 C 6.83 g/m*3 19.8 C 0 km/h
1124 17-07-2008 12:35:08 20.8 C 6.88 g/m*3 20.8 C 0 km/h
1125 17-07-2008 13:05:08 21.9 C 6.56 g/m*3 21.9 C 0 km/h
Sensor: Nr:Datum:Temp:Abs-Feuchte:Windchill:Wind:
Aussen-T/F 1126 17-07-2008 13:35:08 23 C 6.17 g/m*3 23 C 0 km/h
1127 17-07-2008 14:05:09 22.4 C 6.16 g/m*3 22.4 C 0 km/h
1128 17-07-2008 14:35:09 22.5 C 6.39 g/m*3 22.5 C 0 km/h
1129 17-07-2008 15:05:09 21.8 C 6.91 g/m*3 21.8 C 0 km/h
1130 17-07-2008 15:35:09 20.2 C 7.17 g/m*3 20.2 C 0 km/h
1131 17-07-2008 16:05:09 19.5 C 7.55 g/m*3 19.5 C 0 km/h
1132 17-07-2008 16:35:09 19.6 C 7.6 g/m*3 19.6 C 0 km/h
1133 17-07-2008 17:05:09 19.7 C 8.15 g/m*3 19.7 C 0 km/h
1134 17-07-2008 17:35:09 19.9 C 8.42 g/m*3 19.9 C 0 km/h
1135 17-07-2008 18:05:09 20.3 C 8.44 g/m*3 20.3 C 0 km/h
1136 17-07-2008 18:35:09 20.3 C 8.27 g/m*3 20.3 C 0 km/h
1137 17-07-2008 19:05:09 19.8 C 8.37 g/m*3 19.8 C 0 km/h
1138 17-07-2008 19:35:09 18.9 C 8.42 g/m*3 18.9 C 0 km/h
1139 17-07-2008 20:05:09 17.3 C 8.84 g/m*3 17.3 C 0 km/h
1140 17-07-2008 20:35:09 16.2 C 9.65 g/m*3 16.2 C 0 km/h
1141 17-07-2008 21:05:09 15.6 C 9.84 g/m*3 15.6 C 0 km/h
1142 17-07-2008 21:35:09 15.6 C 9.84 g/m*3 15.6 C 0 km/h
1143 17-07-2008 22:05:09 14.5 C 10.2 g/m*3 14.5 C 0 km/h
1144 17-07-2008 22:35:09 14.4 C 10.51 g/m*3 14.4 C 0 km/h
1145 17-07-2008 23:05:09 14.8 C 10.64 g/m*3 14.8 C 0 km/h
1146 17-07-2008 23:35:09 15 C 10.51 g/m*3 15 C 0 km/h
1147 18-07-2008 00:05:10 14.9 C 10.32 g/m*3 14.9 C 0 km/h
1148 18-07-2008 00:35:10 14.8 C 10.26 g/m*3 14.8 C 0 km/h
1149 18-07-2008 01:05:10 14.5 C 10.45 g/m*3 14.5 C 0 km/h
1150 18-07-2008 01:35:10 14.1 C 10.32 g/m*3 14.1 C 0 km/h
Sensor: Nr:Datum:Temp:Abs-Feuchte:Windchill:Wind:
Aussen-T/F 1151 18-07-2008 02:05:10 13.8 C 10.37 g/m*3 13.8 C 0 km/h
1152 18-07-2008 02:35:10 14 C 10.37 g/m*3 14 C 0 km/h
1153 18-07-2008 03:05:10 14 C 10.49 g/m*3 14 C 0 km/h
1154 18-07-2008 03:35:10 13.7 C 10.54 g/m*3 13.7 C 0 km/h
1155 18-07-2008 04:05:10 13.6 C 10.59 g/m*3 13.6 C 0 km/h
1156 18-07-2008 04:35:10 13.5 C 10.53 g/m*3 13.5 C 0 km/h
1157 18-07-2008 05:05:10 13.9 C 10.19 g/m*3 13.9 C 0 km/h
1158 18-07-2008 05:35:10 13.8 C 10.13 g/m*3 13.8 C 0 km/h
1159 18-07-2008 06:05:10 13.8 C 10.25 g/m*3 13.8 C 0 km/h
1160 18-07-2008 06:35:10 13.9 C 9.95 g/m*3 13.9 C 0 km/h
1161 18-07-2008 07:05:10 14.1 C 9.71 g/m*3 14.1 C 0 km/h
1162 18-07-2008 07:35:10 14.5 C 9.33 g/m*3 14.5 C 0 km/h
1163 18-07-2008 08:05:10 14.7 C 9.32 g/m*3 14.7 C 0 km/h
1164 18-07-2008 08:35:10 14.8 C 9.25 g/m*3 14.8 C 0 km/h
1165 18-07-2008 09:05:10 15.5 C 9.12 g/m*3 15.5 C 0 km/h
1166 18-07-2008 09:35:10 16 C 9.26 g/m*3 16 C 0 km/h
1167 18-07-2008 10:05:10 15.6 C 9.44 g/m*3 15.6 C 0 km/h
1168 18-07-2008 10:35:11 16.7 C 9.24 g/m*3 16.7 C 0 km/h
1169 18-07-2008 11:05:11 17.8 C 8.95 g/m*3 17.8 C 0 km/h
1170 18-07-2008 11:35:11 16.5 C 8.99 g/m*3 16.5 C 0 km/h
1171 18-07-2008 12:05:11 16.8 C 9.29 g/m*3 16.8 C 0 km/h
1172 18-07-2008 12:35:11 16.7 C 9.38 g/m*3 16.7 C 0 km/h
1173 18-07-2008 13:05:11 17.8 C 9.11 g/m*3 17.8 C 0 km/h
1174 18-07-2008 13:35:11 20.2 C 8.57 g/m*3 20.2 C 0 km/h
1175 18-07-2008 14:05:11 19.7 C 8.66 g/m*3 19.7 C 0 km/h
Sensor: Nr:Datum:Temp:Abs-Feuchte:Windchill:Wind:
Aussen-T/F 1176 18-07-2008 14:35:11 20.2 C 7.87 g/m*3 20.2 C 0 km/h
1177 18-07-2008 15:05:11 21.3 C 8.02 g/m*3 21.3 C 0 km/h
1178 18-07-2008 15:35:11 20.4 C 8.14 g/m*3 20.4 C 0 km/h
1179 18-07-2008 16:05:11 20.7 C 7.92 g/m*3 20.7 C 0 km/h
1180 18-07-2008 16:35:11 20.3 C 7.56 g/m*3 20.3 C 0 km/h
1181 18-07-2008 17:05:11 19.2 C 8.08 g/m*3 19.2 C 0 km/h
1182 18-07-2008 17:35:11 17.5 C 10.73 g/m*3 17.5 C 0 km/h
1183 18-07-2008 18:05:11 18 C 10.44 g/m*3 18 C 0 km/h
1184 18-07-2008 18:35:11 17.9 C 10.54 g/m*3 17.9 C 0 km/h
1185 18-07-2008 19:05:11 18.5 C 10.44 g/m*3 18.5 C 0 km/h
1186 18-07-2008 19:35:11 18.9 C 10.53 g/m*3 18.9 C 0 km/h
1187 18-07-2008 20:05:11 18.2 C 10.26 g/m*3 18.2 C 0 km/h
1188 18-07-2008 20:35:12 17.7 C 10.11 g/m*3 17.7 C 0 km/h
1189 18-07-2008 21:05:12 17.5 C 9.69 g/m*3 17.5 C 0 km/h
1190 18-07-2008 21:35:12 17.4 C 9.48 g/m*3 17.4 C 0 km/h
1191 18-07-2008 22:05:12 17.1 C 9.17 g/m*3 17.1 C 0 km/h
1192 18-07-2008 22:35:12 17.2 C 9.23 g/m*3 17.2 C 0 km/h
1193 18-07-2008 23:05:12 17.1 C 9.32 g/m*3 17.1 C 0 km/h
1194 18-07-2008 23:35:12 17.1 C 9.17 g/m*3 17.1 C 0 km/h
1195 19-07-2008 00:05:12 16.9 C 9.49 g/m*3 16.9 C 0 km/h
1196 19-07-2008 00:35:12 16.7 C 9.52 g/m*3 16.7 C 0 km/h
1197 19-07-2008 01:05:12 16.4 C 9.91 g/m*3 16.4 C 0 km/h
1198 19-07-2008 01:35:12 16.8 C 9.72 g/m*3 16.8 C 0 km/h
1199 19-07-2008 02:05:12 16.7 C 9.38 g/m*3 16.7 C 0 km/h
1200 19-07-2008 02:35:12 16.6 C 9.32 g/m*3 16.6 C 0 km/h
Sensor: Nr:Datum:Temp:Abs-Feuchte:Windchill:Wind:
Aussen-T/F 1201 19-07-2008 03:05:12 16.9 C 9.06 g/m*3 16.9 C 0 km/h
1202 19-07-2008 03:35:12 17 C 8.83 g/m*3 17 C 0 km/h
1203 19-07-2008 04:05:12 17.5 C 8.5 g/m*3 17.5 C 0 km/h
1204 19-07-2008 04:35:12 17.1 C 9.03 g/m*3 17.1 C 0 km/h
1205 19-07-2008 05:05:12 16.2 C 9.52 g/m*3 16.2 C 0 km/h
1206 19-07-2008 05:35:12 17 C 9.26 g/m*3 17 C 0 km/h
1207 19-07-2008 06:05:12 16.8 C 9.44 g/m*3 16.8 C 0 km/h
1208 19-07-2008 06:35:12 16.6 C 9.61 g/m*3 16.6 C 0 km/h
1209 19-07-2008 07:05:13 17.2 C 9.52 g/m*3 17.2 C 0 km/h
1210 19-07-2008 07:35:13 17.5 C 9.69 g/m*3 17.5 C 0 km/h
1211 19-07-2008 08:05:13 17.8 C 9.71 g/m*3 17.8 C 0 km/h
1212 19-07-2008 08:35:13 18.5 C 9.97 g/m*3 18.5 C 0 km/h
1213 19-07-2008 09:05:13 19.3 C 9.45 g/m*3 19.3 C 0 km/h
1214 19-07-2008 09:35:13 19.4 C 9.34 g/m*3 19.4 C 0 km/h
1215 19-07-2008 10:05:13 21 C 9.34 g/m*3 21 C 0 km/h
1216 19-07-2008 10:35:13 21.5 C 9.43 g/m*3 21.5 C 0 km/h
1217 19-07-2008 11:05:13 21.8 C 9.4 g/m*3 21.8 C 0 km/h
1218 19-07-2008 11:35:13 22.4 C 9.33 g/m*3 22.4 C 0 km/h
1219 19-07-2008 12:05:13 23.3 C 9.41 g/m*3 23.3 C 0 km/h
1220 19-07-2008 12:35:13 24.3 C 8.63 g/m*3 24.3 C 0 km/h
1221 19-07-2008 13:05:13 24.9 C 8.47 g/m*3 24.9 C 0 km/h
1222 19-07-2008 13:35:13 24.8 C 8.88 g/m*3 24.8 C 0 km/h
1223 19-07-2008 14:05:13 26.1 C 7.83 g/m*3 26.1 C 0 km/h
1224 19-07-2008 14:35:13 26.3 C 7.67 g/m*3 26.3 C 0 km/h
1225 19-07-2008 15:05:13 25.2 C 7.92 g/m*3 25.2 C 0 km/h
Sensor: Nr:Datum:Temp:Abs-Feuchte:Windchill:Wind:
Aussen-T/F 1226 19-07-2008 15:35:13 20.4 C 11.5 g/m*3 20.4 C 0 km/h
1227 19-07-2008 16:05:13 23 C 13.77 g/m*3 23 C 0 km/h
1228 19-07-2008 16:35:13 24.4 C 10.46 g/m*3 24.4 C 0 km/h
1229 19-07-2008 17:05:14 23.6 C 10.21 g/m*3 23.6 C 0 km/h
1230 19-07-2008 17:35:14 24.5 C 9.4 g/m*3 24.5 C 0 km/h
1231 19-07-2008 18:05:14 25.4 C 8.71 g/m*3 25.4 C 0 km/h
1232 19-07-2008 18:35:14 25.6 C 7.14 g/m*3 25.6 C 0 km/h
1233 19-07-2008 19:05:14 17.2 C 5.42 g/m*3 17.2 C 0 km/h
1234 19-07-2008 19:35:14 17 C 11.43 g/m*3 17 C 0 km/h
1235 19-07-2008 20:05:14 17.4 C 11.26 g/m*3 17.4 C 0 km/h
1236 19-07-2008 20:35:14 17.7 C 12.07 g/m*3 17.7 C 0 km/h
1237 19-07-2008 21:05:14 17.7 C 12.07 g/m*3 17.7 C 0 km/h
1238 19-07-2008 21:35:14 17.5 C 11.93 g/m*3 17.5 C 0 km/h
1239 19-07-2008 22:05:14 16.6 C 11.58 g/m*3 16.6 C 0 km/h
1240 19-07-2008 22:35:14 16.1 C 10.97 g/m*3 16.1 C 0 km/h
1241 19-07-2008 23:05:14 15.6 C 10.37 g/m*3 15.6 C 0 km/h
1242 19-07-2008 23:35:14 15.4 C 10.25 g/m*3 15.4 C 0 km/h
1243 20-07-2008 00:05:14 15 C 10.13 g/m*3 15 C 0 km/h
1244 20-07-2008 00:35:14 14.8 C 10.01 g/m*3 14.8 C 0 km/h
1245 20-07-2008 01:05:14 14.9 C 9.3 g/m*3 14.9 C 0 km/h
1246 20-07-2008 01:35:14 14.4 C 9.15 g/m*3 14.4 C 0 km/h
1247 20-07-2008 02:05:14 14.8 C 8.99 g/m*3 14.8 C 0 km/h
1248 20-07-2008 02:35:14 14.4 C 8.9 g/m*3 14.4 C 0 km/h
1249 20-07-2008 03:05:15 14.2 C 8.91 g/m*3 14.2 C 0 km/h
1250 20-07-2008 03:35:15 14.1 C 8.86 g/m*3 14.1 C 0 km/h
Sensor: Nr:Datum:Temp:Abs-Feuchte:Windchill:Wind:
Aussen-T/F 1251 20-07-2008 04:05:15 14 C 8.56 g/m*3 14 C 0 km/h
1252 20-07-2008 04:35:15 13.7 C 8.64 g/m*3 13.7 C 0 km/h
1253 20-07-2008 05:05:15 13.3 C 8.78 g/m*3 13.3 C 0 km/h
1254 20-07-2008 05:35:15 12.7 C 8.91 g/m*3 12.7 C 0 km/h
1255 20-07-2008 06:05:15 12.4 C 8.96 g/m*3 12.4 C 0 km/h
1256 20-07-2008 06:35:15 12.6 C 9.07 g/m*3 12.6 C 0 km/h
1257 20-07-2008 07:05:15 12.9 C 9.24 g/m*3 12.9 C 0 km/h
1258 20-07-2008 07:35:15 13.3 C 9.13 g/m*3 13.3 C 0 km/h
1259 20-07-2008 08:05:15 13.7 C 8.88 g/m*3 13.7 C 0 km/h
1260 20-07-2008 08:35:15 14.1 C 8.62 g/m*3 14.1 C 0 km/h
1261 20-07-2008 09:05:15 14.7 C 8.69 g/m*3 14.7 C 0 km/h
1262 20-07-2008 09:35:15 15.8 C 8.62 g/m*3 15.8 C 0 km/h
1263 20-07-2008 10:05:15 16.5 C 8.43 g/m*3 16.5 C 0 km/h
1264 20-07-2008 10:35:15 17.1 C 8.59 g/m*3 17.1 C 0 km/h
1265 20-07-2008 11:05:15 18 C 8.29 g/m*3 18 C 0 km/h
1266 20-07-2008 11:35:15 18.8 C 8.7 g/m*3 18.8 C 0 km/h
1267 20-07-2008 12:05:15 20 C 8.12 g/m*3 20 C 0 km/h
1268 20-07-2008 12:35:15 19.5 C 8.06 g/m*3 19.5 C 0 km/h
1269 20-07-2008 13:05:15 19.5 C 7.89 g/m*3 19.5 C 0 km/h
1270 20-07-2008 13:35:16 18.8 C 8.05 g/m*3 18.8 C 0 km/h
1271 20-07-2008 14:05:16 19.7 C 7.81 g/m*3 19.7 C 0 km/h
1272 20-07-2008 14:35:16 21.2 C 7.41 g/m*3 21.2 C 0 km/h
1273 20-07-2008 15:05:16 21.8 C 6.72 g/m*3 21.8 C 0 km/h
1274 20-07-2008 15:35:16 22.6 C 6.63 g/m*3 22.6 C 0 km/h
1275 20-07-2008 16:05:16 14.5 C 9.7 g/m*3 14.5 C 0 km/h
Sensor: Nr:Datum:Temp:Abs-Feuchte:Windchill:Wind:
Aussen-T/F 1276 20-07-2008 16:35:16 14.8 C 10.51 g/m*3 14.8 C 0 km/h
1277 20-07-2008 17:05:16 15.9 C 10.02 g/m*3 15.9 C 0 km/h
1278 20-07-2008 17:35:16 15.4 C 9.72 g/m*3 15.4 C 0 km/h
1279 20-07-2008 18:05:16 14.3 C 9.95 g/m*3 14.3 C 0 km/h
1280 20-07-2008 18:35:16 16.5 C 9.83 g/m*3 16.5 C 0 km/h
1281 20-07-2008 19:05:16 16.8 C 9.29 g/m*3 16.8 C 0 km/h
1282 20-07-2008 19:35:16 16.4 C 9.21 g/m*3 16.4 C 0 km/h
1283 20-07-2008 20:05:16 16.4 C 9.91 g/m*3 16.4 C 0 km/h
1284 20-07-2008 20:35:16 13.3 C 9.01 g/m*3 13.3 C 0 km/h
1285 20-07-2008 21:05:16 13.8 C 9.89 g/m*3 13.8 C 0 km/h
1286 20-07-2008 21:35:16 13 C 9.3 g/m*3 13 C 0 km/h
1287 20-07-2008 22:05:16 12.9 C 9.58 g/m*3 12.9 C 0 km/h
1288 20-07-2008 22:35:16 12.4 C 9.29 g/m*3 12.4 C 0 km/h
1289 20-07-2008 23:05:16 11.9 C 9.11 g/m*3 11.9 C 0 km/h
1290 20-07-2008 23:35:16 11.7 C 8.99 g/m*3 11.7 C 0 km/h
1291 21-07-2008 00:05:17 11.1 C 8.76 g/m*3 11.1 C 0 km/h
1292 21-07-2008 00:35:17 11.5 C 9.09 g/m*3 11.5 C 0 km/h
1293 21-07-2008 01:05:17 11 C 8.71 g/m*3 11 C 0 km/h
1294 21-07-2008 01:35:17 10.7 C 8.55 g/m*3 10.7 C 0 km/h
1295 21-07-2008 02:05:17 10.5 C 8.53 g/m*3 10.5 C 0 km/h
1296 21-07-2008 02:35:17 10.3 C 8.33 g/m*3 10.3 C 0 km/h
1297 21-07-2008 03:05:17 10.1 C 8.04 g/m*3 10.1 C 0 km/h
1298 21-07-2008 03:35:17 10.1 C 7.56 g/m*3 10.1 C 0 km/h
1299 21-07-2008 04:05:17 10 C 7.61 g/m*3 10 C 0 km/h
1300 21-07-2008 04:35:17 10.4 C 7.61 g/m*3 10.4 C 0 km/h
Sensor: Nr:Datum:Temp:Abs-Feuchte:Windchill:Wind:
Aussen-T/F 1301 21-07-2008 05:05:17 10.4 C 7.71 g/m*3 10.4 C 0 km/h
1302 21-07-2008 05:35:17 10.3 C 7.85 g/m*3 10.3 C 0 km/h
1303 21-07-2008 06:05:17 10.6 C 7.71 g/m*3 10.6 C 0 km/h
1304 21-07-2008 06:35:17 10.9 C 7.66 g/m*3 10.9 C 0 km/h
1305 21-07-2008 07:05:17 11.3 C 7.75 g/m*3 11.3 C 0 km/h
1306 21-07-2008 07:35:17 11.8 C 7.89 g/m*3 11.8 C 0 km/h
1307 21-07-2008 08:05:17 12.6 C 7.97 g/m*3 12.6 C 0 km/h
1308 21-07-2008 08:35:17 13 C 7.71 g/m*3 13 C 0 km/h
1309 21-07-2008 09:05:17 13.1 C 7.65 g/m*3 13.1 C 0 km/h
1310 21-07-2008 09:35:18 15.1 C 7.48 g/m*3 15.1 C 0 km/h
1311 21-07-2008 10:05:18 15.8 C 7.4 g/m*3 15.8 C 0 km/h
1312 21-07-2008 10:35:18 17 C 6.66 g/m*3 17 C 0 km/h
1313 21-07-2008 11:05:18 17.1 C 6.84 g/m*3 17.1 C 0 km/h
1314 21-07-2008 11:35:18 17 C 6.66 g/m*3 17 C 0 km/h
1315 21-07-2008 12:05:18 14.1 C 8.25 g/m*3 14.1 C 0 km/h
1316 21-07-2008 12:35:18 15.8 C 8.48 g/m*3 15.8 C 0 km/h
1317 21-07-2008 13:05:18 17 C 8.83 g/m*3 17 C 0 km/h
1318 21-07-2008 13:35:18 15.7 C 8.96 g/m*3 15.7 C 0 km/h
1319 21-07-2008 14:05:18 14.5 C 8.71 g/m*3 14.5 C 0 km/h
1320 21-07-2008 14:35:18 14 C 9.17 g/m*3 14 C 0 km/h
1321 21-07-2008 15:05:18 13.4 C 8.83 g/m*3 13.4 C 0 km/h
1322 21-07-2008 15:35:18 14.6 C 8.88 g/m*3 14.6 C 0 km/h
1323 21-07-2008 16:05:18 13.9 C 8.99 g/m*3 13.9 C 0 km/h
1324 21-07-2008 16:35:18 12.4 C 8.63 g/m*3 12.4 C 0 km/h
1325 21-07-2008 17:05:18 11.7 C 8.99 g/m*3 11.7 C 0 km/h
Sensor: Nr:Datum:Temp:Abs-Feuchte:Windchill:Wind:
Aussen-T/F 1326 21-07-2008 17:35:18 11.9 C 9.11 g/m*3 11.9 C 0 km/h
1327 21-07-2008 18:05:18 12.6 C 8.85 g/m*3 12.6 C 0 km/h
1328 21-07-2008 18:35:18 12.4 C 8.74 g/m*3 12.4 C 0 km/h
1329 21-07-2008 19:05:19 12.6 C 8.74 g/m*3 12.6 C 0 km/h
1330 21-07-2008 19:35:19 12.7 C 8.35 g/m*3 12.7 C 0 km/h
1331 21-07-2008 20:05:19 12.1 C 8.47 g/m*3 12.1 C 0 km/h
1332 21-07-2008 20:35:19 12 C 8.63 g/m*3 12 C 0 km/h
1333 21-07-2008 21:05:19 11.8 C 8.74 g/m*3 11.8 C 0 km/h
1334 21-07-2008 21:35:19 11.9 C 8.9 g/m*3 11.9 C 0 km/h
1335 21-07-2008 22:05:19 11.7 C 8.99 g/m*3 11.7 C 0 km/h
1336 21-07-2008 22:35:19 11.5 C 9.09 g/m*3 11.5 C 0 km/h
1337 21-07-2008 23:05:19 12 C 9.17 g/m*3 12 C 0 km/h
1338 21-07-2008 23:35:19 12.2 C 9.17 g/m*3 12.2 C 0 km/h
1339 22-07-2008 00:05:19 12.1 C 9.01 g/m*3 12.1 C 0 km/h
1340 22-07-2008 00:35:19 12.1 C 9.33 g/m*3 12.1 C 0 km/h
1341 22-07-2008 01:05:19 12.3 C 9.45 g/m*3 12.3 C 0 km/h
1342 22-07-2008 01:35:19 12.4 C 9.4 g/m*3 12.4 C 0 km/h
1343 22-07-2008 02:05:19 12.4 C 9.4 g/m*3 12.4 C 0 km/h
1344 22-07-2008 02:35:19 12.7 C 9.24 g/m*3 12.7 C 0 km/h
1345 22-07-2008 03:05:19 12.4 C 9.07 g/m*3 12.4 C 0 km/h
1346 22-07-2008 03:35:19 11.9 C 9 g/m*3 11.9 C 0 km/h
1347 22-07-2008 04:05:19 11.8 C 9.05 g/m*3 11.8 C 0 km/h
1348 22-07-2008 04:35:19 12 C 9.27 g/m*3 12 C 0 km/h
1349 22-07-2008 05:05:20 11.8 C 9.37 g/m*3 11.8 C 0 km/h
1350 22-07-2008 05:35:20 11.8 C 9.58 g/m*3 11.8 C 0 km/h
Sensor: Nr:Datum:Temp:Abs-Feuchte:Windchill:Wind:
Aussen-T/F 1351 22-07-2008 06:05:20 12 C 9.8 g/m*3 12 C 0 km/h
1352 22-07-2008 06:35:20 12 C 9.91 g/m*3 12 C 0 km/h
1353 22-07-2008 07:05:20 12 C 9.91 g/m*3 12 C 0 km/h
1354 22-07-2008 07:35:20 12.1 C 9.97 g/m*3 12.1 C 0 km/h
1355 22-07-2008 08:05:20 12.5 C 10.33 g/m*3 12.5 C 0 km/h
1356 22-07-2008 08:35:20 12.5 C 10.33 g/m*3 12.5 C 0 km/h
1357 22-07-2008 09:05:20 12.5 C 10.33 g/m*3 12.5 C 0 km/h
1358 22-07-2008 09:35:20 12.9 C 10.37 g/m*3 12.9 C 0 km/h
1359 22-07-2008 10:05:20 13.4 C 10.11 g/m*3 13.4 C 0 km/h
1360 22-07-2008 10:35:20 14 C 9.77 g/m*3 14 C 0 km/h
1361 22-07-2008 11:05:20 15 C 9.87 g/m*3 15 C 0 km/h
1362 22-07-2008 11:35:20 15.2 C 9.48 g/m*3 15.2 C 0 km/h
1363 22-07-2008 12:05:20 15.1 C 8.9 g/m*3 15.1 C 0 km/h
1364 22-07-2008 12:35:20 15.5 C 9.12 g/m*3 15.5 C 0 km/h
1365 22-07-2008 13:05:20 15.4 C 8.93 g/m*3 15.4 C 0 km/h
1366 22-07-2008 13:35:20 15.5 C 8.86 g/m*3 15.5 C 0 km/h
1367 22-07-2008 14:05:20 15.5 C 8.86 g/m*3 15.5 C 0 km/h
1368 22-07-2008 14:35:20 16.7 C 9.38 g/m*3 16.7 C 0 km/h
1369 22-07-2008 15:05:20 16.8 C 8.58 g/m*3 16.8 C 0 km/h
1370 22-07-2008 15:35:21 17.8 C 8.2 g/m*3 17.8 C 0 km/h
1371 22-07-2008 16:05:21 17.3 C 8.1 g/m*3 17.3 C 0 km/h
1372 22-07-2008 16:35:21 18 C 8.45 g/m*3 18 C 0 km/h
1373 22-07-2008 17:05:21 18.5 C 8.07 g/m*3 18.5 C 0 km/h
1374 22-07-2008 17:35:21 17.6 C 7.95 g/m*3 17.6 C 0 km/h
1375 22-07-2008 18:05:21 18.8 C 8.21 g/m*3 18.8 C 0 km/h
Sensor: Nr:Datum:Temp:Abs-Feuchte:Windchill:Wind:
Aussen-T/F 1376 22-07-2008 18:35:21 18.2 C 9.01 g/m*3 18.2 C 0 km/h
1377 22-07-2008 19:05:21 18.5 C 9.02 g/m*3 18.5 C 0 km/h
1378 22-07-2008 19:35:21 18.4 C 8.97 g/m*3 18.4 C 0 km/h
1379 22-07-2008 20:05:21 17.3 C 9.43 g/m*3 17.3 C 0 km/h
1380 22-07-2008 20:35:21 18 C 9.52 g/m*3 18 C 0 km/h
1381 22-07-2008 21:05:21 17.2 C 9.23 g/m*3 17.2 C 0 km/h
1382 22-07-2008 21:35:21 15.8 C 9.29 g/m*3 15.8 C 0 km/h
1383 22-07-2008 22:05:21 14.6 C 9.01 g/m*3 14.6 C 0 km/h
1384 22-07-2008 22:35:21 14 C 8.81 g/m*3 14 C 0 km/h
1385 22-07-2008 23:05:21 13.5 C 9.12 g/m*3 13.5 C 0 km/h
1386 22-07-2008 23:35:21 13.1 C 9.13 g/m*3 13.1 C 0 km/h
1387 23-07-2008 00:05:21 13.1 C 9.36 g/m*3 13.1 C 0 km/h
1388 23-07-2008 00:35:21 13 C 9.41 g/m*3 13 C 0 km/h
1389 23-07-2008 01:05:21 12.5 C 9.24 g/m*3 12.5 C 0 km/h
1390 23-07-2008 01:35:22 12 C 9.06 g/m*3 12 C 0 km/h
1391 23-07-2008 02:05:22 11.6 C 9.04 g/m*3 11.6 C 0 km/h
1392 23-07-2008 02:35:22 11.3 C 8.87 g/m*3 11.3 C 0 km/h
1393 23-07-2008 03:05:22 11.2 C 9.02 g/m*3 11.2 C 0 km/h
1394 23-07-2008 03:35:22 10.7 C 8.74 g/m*3 10.7 C 0 km/h
1395 23-07-2008 04:05:22 10.4 C 8.58 g/m*3 10.4 C 0 km/h
1396 23-07-2008 04:35:22 10.4 C 8.77 g/m*3 10.4 C 0 km/h
1397 23-07-2008 05:05:22 10.5 C 8.92 g/m*3 10.5 C 0 km/h
1398 23-07-2008 05:35:22 10.7 C 9.04 g/m*3 10.7 C 0 km/h
1399 23-07-2008 06:05:22 10.8 C 9.09 g/m*3 10.8 C 0 km/h
1400 23-07-2008 06:35:22 10.8 C 9.09 g/m*3 10.8 C 0 km/h
Sensor: Nr:Datum:Temp:Abs-Feuchte:Windchill:Wind:
Aussen-T/F 1401 23-07-2008 07:05:22 10.5 C 8.92 g/m*3 10.5 C 0 km/h
1402 23-07-2008 07:35:22 10.8 C 8.99 g/m*3 10.8 C 0 km/h
1403 23-07-2008 08:05:22 10.9 C 8.85 g/m*3 10.9 C 0 km/h
1404 23-07-2008 08:35:22 11.8 C 9.16 g/m*3 11.8 C 0 km/h
1405 23-07-2008 09:05:22 12.9 C 9.13 g/m*3 12.9 C 0 km/h
1406 23-07-2008 09:35:22 12.8 C 9.18 g/m*3 12.8 C 0 km/h
1407 23-07-2008 10:05:22 15.4 C 9.46 g/m*3 15.4 C 0 km/h
1408 23-07-2008 10:35:22 17 C 9.69 g/m*3 17 C 0 km/h
1409 23-07-2008 11:05:22 18.1 C 9.73 g/m*3 18.1 C 0 km/h
1410 23-07-2008 11:35:22 19.4 C 9.18 g/m*3 19.4 C 0 km/h
1411 23-07-2008 12:05:23 21.1 C 8.29 g/m*3 21.1 C 0 km/h
1412 23-07-2008 12:35:23 22.2 C 8.25 g/m*3 22.2 C 0 km/h
1413 23-07-2008 13:05:23 23.9 C 7.36 g/m*3 23.9 C 0 km/h
1414 23-07-2008 13:35:23 25.9 C 7.26 g/m*3 25.9 C 0 km/h
1415 23-07-2008 14:05:23 26 C 6.09 g/m*3 26 C 0 km/h
1416 23-07-2008 14:35:23 25.7 C 7.18 g/m*3 25.7 C 0 km/h
1417 23-07-2008 15:05:23 26.3 C 6.93 g/m*3 26.3 C 0 km/h
1418 23-07-2008 15:35:23 28.9 C 7.14 g/m*3 28.9 C 0 km/h
1419 23-07-2008 16:05:23 29.2 C 6.97 g/m*3 29.2 C 0 km/h
1420 23-07-2008 16:35:23 29.2 C 6.39 g/m*3 29.2 C 0 km/h
1421 23-07-2008 17:05:23 30.1 C 6.1 g/m*3 30.1 C 0 km/h
1422 23-07-2008 17:35:23 29.3 C 6.42 g/m*3 29.3 C 0 km/h
1423 23-07-2008 18:05:23 28.8 C 6.53 g/m*3 28.8 C 0 km/h
1424 23-07-2008 18:35:23 30 C 6.67 g/m*3 30 C 0 km/h
1425 23-07-2008 19:05:23 27.9 C 6.76 g/m*3 27.9 C 0 km/h
Sensor: Nr:Datum:Temp:Abs-Feuchte:Windchill:Wind:
Aussen-T/F 1426 23-07-2008 19:35:23 28.7 C 7.06 g/m*3 28.7 C 0 km/h
1427 23-07-2008 20:05:23 27.8 C 6.99 g/m*3 27.8 C 0 km/h
1428 23-07-2008 20:35:23 25.2 C 7.68 g/m*3 25.2 C 0 km/h
1429 23-07-2008 21:05:23 23.6 C 8.51 g/m*3 23.6 C 0 km/h
1430 23-07-2008 21:35:23 22.5 C 9.39 g/m*3 22.5 C 0 km/h
1431 23-07-2008 22:05:24 20.7 C 9.54 g/m*3 20.7 C 0 km/h
1432 23-07-2008 22:35:24 19.9 C 9.62 g/m*3 19.9 C 0 km/h
1433 23-07-2008 23:05:24 19.2 C 9.56 g/m*3 19.2 C 0 km/h
1434 23-07-2008 23:35:24 18.6 C 9.55 g/m*3 18.6 C 0 km/h
1435 24-07-2008 00:05:24 18.1 C 9.89 g/m*3 18.1 C 0 km/h
1436 24-07-2008 00:35:24 17.5 C 9.24 g/m*3 17.5 C 0 km/h
1437 24-07-2008 01:05:24 16.8 C 9.01 g/m*3 16.8 C 0 km/h
1438 24-07-2008 01:35:24 16.3 C 8.88 g/m*3 16.3 C 0 km/h
1439 24-07-2008 02:05:24 15.9 C 8.94 g/m*3 15.9 C 0 km/h
1440 24-07-2008 02:35:24 15.4 C 8.93 g/m*3 15.4 C 0 km/h
1441 24-07-2008 03:05:24 14.8 C 8.99 g/m*3 14.8 C 0 km/h
1442 24-07-2008 03:35:24 14.7 C 9.19 g/m*3 14.7 C 0 km/h
1443 24-07-2008 04:05:24 14.1 C 9.1 g/m*3 14.1 C 0 km/h
1444 24-07-2008 04:35:24 13.7 C 9.12 g/m*3 13.7 C 0 km/h
1445 24-07-2008 05:05:24 13.3 C 9.01 g/m*3 13.3 C 0 km/h
1446 24-07-2008 05:35:24 13 C 8.96 g/m*3 13 C 0 km/h
1447 24-07-2008 06:05:24 12.8 C 9.07 g/m*3 12.8 C 0 km/h
1448 24-07-2008 06:35:24 12.8 C 9.07 g/m*3 12.8 C 0 km/h
1449 24-07-2008 07:05:24 12.9 C 9.24 g/m*3 12.9 C 0 km/h
1450 24-07-2008 07:35:24 13.1 C 9.24 g/m*3 13.1 C 0 km/h
Sensor: Nr:Datum:Temp:Abs-Feuchte:Windchill:Wind:
Aussen-T/F 1451 24-07-2008 08:05:24 13.6 C 9.53 g/m*3 13.6 C 0 km/h
1452 24-07-2008 08:35:25 14.3 C 9.71 g/m*3 14.3 C 0 km/h
1453 24-07-2008 09:05:25 15.4 C 10.25 g/m*3 15.4 C 0 km/h
1454 24-07-2008 09:35:25 17 C 10.13 g/m*3 17 C 0 km/h
1455 24-07-2008 10:05:25 18.9 C 10.04 g/m*3 18.9 C 0 km/h
1456 24-07-2008 10:35:25 20.8 C 8.87 g/m*3 20.8 C 0 km/h
1457 24-07-2008 11:05:25 22.4 C 8.34 g/m*3 22.4 C 0 km/h
1458 24-07-2008 11:35:25 23.1 C 7.65 g/m*3 23.1 C 0 km/h
1459 24-07-2008 12:05:25 24.5 C 7.83 g/m*3 24.5 C 0 km/h
1460 24-07-2008 12:35:25 26.5 C 7.01 g/m*3 26.5 C 0 km/h
1461 24-07-2008 13:05:25 25.7 C 6.46 g/m*3 25.7 C 0 km/h
1462 24-07-2008 13:35:25 29 C 6.32 g/m*3 29 C 0 km/h
1463 24-07-2008 14:05:25 28.8 C 5.97 g/m*3 28.8 C 0 km/h
1464 24-07-2008 14:35:25 28.3 C 6.36 g/m*3 28.3 C 0 km/h
1465 24-07-2008 15:05:25 29.9 C 6.03 g/m*3 29.9 C 0 km/h
1466 24-07-2008 15:35:25 30.7 C 6.3 g/m*3 30.7 C 0 km/h
1467 24-07-2008 16:05:25 31 C 6.4 g/m*3 31 C 0 km/h
1468 24-07-2008 16:35:25 31.4 C 6.54 g/m*3 31.4 C 0 km/h
1469 24-07-2008 17:05:25 31.6 C 6.61 g/m*3 31.6 C 0 km/h
1470 24-07-2008 17:35:25 32.1 C 6.79 g/m*3 32.1 C 0 km/h
1471 24-07-2008 18:05:26 32.3 C 6.86 g/m*3 32.3 C 0 km/h
1472 24-07-2008 18:35:26 32.3 C 6.86 g/m*3 32.3 C 0 km/h
1473 24-07-2008 19:05:26 32.3 C 6.86 g/m*3 32.3 C 0 km/h
1474 24-07-2008 19:35:26 31.6 C 6.61 g/m*3 31.6 C 0 km/h
1475 24-07-2008 20:05:26 31.2 C 6.47 g/m*3 31.2 C 0 km/h
Sensor: Nr:Datum:Temp:Abs-Feuchte:Windchill:Wind:
Aussen-T/F 1476 24-07-2008 20:35:26 30.3 C 7.4 g/m*3 30.3 C 0 km/h
1477 24-07-2008 21:05:26 27.1 C 7.76 g/m*3 27.1 C 0 km/h
1478 24-07-2008 21:35:26 25 C 7.37 g/m*3 25 C 0 km/h
1479 24-07-2008 22:05:26 23.7 C 7.7 g/m*3 23.7 C 0 km/h
1480 24-07-2008 22:35:26 22.7 C 7.88 g/m*3 22.7 C 0 km/h
1481 24-07-2008 23:05:26 22.2 C 8.05 g/m*3 22.2 C 0 km/h
1482 24-07-2008 23:35:26 21.8 C 8.25 g/m*3 21.8 C 0 km/h
1483 25-07-2008 00:05:26 21.2 C 8.15 g/m*3 21.2 C 0 km/h
1484 25-07-2008 00:35:26 20.9 C 8.38 g/m*3 20.9 C 0 km/h
1485 25-07-2008 01:05:26 20.2 C 8.22 g/m*3 20.2 C 0 km/h
1486 25-07-2008 01:35:26 19.9 C 8.42 g/m*3 19.9 C 0 km/h
1487 25-07-2008 02:05:26 19.5 C 8.22 g/m*3 19.5 C 0 km/h
1488 25-07-2008 02:35:26 19.1 C 8.36 g/m*3 19.1 C 0 km/h
1489 25-07-2008 03:05:26 18.5 C 8.54 g/m*3 18.5 C 0 km/h
1490 25-07-2008 03:35:26 18.1 C 8.65 g/m*3 18.1 C 0 km/h
1491 25-07-2008 04:05:27 17.9 C 9.01 g/m*3 17.9 C 0 km/h
1492 25-07-2008 04:35:27 17.5 C 9.24 g/m*3 17.5 C 0 km/h
1493 25-07-2008 05:05:27 17.4 C 9.34 g/m*3 17.4 C 0 km/h
1494 25-07-2008 05:35:27 17 C 9.12 g/m*3 17 C 0 km/h
1495 25-07-2008 06:05:27 16.6 C 9.32 g/m*3 16.6 C 0 km/h
1496 25-07-2008 06:35:27 16.2 C 9.52 g/m*3 16.2 C 0 km/h
1497 25-07-2008 07:05:27 16.3 C 9.71 g/m*3 16.3 C 0 km/h
1498 25-07-2008 07:35:27 16.8 C 9.87 g/m*3 16.8 C 0 km/h
1499 25-07-2008 08:05:27 16.9 C 9.78 g/m*3 16.9 C 0 km/h
1500 25-07-2008 08:35:27 17.9 C 9.92 g/m*3 17.9 C 0 km/h
Sensor: Nr:Datum:Temp:Abs-Feuchte:Windchill:Wind:
Aussen-T/F 1501 25-07-2008 09:05:27 20 C 9.51 g/m*3 20 C 0 km/h
1502 25-07-2008 09:35:27 20.4 C 9.91 g/m*3 20.4 C 0 km/h
1503 25-07-2008 10:05:27 20.8 C 10.14 g/m*3 20.8 C 0 km/h
1504 25-07-2008 10:35:27 22.7 C 9.9 g/m*3 22.7 C 0 km/h
1505 25-07-2008 11:05:27 24.4 C 9.57 g/m*3 24.4 C 0 km/h
1506 25-07-2008 11:35:27 25.6 C 9.52 g/m*3 25.6 C 0 km/h
1507 25-07-2008 12:05:27 27.1 C 9.32 g/m*3 27.1 C 0 km/h
1508 25-07-2008 12:35:27 28.8 C 8.81 g/m*3 28.8 C 0 km/h
1509 25-07-2008 13:05:27 29.7 C 8.95 g/m*3 29.7 C 0 km/h
1510 25-07-2008 13:35:27 30.7 C 8.19 g/m*3 30.7 C 0 km/h
1511 25-07-2008 14:05:27 31.3 C 7.48 g/m*3 31.3 C 0 km/h
1512 25-07-2008 14:35:28 31.2 C 7.44 g/m*3 31.2 C 0 km/h
1513 25-07-2008 15:05:28 32.1 C 7.13 g/m*3 32.1 C 0 km/h
1514 25-07-2008 15:35:28 32.6 C 6.97 g/m*3 32.6 C 0 km/h
1515 25-07-2008 16:05:28 32.3 C 6.86 g/m*3 32.3 C 0 km/h
1516 25-07-2008 16:35:28 33.3 C 7.23 g/m*3 33.3 C 0 km/h
1517 25-07-2008 17:05:28 32.5 C 6.93 g/m*3 32.5 C 0 km/h
1518 25-07-2008 17:35:28 32.5 C 6.93 g/m*3 32.5 C 0 km/h
1519 25-07-2008 18:05:28 32.5 C 6.93 g/m*3 32.5 C 0 km/h
1520 25-07-2008 18:35:28 33.2 C 7.2 g/m*3 33.2 C 0 km/h
1521 25-07-2008 19:05:28 32.8 C 7.04 g/m*3 32.8 C 0 km/h
1522 25-07-2008 19:35:28 31.3 C 8.46 g/m*3 31.3 C 0 km/h
1523 25-07-2008 20:05:28 30.7 C 9.45 g/m*3 30.7 C 0 km/h
1524 25-07-2008 20:35:28 29.3 C 9.93 g/m*3 29.3 C 0 km/h
1525 25-07-2008 21:05:28 27.8 C 9.95 g/m*3 27.8 C 0 km/h
Sensor: Nr:Datum:Temp:Abs-Feuchte:Windchill:Wind:
Aussen-T/F 1526 25-07-2008 21:35:28 26.6 C 9.82 g/m*3 26.6 C 0 km/h
1527 25-07-2008 22:05:28 25.8 C 9.63 g/m*3 25.8 C 0 km/h
1528 25-07-2008 22:35:28 24.9 C 10.07 g/m*3 24.9 C 0 km/h
1529 25-07-2008 23:05:28 24.3 C 9.96 g/m*3 24.3 C 0 km/h
1530 25-07-2008 23:35:28 23.6 C 10.42 g/m*3 23.6 C 0 km/h
1531 26-07-2008 00:05:28 23 C 10.48 g/m*3 23 C 0 km/h
1532 26-07-2008 00:35:29 22.2 C 10.6 g/m*3 22.2 C 0 km/h
1533 26-07-2008 01:05:29 22.2 C 10.8 g/m*3 22.2 C 0 km/h
1534 26-07-2008 01:35:29 21.3 C 10.81 g/m*3 21.3 C 0 km/h
1535 26-07-2008 02:05:29 21 C 10.99 g/m*3 21 C 0 km/h
1536 26-07-2008 02:35:29 20.5 C 11.21 g/m*3 20.5 C 0 km/h
1537 26-07-2008 03:05:29 20.2 C 11.19 g/m*3 20.2 C 0 km/h
1538 26-07-2008 03:35:29 20 C 11.23 g/m*3 20 C 0 km/h
1539 26-07-2008 04:05:29 20.2 C 11.19 g/m*3 20.2 C 0 km/h
1540 26-07-2008 04:35:29 20 C 11.23 g/m*3 20 C 0 km/h
1541 26-07-2008 05:05:29 19.9 C 11.51 g/m*3 19.9 C 0 km/h
1542 26-07-2008 05:35:29 19.1 C 11.31 g/m*3 19.1 C 0 km/h
1543 26-07-2008 06:05:29 18.8 C 11.6 g/m*3 18.8 C 0 km/h
1544 26-07-2008 06:35:29 19.1 C 11.64 g/m*3 19.1 C 0 km/h
1545 26-07-2008 07:05:29 19.5 C 11.75 g/m*3 19.5 C 0 km/h
1546 26-07-2008 07:35:29 19.6 C 11.65 g/m*3 19.6 C 0 km/h
1547 26-07-2008 08:05:29 19.8 C 11.79 g/m*3 19.8 C 0 km/h
1548 26-07-2008 08:35:29 20.2 C 11.71 g/m*3 20.2 C 0 km/h
1549 26-07-2008 09:05:29 21 C 11.36 g/m*3 21 C 0 km/h
1550 26-07-2008 09:35:29 22 C 11.65 g/m*3 22 C 0 km/h
Sensor: Nr:Datum:Temp:Abs-Feuchte:Windchill:Wind:
Aussen-T/F 1551 26-07-2008 10:05:29 23.7 C 11.55 g/m*3 23.7 C 0 km/h
1552 26-07-2008 10:35:30 25.1 C 11.81 g/m*3 25.1 C 0 km/h
1553 26-07-2008 11:05:30 25.8 C 12.28 g/m*3 25.8 C 0 km/h
1554 26-07-2008 11:35:30 27.3 C 12.04 g/m*3 27.3 C 0 km/h
1555 26-07-2008 12:05:30 29.6 C 12.17 g/m*3 29.6 C 0 km/h
1556 26-07-2008 12:35:30 30.2 C 11.34 g/m*3 30.2 C 0 km/h
1557 26-07-2008 13:05:30 30.6 C 10.96 g/m*3 30.6 C 0 km/h
1558 26-07-2008 13:35:30 30.7 C 11.02 g/m*3 30.7 C 0 km/h
1559 26-07-2008 14:05:30 30.9 C 10.5 g/m*3 30.9 C 0 km/h
1560 26-07-2008 14:35:30 31 C 10.24 g/m*3 31 C 0 km/h
1561 26-07-2008 15:05:30 31.8 C 10.02 g/m*3 31.8 C 0 km/h
1562 26-07-2008 15:35:30 32.1 C 10.18 g/m*3 32.1 C 0 km/h
1563 26-07-2008 16:05:30 33.2 C 7.55 g/m*3 33.2 C 0 km/h
1564 26-07-2008 16:35:30 32.2 C 8.53 g/m*3 32.2 C 0 km/h
1565 26-07-2008 17:05:30 31.7 C 8.64 g/m*3 31.7 C 0 km/h
1566 26-07-2008 17:35:30 29 C 10.05 g/m*3 29 C 0 km/h
1567 26-07-2008 18:05:30 25.3 C 11.71 g/m*3 25.3 C 0 km/h
1568 26-07-2008 18:35:30 20.8 C 14.12 g/m*3 20.8 C 0 km/h
1569 26-07-2008 19:05:30 20.9 C 15.3 g/m*3 20.9 C 0 km/h
1570 26-07-2008 19:35:30 20.6 C 15.21 g/m*3 20.6 C 0 km/h
1571 26-07-2008 20:05:31 21.1 C 14.37 g/m*3 21.1 C 0 km/h
1572 26-07-2008 20:35:31 20.8 C 14.49 g/m*3 20.8 C 0 km/h
1573 26-07-2008 21:05:31 20.8 C 14.3 g/m*3 20.8 C 0 km/h
1574 26-07-2008 21:35:31 19.5 C 14.1 g/m*3 19.5 C 0 km/h
1575 26-07-2008 22:05:31 19.3 C 13.6 g/m*3 19.3 C 0 km/h
Sensor: Nr:Datum:Temp:Abs-Feuchte:Windchill:Wind:
Aussen-T/F 1576 26-07-2008 22:35:31 19 C 13.36 g/m*3 19 C 0 km/h
1577 26-07-2008 23:05:31 18.9 C 13.61 g/m*3 18.9 C 0 km/h
1578 26-07-2008 23:35:31 18.8 C 14.17 g/m*3 18.8 C 0 km/h
1579 27-07-2008 00:05:31 18.5 C 14.08 g/m*3 18.5 C 0 km/h
1580 27-07-2008 00:35:31 18.4 C 14 g/m*3 18.4 C 0 km/h
1581 27-07-2008 01:05:31 18.5 C 14.08 g/m*3 18.5 C 0 km/h
1582 27-07-2008 01:35:31 18.3 C 13.92 g/m*3 18.3 C 0 km/h
1583 27-07-2008 02:05:31 18.1 C 13.6 g/m*3 18.1 C 0 km/h
1584 27-07-2008 02:35:31 17.8 C 13.51 g/m*3 17.8 C 0 km/h
1585 27-07-2008 03:05:31 18 C 13.67 g/m*3 18 C 0 km/h
1586 27-07-2008 03:35:31 18.4 C 14 g/m*3 18.4 C 0 km/h
1587 27-07-2008 04:05:31 18.4 C 13.84 g/m*3 18.4 C 0 km/h
1588 27-07-2008 04:35:31 18.5 C 13.92 g/m*3 18.5 C 0 km/h
1589 27-07-2008 05:05:31 18.7 C 13.93 g/m*3 18.7 C 0 km/h
1590 27-07-2008 05:35:32 18.7 C 13.93 g/m*3 18.7 C 0 km/h
1591 27-07-2008 06:05:32 18.8 C 14.01 g/m*3 18.8 C 0 km/h
1592 27-07-2008 06:35:32 18.8 C 14.01 g/m*3 18.8 C 0 km/h
1593 27-07-2008 07:05:32 19 C 13.85 g/m*3 19 C 0 km/h
1594 27-07-2008 07:35:32 19.2 C 13.85 g/m*3 19.2 C 0 km/h
1595 27-07-2008 08:05:32 19.6 C 13.67 g/m*3 19.6 C 0 km/h
1596 27-07-2008 08:35:32 19.7 C 13.25 g/m*3 19.7 C 0 km/h
1597 27-07-2008 09:05:32 19.9 C 13.23 g/m*3 19.9 C 0 km/h
1598 27-07-2008 09:35:32 20.1 C 13.04 g/m*3 20.1 C 0 km/h
1599 27-07-2008 10:05:32 20.4 C 13.09 g/m*3 20.4 C 0 km/h
1600 27-07-2008 10:35:32 21.6 C 13.66 g/m*3 21.6 C 0 km/h
Sensor: Nr:Datum:Temp:Abs-Feuchte:Windchill:Wind:
Aussen-T/F 1601 27-07-2008 11:05:32 23.4 C 13.04 g/m*3 23.4 C 0 km/h
1602 27-07-2008 11:35:32 24.3 C 12.83 g/m*3 24.3 C 0 km/h
1603 27-07-2008 12:05:32 24.9 C 13.05 g/m*3 24.9 C 0 km/h
1604 27-07-2008 12:35:32 26.5 C 12.77 g/m*3 26.5 C 0 km/h
1605 27-07-2008 13:05:32 28.2 C 12.1 g/m*3 28.2 C 0 km/h
1606 27-07-2008 13:35:32 29.9 C 11.46 g/m*3 29.9 C 0 km/h
1607 27-07-2008 14:05:32 30.3 C 11.4 g/m*3 30.3 C 0 km/h
1608 27-07-2008 14:35:32 31.2 C 10.67 g/m*3 31.2 C 0 km/h
1609 27-07-2008 15:05:33 31.8 C 10.02 g/m*3 31.8 C 0 km/h
1610 27-07-2008 15:35:33 32.4 C 10 g/m*3 32.4 C 0 km/h
1611 27-07-2008 16:05:33 33 C 8.9 g/m*3 33 C 0 km/h
1612 27-07-2008 16:35:33 32.7 C 8.76 g/m*3 32.7 C 0 km/h
1613 27-07-2008 17:05:33 33.8 C 7.43 g/m*3 33.8 C 0 km/h
1614 27-07-2008 17:35:33 33.6 C 7.35 g/m*3 33.6 C 0 km/h
1615 27-07-2008 18:05:33 32 C 9.45 g/m*3 32 C 0 km/h
1616 27-07-2008 18:35:33 31 C 10.88 g/m*3 31 C 0 km/h
1617 27-07-2008 19:05:33 25.1 C 12.04 g/m*3 25.1 C 0 km/h
1618 27-07-2008 19:35:33 22.8 C 15.65 g/m*3 22.8 C 0 km/h
1619 27-07-2008 20:05:33 21.7 C 15.83 g/m*3 21.7 C 0 km/h
1620 27-07-2008 20:35:33 21 C 15.39 g/m*3 21 C 0 km/h
1621 27-07-2008 21:05:33 21.6 C 15.36 g/m*3 21.6 C 0 km/h
1622 27-07-2008 21:35:33 21.5 C 14.71 g/m*3 21.5 C 0 km/h
1623 27-07-2008 22:05:33 21.3 C 14.54 g/m*3 21.3 C 0 km/h
1624 27-07-2008 22:35:33 21 C 13.92 g/m*3 21 C 0 km/h
1625 27-07-2008 23:05:33 20.8 C 13.76 g/m*3 20.8 C 0 km/h
Sensor: Nr:Datum:Temp:Abs-Feuchte:Windchill:Wind:
Aussen-T/F 1626 27-07-2008 23:35:33 20.7 C 13.68 g/m*3 20.7 C 0 km/h
1627 28-07-2008 00:05:33 20.3 C 13.54 g/m*3 20.3 C 0 km/h
1628 28-07-2008 00:35:33 20 C 13.48 g/m*3 20 C 0 km/h
1629 28-07-2008 01:05:34 19.5 C 13.26 g/m*3 19.5 C 0 km/h
1630 28-07-2008 01:35:34 19.2 C 13.19 g/m*3 19.2 C 0 km/h
1631 28-07-2008 02:05:34 19.1 C 13.28 g/m*3 19.1 C 0 km/h
1632 28-07-2008 02:35:34 19.2 C 13.36 g/m*3 19.2 C 0 km/h
1633 28-07-2008 03:05:34 19.2 C 13.36 g/m*3 19.2 C 0 km/h
1634 28-07-2008 03:35:34 18.9 C 13.61 g/m*3 18.9 C 0 km/h
1635 28-07-2008 04:05:34 18.6 C 13.37 g/m*3 18.6 C 0 km/h
1636 28-07-2008 04:35:34 18.6 C 13.37 g/m*3 18.6 C 0 km/h
1637 28-07-2008 05:05:34 18.3 C 13.29 g/m*3 18.3 C 0 km/h
1638 28-07-2008 05:35:34 18.1 C 13.13 g/m*3 18.1 C 0 km/h
1639 28-07-2008 06:05:34 18 C 13.06 g/m*3 18 C 0 km/h
1640 28-07-2008 06:35:34 18.2 C 13.21 g/m*3 18.2 C 0 km/h
1641 28-07-2008 07:05:34 18.5 C 13.45 g/m*3 18.5 C 0 km/h
1642 28-07-2008 07:35:34 18.9 C 13.77 g/m*3 18.9 C 0 km/h
1643 28-07-2008 08:05:34 19.4 C 13.85 g/m*3 19.4 C 0 km/h
1644 28-07-2008 08:35:34 19.8 C 13.84 g/m*3 19.8 C 0 km/h
1645 28-07-2008 09:05:34 20.9 C 14.21 g/m*3 20.9 C 0 km/h
1646 28-07-2008 09:35:34 22.4 C 13.7 g/m*3 22.4 C 0 km/h
1647 28-07-2008 10:05:34 23.5 C 13.75 g/m*3 23.5 C 0 km/h
1648 28-07-2008 10:35:35 26 C 12.42 g/m*3 26 C 0 km/h
1649 28-07-2008 11:05:35 26.6 C 12.59 g/m*3 26.6 C 0 km/h
1650 28-07-2008 11:35:35 27.9 C 12.17 g/m*3 27.9 C 0 km/h
Sensor: Nr:Datum:Temp:Abs-Feuchte:Windchill:Wind:
Aussen-T/F 1651 28-07-2008 12:05:35 28.7 C 11.59 g/m*3 28.7 C 0 km/h
1652 28-07-2008 12:35:35 30.6 C 10.65 g/m*3 30.6 C 0 km/h
1653 28-07-2008 13:05:35 31.5 C 9.86 g/m*3 31.5 C 0 km/h
1654 28-07-2008 13:35:35 32.1 C 9.16 g/m*3 32.1 C 0 km/h
1655 28-07-2008 14:05:35 32.1 C 8.82 g/m*3 32.1 C 0 km/h
1656 28-07-2008 14:35:35 31.9 C 8.39 g/m*3 31.9 C 0 km/h
1657 28-07-2008 15:05:35 32.6 C 7.67 g/m*3 32.6 C 0 km/h
1658 28-07-2008 15:35:35 32.3 C 6.86 g/m*3 32.3 C 0 km/h
1659 28-07-2008 16:05:35 33.1 C 7.16 g/m*3 33.1 C 0 km/h
1660 28-07-2008 16:35:35 32.6 C 6.97 g/m*3 32.6 C 0 km/h
1661 28-07-2008 17:05:35 33.2 C 7.2 g/m*3 33.2 C 0 km/h
1662 28-07-2008 17:35:35 32.7 C 8.41 g/m*3 32.7 C 0 km/h
1663 28-07-2008 18:05:35 32.8 C 7.75 g/m*3 32.8 C 0 km/h
1664 28-07-2008 18:35:35 31.5 C 9.2 g/m*3 31.5 C 0 km/h
1665 28-07-2008 19:05:35 30.2 C 9.2 g/m*3 30.2 C 0 km/h
1666 28-07-2008 19:35:35 30.3 C 9.55 g/m*3 30.3 C 0 km/h
1667 28-07-2008 20:05:36 29 C 9.77 g/m*3 29 C 0 km/h
1668 28-07-2008 20:35:36 27.8 C 9.68 g/m*3 27.8 C 0 km/h
1669 28-07-2008 21:05:36 27 C 9.52 g/m*3 27 C 0 km/h
1670 28-07-2008 21:35:36 26.3 C 9.65 g/m*3 26.3 C 0 km/h
1671 28-07-2008 22:05:36 25.5 C 9.47 g/m*3 25.5 C 0 km/h
1672 28-07-2008 22:35:36 24.8 C 9.79 g/m*3 24.8 C 0 km/h
1673 28-07-2008 23:05:36 24.1 C 9.63 g/m*3 24.1 C 0 km/h
1674 28-07-2008 23:35:36 23.4 C 9.88 g/m*3 23.4 C 0 km/h
1675 29-07-2008 00:05:36 23 C 9.87 g/m*3 23 C 0 km/h
Sensor: Nr:Datum:Temp:Abs-Feuchte:Windchill:Wind:
Aussen-T/F 1676 29-07-2008 00:35:36 22.5 C 10.39 g/m*3 22.5 C 0 km/h
1677 29-07-2008 01:05:36 22.1 C 10.35 g/m*3 22.1 C 0 km/h
1678 29-07-2008 01:35:36 21.6 C 10.43 g/m*3 21.6 C 0 km/h
1679 29-07-2008 02:05:36 21.1 C 11.06 g/m*3 21.1 C 0 km/h
1680 29-07-2008 02:35:36 20.9 C 10.93 g/m*3 20.9 C 0 km/h
1681 29-07-2008 03:05:36 20.4 C 10.97 g/m*3 20.4 C 0 km/h
1682 29-07-2008 03:35:36 20.1 C 11.3 g/m*3 20.1 C 0 km/h
1683 29-07-2008 04:05:36 19.8 C 11.44 g/m*3 19.8 C 0 km/h
1684 29-07-2008 04:35:36 19.4 C 11.68 g/m*3 19.4 C 0 km/h
1685 29-07-2008 05:05:36 19.2 C 11.87 g/m*3 19.2 C 0 km/h
1686 29-07-2008 05:35:37 19 C 11.57 g/m*3 19 C 0 km/h
1687 29-07-2008 06:05:37 19 C 11.73 g/m*3 19 C 0 km/h
1688 29-07-2008 06:35:37 19 C 11.9 g/m*3 19 C 0 km/h
1689 29-07-2008 07:05:37 19.2 C 12.04 g/m*3 19.2 C 0 km/h
1690 29-07-2008 07:35:37 19.1 C 12.13 g/m*3 19.1 C 0 km/h
1691 29-07-2008 08:05:37 19.4 C 12.35 g/m*3 19.4 C 0 km/h
1692 29-07-2008 08:35:37 20.2 C 12.24 g/m*3 20.2 C 0 km/h
1693 29-07-2008 09:05:37 22 C 12.23 g/m*3 22 C 0 km/h
1694 29-07-2008 09:35:37 23.5 C 11.84 g/m*3 23.5 C 0 km/h
1695 29-07-2008 10:05:37 24.6 C 11.7 g/m*3 24.6 C 0 km/h
1696 29-07-2008 10:35:37 27 C 11.58 g/m*3 27 C 0 km/h
1697 29-07-2008 11:05:37 27.8 C 12.1 g/m*3 27.8 C 0 km/h
1698 29-07-2008 11:35:37 24.8 C 11.84 g/m*3 24.8 C 0 km/h
1699 29-07-2008 12:05:37 20.4 C 13.98 g/m*3 20.4 C 0 km/h
1700 29-07-2008 12:35:37 20.3 C 14.95 g/m*3 20.3 C 0 km/h
Sensor: Nr:Datum:Temp:Abs-Feuchte:Windchill:Wind:
Aussen-T/F 1701 29-07-2008 13:05:37 21.4 C 15.37 g/m*3 21.4 C 0 km/h
1702 29-07-2008 13:35:37 24.6 C 16.21 g/m*3 24.6 C 0 km/h
1703 29-07-2008 14:05:37 26.8 C 14 g/m*3 26.8 C 0 km/h
1704 29-07-2008 14:35:37 27.7 C 13.11 g/m*3 27.7 C 0 km/h
1705 29-07-2008 15:05:38 29.8 C 12 g/m*3 29.8 C 0 km/h
1706 29-07-2008 15:35:38 30.7 C 11.02 g/m*3 30.7 C 0 km/h
1707 29-07-2008 16:05:38 31.4 C 10.46 g/m*3 31.4 C 0 km/h
1708 29-07-2008 16:35:38 32 C 10.13 g/m*3 32 C 0 km/h
1709 29-07-2008 17:05:38 32.1 C 9.5 g/m*3 32.1 C 0 km/h
1710 29-07-2008 17:35:38 31.8 C 10.02 g/m*3 31.8 C 0 km/h
1711 29-07-2008 18:05:38 31.5 C 10.19 g/m*3 31.5 C 0 km/h
1712 29-07-2008 18:35:38 31.9 C 9.07 g/m*3 31.9 C 0 km/h
1713 29-07-2008 19:05:38 31.7 C 9.3 g/m*3 31.7 C 0 km/h
1714 29-07-2008 19:35:38 30.3 C 10.79 g/m*3 30.3 C 0 km/h
1715 29-07-2008 20:05:38 31.3 C 10.73 g/m*3 31.3 C 0 km/h
1716 29-07-2008 20:35:38 30.2 C 9.81 g/m*3 30.2 C 0 km/h
1717 29-07-2008 21:05:38 26.9 C 10.49 g/m*3 26.9 C 0 km/h
1718 29-07-2008 21:35:38 25.1 C 10.65 g/m*3 25.1 C 0 km/h
1719 29-07-2008 22:05:38 24.4 C 11.57 g/m*3 24.4 C 0 km/h
1720 29-07-2008 22:35:38 23.5 C 11.42 g/m*3 23.5 C 0 km/h
1721 29-07-2008 23:05:38 23.1 C 11.78 g/m*3 23.1 C 0 km/h
1722 29-07-2008 23:35:38 22.3 C 11.65 g/m*3 22.3 C 0 km/h
1723 30-07-2008 00:05:38 21.7 C 12.21 g/m*3 21.7 C 0 km/h
1724 30-07-2008 00:35:38 21.1 C 12.53 g/m*3 21.1 C 0 km/h
1725 30-07-2008 01:05:39 20.7 C 12.78 g/m*3 20.7 C 0 km/h
Sensor: Nr:Datum:Temp:Abs-Feuchte:Windchill:Wind:
Aussen-T/F 1726 30-07-2008 01:35:39 20.6 C 12.71 g/m*3 20.6 C 0 km/h
1727 30-07-2008 02:05:39 20.3 C 12.49 g/m*3 20.3 C 0 km/h
1728 30-07-2008 02:35:39 19.9 C 12.54 g/m*3 19.9 C 0 km/h
1729 30-07-2008 03:05:39 19.5 C 12.42 g/m*3 19.5 C 0 km/h
1730 30-07-2008 03:35:39 19 C 12.55 g/m*3 19 C 0 km/h
1731 30-07-2008 04:05:39 18.9 C 12.47 g/m*3 18.9 C 0 km/h
1732 30-07-2008 04:35:39 18.7 C 12.49 g/m*3 18.7 C 0 km/h
1733 30-07-2008 05:05:39 18.3 C 12.51 g/m*3 18.3 C 0 km/h
1734 30-07-2008 05:35:39 18.1 C 12.36 g/m*3 18.1 C 0 km/h
1735 30-07-2008 06:05:39 17.9 C 12.37 g/m*3 17.9 C 0 km/h
1736 30-07-2008 06:35:39 17.8 C 12.45 g/m*3 17.8 C 0 km/h
1737 30-07-2008 07:05:39 17.8 C 12.45 g/m*3 17.8 C 0 km/h
1738 30-07-2008 07:35:39 17.8 C 12.45 g/m*3 17.8 C 0 km/h
1739 30-07-2008 08:05:39 19 C 12.71 g/m*3 19 C 0 km/h
1740 30-07-2008 08:35:39 19.9 C 12.54 g/m*3 19.9 C 0 km/h
1741 30-07-2008 09:05:39 20.7 C 12.6 g/m*3 20.7 C 0 km/h
1742 30-07-2008 09:35:39 22 C 12.81 g/m*3 22 C 0 km/h
1743 30-07-2008 10:05:39 22.7 C 12.93 g/m*3 22.7 C 0 km/h
1744 30-07-2008 10:35:40 24.8 C 12.97 g/m*3 24.8 C 0 km/h
1745 30-07-2008 11:05:40 26.1 C 12.49 g/m*3 26.1 C 0 km/h
1746 30-07-2008 11:35:40 26.8 C 12.22 g/m*3 26.8 C 0 km/h
1747 30-07-2008 12:05:40 27.5 C 12.43 g/m*3 27.5 C 0 km/h
1748 30-07-2008 12:35:40 29.3 C 11.97 g/m*3 29.3 C 0 km/h
1749 30-07-2008 13:05:40 29.6 C 11.87 g/m*3 29.6 C 0 km/h
1750 30-07-2008 13:35:40 30 C 10.92 g/m*3 30 C 0 km/h
Sensor: Nr:Datum:Temp:Abs-Feuchte:Windchill:Wind:
Aussen-T/F 1751 30-07-2008 14:05:40 29.8 C 11.4 g/m*3 29.8 C 0 km/h
1752 30-07-2008 14:35:40 31.7 C 10.3 g/m*3 31.7 C 0 km/h
1753 30-07-2008 15:05:40 32.7 C 9.11 g/m*3 32.7 C 0 km/h
1754 30-07-2008 15:35:40 32 C 9.45 g/m*3 32 C 0 km/h
1755 30-07-2008 16:05:40 31.8 C 10.02 g/m*3 31.8 C 0 km/h
1756 30-07-2008 16:35:40 33.2 C 8.63 g/m*3 33.2 C 0 km/h
1757 30-07-2008 17:05:40 33.3 C 7.96 g/m*3 33.3 C 0 km/h
1758 30-07-2008 17:35:40 33.6 C 8.08 g/m*3 33.6 C 0 km/h
1759 30-07-2008 18:05:40 34 C 7.5 g/m*3 34 C 0 km/h
1760 30-07-2008 18:35:40 24.5 C 5.82 g/m*3 24.5 C 0 km/h
1761 30-07-2008 19:05:40 21.2 C 4.82 g/m*3 21.2 C 0 km/h
1762 30-07-2008 19:35:40 22.4 C 6.16 g/m*3 22.4 C 0 km/h
1763 30-07-2008 20:05:41 24.6 C 18.01 g/m*3 24.6 C 0 km/h
1764 30-07-2008 20:35:41 23 C 15.42 g/m*3 23 C 0 km/h
1765 30-07-2008 21:05:41 22.1 C 13.66 g/m*3 22.1 C 0 km/h
1766 30-07-2008 21:35:41 20.1 C 14.78 g/m*3 20.1 C 0 km/h
1767 30-07-2008 22:05:41 20.1 C 15.12 g/m*3 20.1 C 0 km/h
1768 30-07-2008 22:35:41 20.1 C 15.12 g/m*3 20.1 C 0 km/h
1769 30-07-2008 23:05:41 20 C 14.86 g/m*3 20 C 0 km/h
1770 30-07-2008 23:35:41 19.6 C 14.69 g/m*3 19.6 C 0 km/h
1771 31-07-2008 00:05:41 19.1 C 13.93 g/m*3 19.1 C 0 km/h
1772 31-07-2008 00:35:41 18.7 C 13.77 g/m*3 18.7 C 0 km/h
1773 31-07-2008 01:05:41 18.5 C 13.61 g/m*3 18.5 C 0 km/h
1774 31-07-2008 01:35:41 18.4 C 13.53 g/m*3 18.4 C 0 km/h
1775 31-07-2008 02:05:41 18.1 C 13.44 g/m*3 18.1 C 0 km/h
Sensor: Nr:Datum:Temp:Abs-Feuchte:Windchill:Wind:
Aussen-T/F 1776 31-07-2008 02:35:41 17.9 C 13.44 g/m*3 17.9 C 0 km/h
1777 31-07-2008 03:05:41 17.6 C 13.2 g/m*3 17.6 C 0 km/h
1778 31-07-2008 03:35:41 17.4 C 13.04 g/m*3 17.4 C 0 km/h
1779 31-07-2008 04:05:41 17.1 C 12.96 g/m*3 17.1 C 0 km/h
1780 31-07-2008 04:35:41 17.2 C 13.18 g/m*3 17.2 C 0 km/h
1781 31-07-2008 05:05:41 17.2 C 13.03 g/m*3 17.2 C 0 km/h
1782 31-07-2008 05:35:42 17.4 C 13.19 g/m*3 17.4 C 0 km/h
1783 31-07-2008 06:05:42 17 C 12.73 g/m*3 17 C 0 km/h
1784 31-07-2008 06:35:42 17.5 C 13.12 g/m*3 17.5 C 0 km/h
1785 31-07-2008 07:05:42 17.2 C 12.59 g/m*3 17.2 C 0 km/h
1786 31-07-2008 07:35:42 17.1 C 12.66 g/m*3 17.1 C 0 km/h
1787 31-07-2008 08:05:42 17.9 C 13.28 g/m*3 17.9 C 0 km/h
1788 31-07-2008 08:35:42 18.5 C 13.13 g/m*3 18.5 C 0 km/h
1789 31-07-2008 09:05:42 18.9 C 12.96 g/m*3 18.9 C 0 km/h
1790 31-07-2008 09:35:42 19.7 C 13.75 g/m*3 19.7 C 0 km/h
1791 31-07-2008 10:05:42 21 C 14.29 g/m*3 21 C 0 km/h
1792 31-07-2008 10:35:42 22.9 C 15.12 g/m*3 22.9 C 0 km/h
1793 31-07-2008 11:05:42 24.8 C 13.88 g/m*3 24.8 C 0 km/h
1794 31-07-2008 11:35:42 26.6 C 13.84 g/m*3 26.6 C 0 km/h
1795 31-07-2008 12:05:42 27.8 C 13.18 g/m*3 27.8 C 0 km/h
1796 31-07-2008 12:35:42 29.5 C 12.4 g/m*3 29.5 C 0 km/h
1797 31-07-2008 13:05:42 30.7 C 11.34 g/m*3 30.7 C 0 km/h
1798 31-07-2008 13:35:42 31.6 C 9.91 g/m*3 31.6 C 0 km/h
1799 31-07-2008 14:05:42 31.4 C 9.81 g/m*3 31.4 C 0 km/h
1800 31-07-2008 14:35:42 30.8 C 10.76 g/m*3 30.8 C 0 km/h
Sensor: Nr:Datum:Temp:Abs-Feuchte:Windchill:Wind:
Aussen-T/F 1801 31-07-2008 15:05:43 31.5 C 10.19 g/m*3 31.5 C 0 km/h
1802 31-07-2008 15:35:43 31.5 C 10.52 g/m*3 31.5 C 0 km/h
1803 31-07-2008 16:05:43 33.3 C 9.04 g/m*3 33.3 C 0 km/h
1804 31-07-2008 16:35:43 33.8 C 8.54 g/m*3 33.8 C 0 km/h
1805 31-07-2008 17:05:43 33.7 C 8.49 g/m*3 33.7 C 0 km/h
1806 31-07-2008 17:35:43 33.9 C 7.84 g/m*3 33.9 C 0 km/h
1807 31-07-2008 18:05:43 34.1 C 8.3 g/m*3 34.1 C 0 km/h
1808 31-07-2008 18:35:43 33.8 C 8.91 g/m*3 33.8 C 0 km/h
1809 31-07-2008 19:05:43 33.3 C 9.04 g/m*3 33.3 C 0 km/h
1810 31-07-2008 19:35:43 32.9 C 9.56 g/m*3 32.9 C 0 km/h
1811 31-07-2008 20:05:43 32 C 10.47 g/m*3 32 C 0 km/h
1812 31-07-2008 20:35:43 29.7 C 12.23 g/m*3 29.7 C 0 km/h
1813 31-07-2008 21:05:43 27.9 C 12.17 g/m*3 27.9 C 0 km/h
1814 31-07-2008 21:35:43 26.8 C 12.22 g/m*3 26.8 C 0 km/h
1815 31-07-2008 22:05:43 26.1 C 11.75 g/m*3 26.1 C 0 km/h
1816 31-07-2008 22:35:43 25.6 C 11.67 g/m*3 25.6 C 0 km/h
1817 31-07-2008 23:05:43 25.2 C 11.87 g/m*3 25.2 C 0 km/h
1818 31-07-2008 23:35:43 24.9 C 11.9 g/m*3 24.9 C 0 km/h
1819 01-08-2008 00:05:43 24.6 C 11.93 g/m*3 24.6 C 0 km/h
1820 01-08-2008 00:35:44 24.5 C 12.53 g/m*3 24.5 C 0 km/h
1821 01-08-2008 01:05:44 24.8 C 12.29 g/m*3 24.8 C 0 km/h
1822 01-08-2008 01:35:44 24.6 C 12.38 g/m*3 24.6 C 0 km/h
1823 01-08-2008 02:05:44 24.1 C 12.69 g/m*3 24.1 C 0 km/h
1824 01-08-2008 02:35:44 23.8 C 13.34 g/m*3 23.8 C 0 km/h
1825 01-08-2008 03:05:44 23.7 C 13.48 g/m*3 23.7 C 0 km/h
Sensor: Nr:Datum:Temp:Abs-Feuchte:Windchill:Wind:
Aussen-T/F 1826 01-08-2008 03:35:44 23 C 13.57 g/m*3 23 C 0 km/h
1827 01-08-2008 04:05:44 22.8 C 13.61 g/m*3 22.8 C 0 km/h
1828 01-08-2008 04:35:44 22.6 C 13.66 g/m*3 22.6 C 0 km/h
1829 01-08-2008 05:05:44 22.5 C 13.98 g/m*3 22.5 C 0 km/h
1830 01-08-2008 05:35:44 22.1 C 14.05 g/m*3 22.1 C 0 km/h
1831 01-08-2008 06:05:44 22.2 C 13.94 g/m*3 22.2 C 0 km/h
1832 01-08-2008 06:35:44 22.4 C 13.9 g/m*3 22.4 C 0 km/h
1833 01-08-2008 07:05:44 22.7 C 13.54 g/m*3 22.7 C 0 km/h
1834 01-08-2008 07:35:44 23.4 C 13.67 g/m*3 23.4 C 0 km/h
1835 01-08-2008 08:05:44 23.4 C 13.46 g/m*3 23.4 C 0 km/h
1836 01-08-2008 08:35:44 23.7 C 13.69 g/m*3 23.7 C 0 km/h
1837 01-08-2008 09:05:44 23.8 C 12.48 g/m*3 23.8 C 0 km/h
1838 01-08-2008 09:35:44 24.5 C 12.76 g/m*3 24.5 C 0 km/h
1839 01-08-2008 10:05:45 24.9 C 12.36 g/m*3 24.9 C 0 km/h
1840 01-08-2008 10:35:45 26.3 C 11.64 g/m*3 26.3 C 0 km/h
1841 01-08-2008 11:05:45 27.3 C 11.51 g/m*3 27.3 C 0 km/h
1842 01-08-2008 11:35:45 27.7 C 10.7 g/m*3 27.7 C 0 km/h
1843 01-08-2008 12:05:45 27.7 C 9.9 g/m*3 27.7 C 0 km/h
1844 01-08-2008 12:35:45 28.2 C 8.8 g/m*3 28.2 C 0 km/h
1845 01-08-2008 13:05:45 28.2 C 8.52 g/m*3 28.2 C 0 km/h
1846 01-08-2008 13:35:45 26.5 C 9.26 g/m*3 26.5 C 0 km/h
1847 01-08-2008 14:05:45 26.3 C 9.41 g/m*3 26.3 C 0 km/h
1848 01-08-2008 14:35:45 26.1 C 9.55 g/m*3 26.1 C 0 km/h
1849 01-08-2008 15:05:45 28.2 C 8.8 g/m*3 28.2 C 0 km/h
1850 01-08-2008 15:35:45 29.5 C 8.85 g/m*3 29.5 C 0 km/h
Sensor: Nr:Datum:Temp:Abs-Feuchte:Windchill:Wind:
Aussen-T/F 1851 01-08-2008 16:05:45 28.2 C 8.8 g/m*3 28.2 C 0 km/h
1852 01-08-2008 16:35:45 29.3 C 8.47 g/m*3 29.3 C 0 km/h
1853 01-08-2008 17:05:45 28.4 C 8.34 g/m*3 28.4 C 0 km/h
1854 01-08-2008 17:35:45 26.8 C 8.14 g/m*3 26.8 C 0 km/h
1855 01-08-2008 18:05:45 26.3 C 7.92 g/m*3 26.3 C 0 km/h
1856 01-08-2008 18:35:45 26.4 C 7.97 g/m*3 26.4 C 0 km/h
1857 01-08-2008 19:05:45 26.9 C 7.68 g/m*3 26.9 C 0 km/h
1858 01-08-2008 19:35:46 27.2 C 7.03 g/m*3 27.2 C 0 km/h
1859 01-08-2008 20:05:46 25.6 C 6.43 g/m*3 25.6 C 0 km/h
1860 01-08-2008 20:35:46 24.4 C 6.45 g/m*3 24.4 C 0 km/h
1861 01-08-2008 21:05:46 23.7 C 7.06 g/m*3 23.7 C 0 km/h
1862 01-08-2008 21:35:46 23.1 C 7.44 g/m*3 23.1 C 0 km/h
1863 01-08-2008 22:05:46 22.4 C 7.55 g/m*3 22.4 C 0 km/h
1864 01-08-2008 22:35:46 22 C 7.96 g/m*3 22 C 0 km/h
1865 01-08-2008 23:05:46 21.6 C 8.16 g/m*3 21.6 C 0 km/h
1866 01-08-2008 23:35:46 20.6 C 8.59 g/m*3 20.6 C 0 km/h
1867 02-08-2008 00:05:46 19.6 C 8.61 g/m*3 19.6 C 0 km/h
1868 02-08-2008 00:35:46 19 C 8.8 g/m*3 19 C 0 km/h
1869 02-08-2008 01:05:46 18.4 C 9.12 g/m*3 18.4 C 0 km/h
1870 02-08-2008 01:35:46 18.1 C 9.27 g/m*3 18.1 C 0 km/h
1871 02-08-2008 02:05:46 17.2 C 9.52 g/m*3 17.2 C 0 km/h
1872 02-08-2008 02:35:46 16.9 C 9.78 g/m*3 16.9 C 0 km/h
1873 02-08-2008 03:05:46 16.6 C 9.75 g/m*3 16.6 C 0 km/h
1874 02-08-2008 03:35:46 16.6 C 9.75 g/m*3 16.6 C 0 km/h
1875 02-08-2008 04:05:46 16.3 C 9.85 g/m*3 16.3 C 0 km/h
Sensor: Nr:Datum:Temp:Abs-Feuchte:Windchill:Wind:
Aussen-T/F 1876 02-08-2008 04:35:46 16.6 C 9.89 g/m*3 16.6 C 0 km/h
1877 02-08-2008 05:05:47 16.1 C 9.73 g/m*3 16.1 C 0 km/h
1878 02-08-2008 05:35:47 15.7 C 9.9 g/m*3 15.7 C 0 km/h
1879 02-08-2008 06:05:47 15.5 C 10.05 g/m*3 15.5 C 0 km/h
1880 02-08-2008 06:35:47 16.1 C 10.28 g/m*3 16.1 C 0 km/h
1881 02-08-2008 07:05:47 16.6 C 10.45 g/m*3 16.6 C 0 km/h
1882 02-08-2008 07:35:47 17.2 C 10.4 g/m*3 17.2 C 0 km/h
1883 02-08-2008 08:05:47 18 C 10.29 g/m*3 18 C 0 km/h
1884 02-08-2008 08:35:47 18.5 C 10.13 g/m*3 18.5 C 0 km/h
1885 02-08-2008 09:05:47 20 C 9.85 g/m*3 20 C 0 km/h
1886 02-08-2008 09:35:47 20.4 C 10.26 g/m*3 20.4 C 0 km/h
1887 02-08-2008 10:05:47 21.2 C 10.38 g/m*3 21.2 C 0 km/h
1888 02-08-2008 10:35:47 22 C 8.93 g/m*3 22 C 0 km/h
1889 02-08-2008 11:05:47 22.9 C 8.58 g/m*3 22.9 C 0 km/h
1890 02-08-2008 11:35:47 23.6 C 8.08 g/m*3 23.6 C 0 km/h
1891 02-08-2008 12:05:47 24.4 C 7.79 g/m*3 24.4 C 0 km/h
1892 02-08-2008 12:35:47 25.6 C 7.38 g/m*3 25.6 C 0 km/h
1893 02-08-2008 13:05:47 26.9 C 6.91 g/m*3 26.9 C 0 km/h
1894 02-08-2008 13:35:47 27 C 6.95 g/m*3 27 C 0 km/h
1895 02-08-2008 14:05:47 26.9 C 6.65 g/m*3 26.9 C 0 km/h
1896 02-08-2008 14:35:48 26.5 C 7.01 g/m*3 26.5 C 0 km/h
1897 02-08-2008 15:05:48 27 C 6.95 g/m*3 27 C 0 km/h
1898 02-08-2008 15:35:48 27.3 C 6.8 g/m*3 27.3 C 0 km/h
1899 02-08-2008 16:05:48 26.9 C 6.91 g/m*3 26.9 C 0 km/h
1900 02-08-2008 16:35:48 23.3 C 9.62 g/m*3 23.3 C 0 km/h
Sensor: Nr:Datum:Temp:Abs-Feuchte:Windchill:Wind:
Aussen-T/F 1901 02-08-2008 17:05:48 24.6 C 8.55 g/m*3 24.6 C 0 km/h
1902 02-08-2008 17:35:02 24.9 C 8.24 g/m*3 24.9 C 0 km/h
1903 02-08-2008 18:05:02 24.7 C 8.15 g/m*3 24.7 C 0 km/h
1904 02-08-2008 18:35:02 24.1 C 8.53 g/m*3 24.1 C 0 km/h
1905 02-08-2008 19:05:04 24.7 C 8.83 g/m*3 24.7 C 0 km/h
1906 02-08-2008 19:35:02 24.1 C 8.1 g/m*3 24.1 C 0 km/h
1907 02-08-2008 20:05:02 23.7 C 8.34 g/m*3 23.7 C 0 km/h
1908 02-08-2008 20:35:01 22.8 C 8.94 g/m*3 22.8 C 0 km/h
1909 02-08-2008 21:05:03 22 C 8.93 g/m*3 22 C 0 km/h
1910 02-08-2008 21:35:03 21.8 C 9.4 g/m*3 21.8 C 0 km/h
1911 02-08-2008 22:05:04 21.5 C 9.62 g/m*3 21.5 C 0 km/h
1912 02-08-2008 22:35:03 21.2 C 10.01 g/m*3 21.2 C 0 km/h
1913 02-08-2008 23:05:02 20.7 C 10.26 g/m*3 20.7 C 0 km/h
1914 02-08-2008 23:35:02 20.6 C 10.74 g/m*3 20.6 C 0 km/h
1915 03-08-2008 00:05:03 20.4 C 11.14 g/m*3 20.4 C 0 km/h
1916 03-08-2008 00:35:03 19 C 12.06 g/m*3 19 C 0 km/h
1917 03-08-2008 01:05:02 19.2 C 12.2 g/m*3 19.2 C 0 km/h
1918 03-08-2008 01:35:03 19.6 C 11.99 g/m*3 19.6 C 0 km/h
1919 03-08-2008 02:05:02 18.4 C 13.05 g/m*3 18.4 C 0 km/h
1920 03-08-2008 02:35:03 18.4 C 13.68 g/m*3 18.4 C 0 km/h
1921 03-08-2008 03:06:03 18.2 C 13.68 g/m*3 18.2 C 0 km/h
1922 03-08-2008 03:36:02 18.2 C 13.68 g/m*3 18.2 C 0 km/h
1923 03-08-2008 04:06:02 17.7 C 12.98 g/m*3 17.7 C 0 km/h
1924 03-08-2008 04:36:02 17.6 C 13.05 g/m*3 17.6 C 0 km/h
1925 03-08-2008 05:06:01 17.3 C 12.96 g/m*3 17.3 C 0 km/h
Sensor: Nr:Datum:Temp:Abs-Feuchte:Windchill:Wind:
Aussen-T/F 1926 03-08-2008 05:36:01 17.5 C 13.27 g/m*3 17.5 C 0 km/h
1927 03-08-2008 06:06:03 17.5 C 13.27 g/m*3 17.5 C 0 km/h
1928 03-08-2008 06:36:03 17.5 C 13.27 g/m*3 17.5 C 0 km/h
1929 03-08-2008 07:06:02 17.7 C 12.82 g/m*3 17.7 C 0 km/h
1930 03-08-2008 07:36:02 17.8 C 11.99 g/m*3 17.8 C 0 km/h
1931 03-08-2008 08:06:02 17.9 C 10.84 g/m*3 17.9 C 0 km/h
1932 03-08-2008 08:36:02 18.3 C 10.79 g/m*3 18.3 C 0 km/h
1933 03-08-2008 09:06:02 19 C 10.1 g/m*3 19 C 0 km/h
1934 03-08-2008 09:36:02 19.5 C 10.41 g/m*3 19.5 C 0 km/h
1935 03-08-2008 10:06:02 20.1 C 9.91 g/m*3 20.1 C 0 km/h
1936 03-08-2008 10:36:02 21.1 C 9.95 g/m*3 21.1 C 0 km/h
1937 03-08-2008 11:06:01 22 C 9.7 g/m*3 22 C 0 km/h
1938 03-08-2008 11:36:01 23.6 C 9.57 g/m*3 23.6 C 0 km/h
1939 03-08-2008 12:00:01 22.6 C 9.24 g/m*3 22.6 C 0 km/h
1940 03-08-2008 12:12:02 22.6 C 9.04 g/m*3 22.6 C 0 km/h
1941 03-08-2008 12:24:01 22.5 C 8.99 g/m*3 22.5 C 0 km/h
1942 03-08-2008 12:36:02 23 C 8.84 g/m*3 23 C 0 km/h
1943 03-08-2008 12:48:02 23.1 C 9.1 g/m*3 23.1 C 0 km/h
1944 03-08-2008 13:00:02 23.4 C 9.04 g/m*3 23.4 C 0 km/h
1945 03-08-2008 13:12:01 23.3 C 9.62 g/m*3 23.3 C 0 km/h
1946 03-08-2008 13:24:02 23.2 C 9.15 g/m*3 23.2 C 0 km/h
1947 03-08-2008 13:36:02 24.6 C 9.23 g/m*3 24.6 C 0 km/h
1948 03-08-2008 13:48:02 26.7 C 8.86 g/m*3 26.7 C 0 km/h
1949 03-08-2008 14:00:02 26.5 C 9.01 g/m*3 26.5 C 0 km/h
1950 03-08-2008 14:12:02 26.7 C 8.86 g/m*3 26.7 C 0 km/h
Sensor: Nr:Datum:Temp:Abs-Feuchte:Windchill:Wind:
Aussen-T/F 1951 03-08-2008 14:24:01 26.2 C 9.11 g/m*3 26.2 C 0 km/h
1952 03-08-2008 14:36:02 27.2 C 9.11 g/m*3 27.2 C 0 km/h
1953 03-08-2008 14:48:02 27.1 C 8.8 g/m*3 27.1 C 0 km/h
1954 03-08-2008 15:00:03 27.4 C 8.95 g/m*3 27.4 C 0 km/h
1955 03-08-2008 15:12:02 27.6 C 8.78 g/m*3 27.6 C 0 km/h
1956 03-08-2008 15:24:03 26.9 C 8.7 g/m*3 26.9 C 0 km/h
1957 03-08-2008 15:36:03 27 C 9.01 g/m*3 27 C 0 km/h
1958 03-08-2008 15:48:02 27.3 C 9.16 g/m*3 27.3 C 0 km/h
1959 03-08-2008 16:00:02 27.7 C 9.36 g/m*3 27.7 C 0 km/h
1960 03-08-2008 16:12:02 27.9 C 9.2 g/m*3 27.9 C 0 km/h
1961 03-08-2008 16:24:02 28 C 8.97 g/m*3 28 C 0 km/h
1962 03-08-2008 16:36:01 27.2 C 9.11 g/m*3 27.2 C 0 km/h
1963 03-08-2008 16:48:02 27.2 C 9.11 g/m*3 27.2 C 0 km/h
1964 03-08-2008 17:00:02 28 C 8.97 g/m*3 28 C 0 km/h
1965 03-08-2008 17:12:03 28 C 8.7 g/m*3 28 C 0 km/h
1966 03-08-2008 17:48:02 28.4 C 8.62 g/m*3 28.4 C 0 km/h
1967 03-08-2008 18:00:02 28.4 C 8.9 g/m*3 28.4 C 0 km/h
1968 03-08-2008 18:12:03 28.8 C 8.81 g/m*3 28.8 C 0 km/h
1969 03-08-2008 18:24:03 27.5 C 8.73 g/m*3 27.5 C 0 km/h
1970 03-08-2008 18:36:02 27.2 C 8.85 g/m*3 27.2 C 0 km/h
1971 03-08-2008 18:48:02 27.3 C 9.16 g/m*3 27.3 C 0 km/h
1972 03-08-2008 19:00:02 27.1 C 9.06 g/m*3 27.1 C 0 km/h
1973 03-08-2008 19:12:02 27.3 C 9.16 g/m*3 27.3 C 0 km/h
1974 03-08-2008 19:24:02 26.6 C 9.31 g/m*3 26.6 C 0 km/h
1975 03-08-2008 19:36:02 26.1 C 9.3 g/m*3 26.1 C 0 km/h
Sensor: Nr:Datum:Temp:Abs-Feuchte:Windchill:Wind:
Aussen-T/F 1976 03-08-2008 19:48:02 25.8 C 9.63 g/m*3 25.8 C 0 km/h
1977 03-08-2008 20:00:03 25.7 C 9.58 g/m*3 25.7 C 0 km/h
1978 03-08-2008 20:12:02 25.3 C 9.83 g/m*3 25.3 C 0 km/h
1979 03-08-2008 20:24:02 25 C 9.67 g/m*3 25 C 0 km/h
1980 03-08-2008 20:36:02 24.8 C 10.02 g/m*3 24.8 C 0 km/h
1981 03-08-2008 20:48:02 24.7 C 10.19 g/m*3 24.7 C 0 km/h
1982 03-08-2008 21:00:02 24.5 C 10.3 g/m*3 24.5 C 0 km/h
1983 03-08-2008 21:12:02 24.3 C 10.4 g/m*3 24.3 C 0 km/h
1984 03-08-2008 21:24:02 24.1 C 10.94 g/m*3 24.1 C 0 km/h
1985 03-08-2008 21:36:03 23.6 C 11.27 g/m*3 23.6 C 0 km/h
1986 03-08-2008 21:48:02 22.6 C 12.46 g/m*3 22.6 C 0 km/h
1987 03-08-2008 22:00:02 22.7 C 12.32 g/m*3 22.7 C 0 km/h
1988 03-08-2008 22:12:03 22.9 C 12.06 g/m*3 22.9 C 0 km/h
1989 03-08-2008 22:24:02 22.7 C 11.92 g/m*3 22.7 C 0 km/h
1990 03-08-2008 22:37:04 22.6 C 11.85 g/m*3 22.6 C 0 km/h
1991 03-08-2008 22:49:04 22.5 C 11.98 g/m*3 22.5 C 0 km/h
1992 03-08-2008 23:01:05 22.2 C 11.98 g/m*3 22.2 C 0 km/h
1993 03-08-2008 23:13:05 22.1 C 11.91 g/m*3 22.1 C 0 km/h
1994 03-08-2008 23:25:05 22 C 12.23 g/m*3 22 C 0 km/h
1995 03-08-2008 23:37:05 21.8 C 12.28 g/m*3 21.8 C 0 km/h
1996 03-08-2008 23:49:05 21.9 C 12.35 g/m*3 21.9 C 0 km/h
1997 04-08-2008 00:01:05 21.8 C 12.28 g/m*3 21.8 C 0 km/h
1998 04-08-2008 00:13:05 21.8 C 12.28 g/m*3 21.8 C 0 km/h
1999 04-08-2008 00:25:05 21.6 C 12.33 g/m*3 21.6 C 0 km/h
2000 04-08-2008 00:37:05 21.3 C 12.3 g/m*3 21.3 C 0 km/h
Sensor: Nr:Datum:Temp:Abs-Feuchte:Windchill:Wind:
Aussen-T/F 2001 04-08-2008 00:49:05 21.3 C 12.3 g/m*3 21.3 C 0 km/h
2002 04-08-2008 01:01:05 21.6 C 12.14 g/m*3 21.6 C 0 km/h
2003 04-08-2008 01:13:05 21.8 C 11.9 g/m*3 21.8 C 0 km/h
2004 04-08-2008 01:25:05 22.1 C 11.91 g/m*3 22.1 C 0 km/h
2005 04-08-2008 01:37:05 22.6 C 11.85 g/m*3 22.6 C 0 km/h
2006 04-08-2008 01:49:05 22.9 C 11.65 g/m*3 22.9 C 0 km/h
2007 04-08-2008 02:01:05 23.1 C 11.37 g/m*3 23.1 C 0 km/h
2008 04-08-2008 02:13:05 23.3 C 11.29 g/m*3 23.3 C 0 km/h
2009 04-08-2008 02:25:05 23.4 C 11.14 g/m*3 23.4 C 0 km/h
2010 04-08-2008 02:37:05 23.5 C 11.21 g/m*3 23.5 C 0 km/h
2011 04-08-2008 02:49:06 23.4 C 11.14 g/m*3 23.4 C 0 km/h
2012 04-08-2008 03:01:06 23.3 C 11.29 g/m*3 23.3 C 0 km/h
2013 04-08-2008 03:13:06 23.2 C 11.23 g/m*3 23.2 C 0 km/h
2014 04-08-2008 03:25:06 23 C 11.3 g/m*3 23 C 0 km/h
2015 04-08-2008 03:37:06 22.9 C 11.44 g/m*3 22.9 C 0 km/h
2016 04-08-2008 03:49:06 21.5 C 12.63 g/m*3 21.5 C 0 km/h
2017 04-08-2008 04:01:06 19.8 C 13.84 g/m*3 19.8 C 0 km/h
2018 04-08-2008 04:13:06 19.5 C 14.1 g/m*3 19.5 C 0 km/h
2019 04-08-2008 04:25:06 19.4 C 14.18 g/m*3 19.4 C 0 km/h
2020 04-08-2008 04:37:06 19.1 C 13.93 g/m*3 19.1 C 0 km/h
2021 04-08-2008 04:49:06 19.2 C 13.36 g/m*3 19.2 C 0 km/h
2022 04-08-2008 05:01:06 18.9 C 13.28 g/m*3 18.9 C 0 km/h
2023 04-08-2008 05:13:06 18.8 C 13.53 g/m*3 18.8 C 0 km/h
2024 04-08-2008 05:25:06 18.4 C 13.21 g/m*3 18.4 C 0 km/h
2025 04-08-2008 05:37:06 17.9 C 12.83 g/m*3 17.9 C 0 km/h
Sensor: Nr:Datum:Temp:Abs-Feuchte:Windchill:Wind:
Aussen-T/F 2026 04-08-2008 05:49:06 17.7 C 12.82 g/m*3 17.7 C 0 km/h
2027 04-08-2008 06:01:06 17.6 C 12.9 g/m*3 17.6 C 0 km/h
2028 04-08-2008 06:13:06 17.5 C 12.97 g/m*3 17.5 C 0 km/h
2029 04-08-2008 06:25:06 17.2 C 12.89 g/m*3 17.2 C 0 km/h
2030 04-08-2008 06:37:06 16.9 C 12.8 g/m*3 16.9 C 0 km/h
2031 04-08-2008 06:49:06 16.8 C 12.72 g/m*3 16.8 C 0 km/h
2032 04-08-2008 07:01:07 16.6 C 12.71 g/m*3 16.6 C 0 km/h
2033 04-08-2008 07:13:07 16.3 C 12.49 g/m*3 16.3 C 0 km/h
2034 04-08-2008 07:25:07 16.4 C 12.56 g/m*3 16.4 C 0 km/h
2035 04-08-2008 07:37:07 16.5 C 12.64 g/m*3 16.5 C 0 km/h
2036 04-08-2008 07:49:07 16.5 C 12.64 g/m*3 16.5 C 0 km/h
2037 04-08-2008 08:01:07 17 C 12.73 g/m*3 17 C 0 km/h
2038 04-08-2008 08:13:07 17.2 C 12.59 g/m*3 17.2 C 0 km/h
2039 04-08-2008 08:25:07 17.4 C 12.6 g/m*3 17.4 C 0 km/h
2040 04-08-2008 08:37:07 17.9 C 12.98 g/m*3 17.9 C 0 km/h
2041 04-08-2008 08:49:07 18.1 C 12.98 g/m*3 18.1 C 0 km/h
2042 04-08-2008 09:01:07 18 C 12.75 g/m*3 18 C 0 km/h
2043 04-08-2008 09:13:07 17.9 C 12.67 g/m*3 17.9 C 0 km/h
2044 04-08-2008 09:25:04 18.1 C 12.36 g/m*3 18.1 C 0 km/h
2045 04-08-2008 09:37:04 18.6 C 12.73 g/m*3 18.6 C 0 km/h
2046 04-08-2008 09:49:02 19.1 C 12.62 g/m*3 19.1 C 0 km/h
2047 04-08-2008 10:01:02 19.1 C 11.8 g/m*3 19.1 C 0 km/h
2048 04-08-2008 10:13:02 19 C 11.41 g/m*3 19 C 0 km/h
2049 04-08-2008 10:25:01 19.4 C 11.85 g/m*3 19.4 C 0 km/h
2050 04-08-2008 10:37:02 19.9 C 11.34 g/m*3 19.9 C 0 km/h
Sensor: Nr:Datum:Temp:Abs-Feuchte:Windchill:Wind:
Aussen-T/F 2051 04-08-2008 10:49:02 20.4 C 10.08 g/m*3 20.4 C 0 km/h
2052 04-08-2008 11:01:03 20.7 C 9.9 g/m*3 20.7 C 0 km/h
2053 04-08-2008 11:13:03 20.8 C 9.42 g/m*3 20.8 C 0 km/h
2054 04-08-2008 11:25:02 21.4 C 9.19 g/m*3 21.4 C 0 km/h
2055 04-08-2008 11:37:02 21.8 C 9.4 g/m*3 21.8 C 0 km/h
2056 04-08-2008 11:49:02 22 C 8.73 g/m*3 22 C 0 km/h
2057 04-08-2008 12:01:02 22.6 C 8.84 g/m*3 22.6 C 0 km/h
2058 04-08-2008 12:13:02 22.9 C 8.38 g/m*3 22.9 C 0 km/h
2059 04-08-2008 12:25:02 23.7 C 7.91 g/m*3 23.7 C 0 km/h
2060 04-08-2008 12:37:02 23.1 C 7.65 g/m*3 23.1 C 0 km/h
2061 04-08-2008 12:49:02 23.4 C 7.57 g/m*3 23.4 C 0 km/h
2062 04-08-2008 13:01:02 24.4 C 7.12 g/m*3 24.4 C 0 km/h
2063 04-08-2008 13:13:02 24 C 6.74 g/m*3 24 C 0 km/h
2064 04-08-2008 13:25:02 24 C 6.53 g/m*3 24 C 0 km/h
2065 04-08-2008 13:37:02 24.5 C 6.94 g/m*3 24.5 C 0 km/h
2066 04-08-2008 13:49:03 24.8 C 6.37 g/m*3 24.8 C 0 km/h
2067 04-08-2008 14:01:03 25.7 C 6.46 g/m*3 25.7 C 0 km/h
2068 04-08-2008 14:13:03 25.4 C 7.06 g/m*3 25.4 C 0 km/h
2069 04-08-2008 14:25:03 24.8 C 7.97 g/m*3 24.8 C 0 km/h
2070 04-08-2008 14:37:02 24.4 C 8.23 g/m*3 24.4 C 0 km/h
2071 04-08-2008 14:49:02 25.3 C 7.26 g/m*3 25.3 C 0 km/h
2072 04-08-2008 15:01:01 25.2 C 6.52 g/m*3 25.2 C 0 km/h
2073 04-08-2008 15:13:01 24.7 C 6.34 g/m*3 24.7 C 0 km/h
2074 04-08-2008 15:25:02 25.1 C 6.48 g/m*3 25.1 C 0 km/h
2075 04-08-2008 15:37:01 25.9 C 6.29 g/m*3 25.9 C 0 km/h
Sensor: Nr:Datum:Temp:Abs-Feuchte:Windchill:Wind:
Aussen-T/F 2076 04-08-2008 15:49:02 27.1 C 5.69 g/m*3 27.1 C 0 km/h
2077 04-08-2008 16:01:02 26.2 C 5.66 g/m*3 26.2 C 0 km/h
2078 04-08-2008 16:13:02 26.9 C 5.63 g/m*3 26.9 C 0 km/h
2079 04-08-2008 16:25:02 26.8 C 5.6 g/m*3 26.8 C 0 km/h
2080 04-08-2008 16:37:02 25.8 C 5.3 g/m*3 25.8 C 0 km/h
2081 04-08-2008 16:49:03 26.3 C 6.19 g/m*3 26.3 C 0 km/h
2082 04-08-2008 17:01:02 27.2 C 5.99 g/m*3 27.2 C 0 km/h
2083 04-08-2008 17:13:02 26.3 C 6.19 g/m*3 26.3 C 0 km/h
2084 04-08-2008 17:25:03 26.7 C 5.57 g/m*3 26.7 C 0 km/h
2085 04-08-2008 17:37:02 26.2 C 5.42 g/m*3 26.2 C 0 km/h
2086 04-08-2008 17:49:02 26.3 C 5.2 g/m*3 26.3 C 0 km/h
2087 04-08-2008 18:01:02 26.5 C 5.51 g/m*3 26.5 C 0 km/h
2088 04-08-2008 18:13:02 26.6 C 5.54 g/m*3 26.6 C 0 km/h
2089 04-08-2008 18:25:02 25.9 C 5.57 g/m*3 25.9 C 0 km/h
2090 04-08-2008 18:37:02 26.1 C 5.63 g/m*3 26.1 C 0 km/h
2091 04-08-2008 18:49:01 25.7 C 5.99 g/m*3 25.7 C 0 km/h
2092 04-08-2008 19:01:02 26 C 5.6 g/m*3 26 C 0 km/h
2093 04-08-2008 19:13:02 25.9 C 6.29 g/m*3 25.9 C 0 km/h
2094 04-08-2008 19:25:01 26.1 C 6.12 g/m*3 26.1 C 0 km/h
2095 04-08-2008 19:37:02 26.1 C 5.88 g/m*3 26.1 C 0 km/h
2096 04-08-2008 19:49:02 25.4 C 5.89 g/m*3 25.4 C 0 km/h
2097 04-08-2008 20:01:02 24.5 C 5.82 g/m*3 24.5 C 0 km/h
2098 04-08-2008 20:13:02 23.9 C 6.06 g/m*3 23.9 C 0 km/h
2099 04-08-2008 20:25:02 23.4 C 6.1 g/m*3 23.4 C 0 km/h
2100 04-08-2008 20:37:02 23.1 C 6.41 g/m*3 23.1 C 0 km/h
Sensor: Nr:Datum:Temp:Abs-Feuchte:Windchill:Wind:
Aussen-T/F 2101 04-08-2008 20:49:02 22.5 C 6.99 g/m*3 22.5 C 0 km/h
2102 04-08-2008 21:01:01 21.8 C 6.91 g/m*3 21.8 C 0 km/h
2103 04-08-2008 21:13:01 21.5 C 7.17 g/m*3 21.5 C 0 km/h
2104 04-08-2008 21:25:02 21 C 7.14 g/m*3 21 C 0 km/h
2105 04-08-2008 21:37:01 20.6 C 7.16 g/m*3 20.6 C 0 km/h
2106 04-08-2008 21:49:03 20.4 C 7.25 g/m*3 20.4 C 0 km/h
2107 04-08-2008 22:01:02 20.3 C 7.39 g/m*3 20.3 C 0 km/h
2108 04-08-2008 22:13:02 19.9 C 7.56 g/m*3 19.9 C 0 km/h
2109 04-08-2008 22:25:03 19.5 C 7.55 g/m*3 19.5 C 0 km/h
2110 04-08-2008 22:38:13 19.3 C 7.8 g/m*3 19.3 C 0 km/h
2111 04-08-2008 22:50:13 19.2 C 7.75 g/m*3 19.2 C 0 km/h
2112 04-08-2008 23:02:13 19.2 C 7.91 g/m*3 19.2 C 0 km/h
2113 04-08-2008 23:14:13 19.3 C 7.8 g/m*3 19.3 C 0 km/h
2114 04-08-2008 23:26:13 19.1 C 8.03 g/m*3 19.1 C 0 km/h
2115 04-08-2008 23:38:13 18.9 C 8.1 g/m*3 18.9 C 0 km/h
2116 04-08-2008 23:50:13 18.5 C 8.23 g/m*3 18.5 C 0 km/h
2117 05-08-2008 00:02:13 18.4 C 8.18 g/m*3 18.4 C 0 km/h
2118 05-08-2008 00:14:14 18.2 C 8.24 g/m*3 18.2 C 0 km/h
2119 05-08-2008 00:26:14 18.1 C 8.34 g/m*3 18.1 C 0 km/h
2120 05-08-2008 00:38:14 17.7 C 8.75 g/m*3 17.7 C 0 km/h
2121 05-08-2008 00:50:14 17.4 C 8.6 g/m*3 17.4 C 0 km/h
2122 05-08-2008 01:02:14 17.2 C 8.64 g/m*3 17.2 C 0 km/h
2123 05-08-2008 01:14:14 16.8 C 8.86 g/m*3 16.8 C 0 km/h
2124 05-08-2008 01:26:14 16.6 C 8.76 g/m*3 16.6 C 0 km/h
2125 05-08-2008 01:38:14 16.4 C 8.93 g/m*3 16.4 C 0 km/h
Sensor: Nr:Datum:Temp:Abs-Feuchte:Windchill:Wind:
Aussen-T/F 2126 05-08-2008 01:50:14 16.2 C 8.96 g/m*3 16.2 C 0 km/h
2127 05-08-2008 02:02:14 16 C 8.99 g/m*3 16 C 0 km/h
2128 05-08-2008 02:14:14 15.8 C 9.02 g/m*3 15.8 C 0 km/h
2129 05-08-2008 02:26:14 15.6 C 8.91 g/m*3 15.6 C 0 km/h
2130 05-08-2008 02:38:14 15.5 C 9.12 g/m*3 15.5 C 0 km/h
2131 05-08-2008 02:50:14 15.4 C 8.8 g/m*3 15.4 C 0 km/h
2132 05-08-2008 03:02:14 15.2 C 8.44 g/m*3 15.2 C 0 km/h
2133 05-08-2008 03:14:14 15.3 C 8.62 g/m*3 15.3 C 0 km/h
2134 05-08-2008 03:26:14 15.1 C 8.39 g/m*3 15.1 C 0 km/h
2135 05-08-2008 03:38:14 15 C 8.59 g/m*3 15 C 0 km/h
2136 05-08-2008 03:50:14 14.8 C 8.74 g/m*3 14.8 C 0 km/h
2137 05-08-2008 04:02:14 14.7 C 8.56 g/m*3 14.7 C 0 km/h
2138 05-08-2008 04:14:14 14.7 C 8.18 g/m*3 14.7 C 0 km/h
2139 05-08-2008 04:26:15 14.5 C 8.58 g/m*3 14.5 C 0 km/h
2140 05-08-2008 04:38:15 14.2 C 8.55 g/m*3 14.2 C 0 km/h
2141 05-08-2008 04:50:15 14.2 C 8.43 g/m*3 14.2 C 0 km/h
2142 05-08-2008 05:02:15 14.1 C 8.25 g/m*3 14.1 C 0 km/h
2143 05-08-2008 05:14:15 14 C 8.32 g/m*3 14 C 0 km/h
2144 05-08-2008 05:26:15 13.9 C 8.63 g/m*3 13.9 C 0 km/h
2145 05-08-2008 05:38:15 13.7 C 8.64 g/m*3 13.7 C 0 km/h
2146 05-08-2008 05:50:15 13.5 C 8.54 g/m*3 13.5 C 0 km/h
2147 05-08-2008 06:02:15 13.5 C 8.54 g/m*3 13.5 C 0 km/h
2148 05-08-2008 06:14:15 13.4 C 8.6 g/m*3 13.4 C 0 km/h
2149 05-08-2008 06:26:15 13.4 C 8.6 g/m*3 13.4 C 0 km/h
2150 05-08-2008 06:38:15 13.4 C 8.6 g/m*3 13.4 C 0 km/h
Sensor: Nr:Datum:Temp:Abs-Feuchte:Windchill:Wind:
Aussen-T/F 2151 05-08-2008 06:50:15 13.5 C 8.66 g/m*3 13.5 C 0 km/h
2152 05-08-2008 07:02:15 13.6 C 8.71 g/m*3 13.6 C 0 km/h
2153 05-08-2008 07:14:15 13.7 C 8.76 g/m*3 13.7 C 0 km/h
2154 05-08-2008 07:26:15 13.9 C 8.75 g/m*3 13.9 C 0 km/h
2155 05-08-2008 07:38:15 14.2 C 8.67 g/m*3 14.2 C 0 km/h
2156 05-08-2008 07:50:15 14.4 C 8.53 g/m*3 14.4 C 0 km/h
2157 05-08-2008 08:02:15 14.6 C 8.63 g/m*3 14.6 C 0 km/h
2158 05-08-2008 08:14:15 14.8 C 8.61 g/m*3 14.8 C 0 km/h
2159 05-08-2008 08:26:15 15 C 8.46 g/m*3 15 C 0 km/h
2160 05-08-2008 08:38:03 15.4 C 8.54 g/m*3 15.4 C 0 km/h
2161 05-08-2008 08:50:03 15.6 C 8.38 g/m*3 15.6 C 0 km/h
2162 05-08-2008 09:02:03 15.7 C 8.56 g/m*3 15.7 C 0 km/h
2163 05-08-2008 09:14:03 16.1 C 8.5 g/m*3 16.1 C 0 km/h
2164 05-08-2008 09:26:02 16.4 C 8.51 g/m*3 16.4 C 0 km/h
2165 05-08-2008 09:38:02 16.8 C 8.58 g/m*3 16.8 C 0 km/h
2166 05-08-2008 09:50:02 17.2 C 8.49 g/m*3 17.2 C 0 km/h
2167 05-08-2008 10:02:03 17.9 C 8.7 g/m*3 17.9 C 0 km/h
2168 05-08-2008 10:14:03 18 C 8.45 g/m*3 18 C 0 km/h
2169 05-08-2008 10:26:02 18.4 C 8.49 g/m*3 18.4 C 0 km/h
2170 05-08-2008 10:38:03 19.1 C 8.52 g/m*3 19.1 C 0 km/h
2171 05-08-2008 10:50:03 19.8 C 8.37 g/m*3 19.8 C 0 km/h
2172 05-08-2008 11:02:02 20.1 C 8.17 g/m*3 20.1 C 0 km/h
2173 05-08-2008 11:14:03 20.5 C 8.19 g/m*3 20.5 C 0 km/h
2174 05-08-2008 11:26:02 21.1 C 8.29 g/m*3 21.1 C 0 km/h
2175 05-08-2008 11:38:03 22.7 C 7.88 g/m*3 22.7 C 0 km/h
Sensor: Nr:Datum:Temp:Abs-Feuchte:Windchill:Wind:
Aussen-T/F 2176 05-08-2008 11:50:02 22.2 C 8.05 g/m*3 22.2 C 0 km/h
2177 05-08-2008 12:02:02 22.7 C 8.28 g/m*3 22.7 C 0 km/h
2178 05-08-2008 12:14:02 23.8 C 7.96 g/m*3 23.8 C 0 km/h
2179 05-08-2008 12:26:02 24 C 7.83 g/m*3 24 C 0 km/h
2180 05-08-2008 12:38:02 24.5 C 7.83 g/m*3 24.5 C 0 km/h
2181 05-08-2008 12:50:01 24.3 C 7.52 g/m*3 24.3 C 0 km/h
2182 05-08-2008 13:02:03 24.8 C 7.28 g/m*3 24.8 C 0 km/h
2183 05-08-2008 13:14:03 24.6 C 7.2 g/m*3 24.6 C 0 km/h
2184 05-08-2008 13:26:02 24.4 C 7.34 g/m*3 24.4 C 0 km/h
2185 05-08-2008 13:38:02 25 C 7.37 g/m*3 25 C 0 km/h
2186 05-08-2008 13:50:01 25.2 C 7.45 g/m*3 25.2 C 0 km/h
2187 05-08-2008 14:02:02 25.9 C 7.51 g/m*3 25.9 C 0 km/h
2188 05-08-2008 14:14:02 26.5 C 7.01 g/m*3 26.5 C 0 km/h
2189 05-08-2008 14:26:02 26.9 C 6.65 g/m*3 26.9 C 0 km/h
2190 05-08-2008 14:38:02 26.8 C 6.87 g/m*3 26.8 C 0 km/h
2191 05-08-2008 14:50:01 27.5 C 6.61 g/m*3 27.5 C 0 km/h
2192 05-08-2008 15:02:02 26.9 C 6.65 g/m*3 26.9 C 0 km/h
2193 05-08-2008 15:14:02 26.7 C 6.58 g/m*3 26.7 C 0 km/h
2194 05-08-2008 15:26:02 26.2 C 7.14 g/m*3 26.2 C 0 km/h
2195 05-08-2008 15:38:01 25.8 C 7.22 g/m*3 25.8 C 0 km/h
2196 05-08-2008 15:50:01 26.3 C 7.18 g/m*3 26.3 C 0 km/h
2197 05-08-2008 16:02:02 26.6 C 7.05 g/m*3 26.6 C 0 km/h
2198 05-08-2008 16:14:02 26.6 C 7.3 g/m*3 26.6 C 0 km/h
2199 05-08-2008 16:26:01 27.6 C 7.18 g/m*3 27.6 C 0 km/h
2200 05-08-2008 16:38:02 28.5 C 6.99 g/m*3 28.5 C 0 km/h
Sensor: Nr:Datum:Temp:Abs-Feuchte:Windchill:Wind:
Aussen-T/F 2201 05-08-2008 16:50:02 28.6 C 7.03 g/m*3 28.6 C 0 km/h
2202 05-08-2008 17:02:02 29.1 C 6.35 g/m*3 29.1 C 0 km/h
2203 05-08-2008 17:14:02 29.6 C 6.53 g/m*3 29.6 C 0 km/h
2204 05-08-2008 17:26:02 27.9 C 6.76 g/m*3 27.9 C 0 km/h
2205 05-08-2008 17:38:02 27.2 C 6.77 g/m*3 27.2 C 0 km/h
2206 05-08-2008 17:50:02 28.3 C 6.91 g/m*3 28.3 C 0 km/h
2207 05-08-2008 18:02:02 28.8 C 6.53 g/m*3 28.8 C 0 km/h
2208 05-08-2008 18:14:02 27.1 C 6.47 g/m*3 27.1 C 0 km/h
2209 05-08-2008 18:26:02 26.7 C 7.59 g/m*3 26.7 C 0 km/h
2210 05-08-2008 18:38:02 26.6 C 8.05 g/m*3 26.6 C 0 km/h
2211 05-08-2008 18:50:02 26.2 C 7.88 g/m*3 26.2 C 0 km/h
2212 05-08-2008 19:02:01 25.8 C 7.7 g/m*3 25.8 C 0 km/h
2213 05-08-2008 19:14:01 25.9 C 7.99 g/m*3 25.9 C 0 km/h
2214 05-08-2008 19:26:02 25.6 C 8.09 g/m*3 25.6 C 0 km/h
2215 05-08-2008 19:38:01 25.1 C 8.33 g/m*3 25.1 C 0 km/h
2216 05-08-2008 19:50:01 24.7 C 8.37 g/m*3 24.7 C 0 km/h
2217 05-08-2008 20:02:02 24.7 C 8.37 g/m*3 24.7 C 0 km/h
2218 05-08-2008 20:14:02 24.1 C 8.1 g/m*3 24.1 C 0 km/h
2219 05-08-2008 20:26:02 23.5 C 8.25 g/m*3 23.5 C 0 km/h
2220 05-08-2008 20:38:01 22.9 C 8.58 g/m*3 22.9 C 0 km/h
2221 05-08-2008 20:50:02 22.4 C 8.34 g/m*3 22.4 C 0 km/h
2222 05-08-2008 21:02:03 21.9 C 8.68 g/m*3 21.9 C 0 km/h
2223 05-08-2008 21:14:03 21.5 C 8.67 g/m*3 21.5 C 0 km/h
2224 05-08-2008 21:26:03 21.2 C 8.52 g/m*3 21.2 C 0 km/h
2225 05-08-2008 21:38:02 21 C 8.43 g/m*3 21 C 0 km/h
Sensor: Nr:Datum:Temp:Abs-Feuchte:Windchill:Wind:
Aussen-T/F 2226 05-08-2008 21:50:03 20.9 C 9.11 g/m*3 20.9 C 0 km/h
2227 05-08-2008 22:02:02 21 C 8.98 g/m*3 21 C 0 km/h
2228 05-08-2008 22:14:02 20.8 C 9.05 g/m*3 20.8 C 0 km/h
2229 05-08-2008 22:26:03 20.6 C 9.13 g/m*3 20.6 C 0 km/h
2230 05-08-2008 22:39:03 20.3 C 9.15 g/m*3 20.3 C 0 km/h
2231 05-08-2008 22:51:03 20 C 8.81 g/m*3 20 C 0 km/h
2232 05-08-2008 23:03:03 19.9 C 8.93 g/m*3 19.9 C 0 km/h
2233 05-08-2008 23:15:03 19.5 C 8.89 g/m*3 19.5 C 0 km/h
2234 05-08-2008 23:27:03 19.3 C 8.79 g/m*3 19.3 C 0 km/h
2235 05-08-2008 23:39:03 19.2 C 9.07 g/m*3 19.2 C 0 km/h
2236 05-08-2008 23:51:03 18.9 C 9.23 g/m*3 18.9 C 0 km/h
2237 06-08-2008 00:03:04 18.9 C 9.23 g/m*3 18.9 C 0 km/h
2238 06-08-2008 00:15:04 18.7 C 9.13 g/m*3 18.7 C 0 km/h
2239 06-08-2008 00:27:04 18.7 C 9.29 g/m*3 18.7 C 0 km/h
2240 06-08-2008 00:39:04 18.6 C 9.39 g/m*3 18.6 C 0 km/h
2241 06-08-2008 00:51:04 18.4 C 9.28 g/m*3 18.4 C 0 km/h
2242 06-08-2008 01:03:04 18.3 C 9.22 g/m*3 18.3 C 0 km/h
2243 06-08-2008 01:15:04 18.1 C 9.43 g/m*3 18.1 C 0 km/h
2244 06-08-2008 01:27:04 17.9 C 9.47 g/m*3 17.9 C 0 km/h
2245 06-08-2008 01:39:04 17.9 C 9.62 g/m*3 17.9 C 0 km/h
2246 06-08-2008 01:51:04 17.7 C 9.66 g/m*3 17.7 C 0 km/h
2247 06-08-2008 02:03:04 17.6 C 9.6 g/m*3 17.6 C 0 km/h
2248 06-08-2008 02:15:04 17.5 C 9.54 g/m*3 17.5 C 0 km/h
2249 06-08-2008 02:27:04 17.4 C 9.48 g/m*3 17.4 C 0 km/h
2250 06-08-2008 02:39:04 17.5 C 9.69 g/m*3 17.5 C 0 km/h
Sensor: Nr:Datum:Temp:Abs-Feuchte:Windchill:Wind:
Aussen-T/F 2251 06-08-2008 02:51:04 17.6 C 9.6 g/m*3 17.6 C 0 km/h
2252 06-08-2008 03:03:04 17.4 C 9.63 g/m*3 17.4 C 0 km/h
2253 06-08-2008 03:15:04 17 C 9.41 g/m*3 17 C 0 km/h
2254 06-08-2008 03:27:04 16.8 C 9.72 g/m*3 16.8 C 0 km/h
2255 06-08-2008 03:39:04 16.7 C 9.81 g/m*3 16.7 C 0 km/h
2256 06-08-2008 03:51:05 16.6 C 9.75 g/m*3 16.6 C 0 km/h
2257 06-08-2008 04:03:05 16.6 C 9.75 g/m*3 16.6 C 0 km/h
2258 06-08-2008 04:15:05 16.6 C 9.75 g/m*3 16.6 C 0 km/h
2259 06-08-2008 04:27:05 16.4 C 9.77 g/m*3 16.4 C 0 km/h
2260 06-08-2008 04:39:05 16.2 C 9.79 g/m*3 16.2 C 0 km/h
2261 06-08-2008 04:51:05 16 C 9.81 g/m*3 16 C 0 km/h
2262 06-08-2008 05:03:05 15.9 C 9.89 g/m*3 15.9 C 0 km/h
2263 06-08-2008 05:15:05 15.7 C 9.77 g/m*3 15.7 C 0 km/h
2264 06-08-2008 05:27:05 15.6 C 9.84 g/m*3 15.6 C 0 km/h
2265 06-08-2008 05:39:05 15.4 C 9.72 g/m*3 15.4 C 0 km/h
2266 06-08-2008 05:51:05 15.3 C 9.79 g/m*3 15.3 C 0 km/h
2267 06-08-2008 06:03:05 15.2 C 9.73 g/m*3 15.2 C 0 km/h
2268 06-08-2008 06:15:05 15.2 C 9.99 g/m*3 15.2 C 0 km/h
2269 06-08-2008 06:27:05 15.1 C 9.93 g/m*3 15.1 C 0 km/h
2270 06-08-2008 06:39:05 14.9 C 9.94 g/m*3 14.9 C 0 km/h
2271 06-08-2008 06:51:02 14.9 C 9.94 g/m*3 14.9 C 0 km/h
2272 06-08-2008 07:03:01 15.2 C 10.12 g/m*3 15.2 C 0 km/h
2273 06-08-2008 07:15:02 15.3 C 10.19 g/m*3 15.3 C 0 km/h
2274 06-08-2008 07:27:02 15.5 C 10.31 g/m*3 15.5 C 0 km/h
2275 06-08-2008 07:39:01 15.6 C 10.24 g/m*3 15.6 C 0 km/h
Sensor: Nr:Datum:Temp:Abs-Feuchte:Windchill:Wind:
Aussen-T/F 2276 06-08-2008 07:51:02 15.8 C 10.36 g/m*3 15.8 C 0 km/h
2277 06-08-2008 08:03:01 15.9 C 10.29 g/m*3 15.9 C 0 km/h
2278 06-08-2008 08:15:02 16.2 C 10.34 g/m*3 16.2 C 0 km/h
2279 06-08-2008 08:27:02 16.4 C 10.33 g/m*3 16.4 C 0 km/h
2280 06-08-2008 08:39:01 16.6 C 10.45 g/m*3 16.6 C 0 km/h
2281 06-08-2008 08:51:01 16.9 C 10.36 g/m*3 16.9 C 0 km/h
2282 06-08-2008 09:03:01 17.3 C 10.16 g/m*3 17.3 C 0 km/h
2283 06-08-2008 09:15:02 17.8 C 10.47 g/m*3 17.8 C 0 km/h
2284 06-08-2008 09:27:02 18.3 C 10.32 g/m*3 18.3 C 0 km/h
2285 06-08-2008 09:39:01 18.9 C 10.69 g/m*3 18.9 C 0 km/h
2286 06-08-2008 09:51:01 19.3 C 10.62 g/m*3 19.3 C 0 km/h
2287 06-08-2008 10:03:01 20 C 10.54 g/m*3 20 C 0 km/h
2288 06-08-2008 10:15:01 20.9 C 10.56 g/m*3 20.9 C 0 km/h
2289 06-08-2008 10:27:01 21.7 C 10.11 g/m*3 21.7 C 0 km/h
2290 06-08-2008 10:39:01 22.2 C 10.01 g/m*3 22.2 C 0 km/h
2291 06-08-2008 10:51:01 23.2 C 9.98 g/m*3 23.2 C 0 km/h
2292 06-08-2008 11:03:02 23.7 C 10.27 g/m*3 23.7 C 0 km/h
2293 06-08-2008 11:15:01 24.3 C 9.52 g/m*3 24.3 C 0 km/h
2294 06-08-2008 11:27:01 25.1 C 9.26 g/m*3 25.1 C 0 km/h
2295 06-08-2008 11:39:02 25.8 C 9.39 g/m*3 25.8 C 0 km/h
2296 06-08-2008 11:51:02 26.1 C 9.06 g/m*3 26.1 C 0 km/h
2297 06-08-2008 12:03:02 26.9 C 9.47 g/m*3 26.9 C 0 km/h
2298 06-08-2008 12:15:01 27.1 C 8.8 g/m*3 27.1 C 0 km/h
2299 06-08-2008 12:27:01 27.6 C 9.04 g/m*3 27.6 C 0 km/h
2300 06-08-2008 12:39:02 28.1 C 8.75 g/m*3 28.1 C 0 km/h
Sensor: Nr:Datum:Temp:Abs-Feuchte:Windchill:Wind:
Aussen-T/F 2301 06-08-2008 12:51:02 27.8 C 8.61 g/m*3 27.8 C 0 km/h
2302 06-08-2008 13:03:02 28.9 C 8.86 g/m*3 28.9 C 0 km/h
2303 06-08-2008 13:15:02 30 C 8.19 g/m*3 30 C 0 km/h
2304 06-08-2008 13:27:02 30.6 C 8.14 g/m*3 30.6 C 0 km/h
2305 06-08-2008 13:39:02 30.6 C 7.83 g/m*3 30.6 C 0 km/h
2306 06-08-2008 13:51:02 30.9 C 7.96 g/m*3 30.9 C 0 km/h
2307 06-08-2008 14:03:01 31 C 8 g/m*3 31 C 0 km/h
2308 06-08-2008 14:15:02 31.1 C 8.04 g/m*3 31.1 C 0 km/h
2309 06-08-2008 14:27:02 30.7 C 8.5 g/m*3 30.7 C 0 km/h
2310 06-08-2008 14:39:02 31.3 C 7.81 g/m*3 31.3 C 0 km/h
2311 06-08-2008 14:51:02 31.5 C 7.56 g/m*3 31.5 C 0 km/h
2312 06-08-2008 15:03:02 32.1 C 7.47 g/m*3 32.1 C 0 km/h
2313 06-08-2008 15:15:02 32.3 C 6.86 g/m*3 32.3 C 0 km/h
2314 06-08-2008 15:27:03 32 C 7.09 g/m*3 32 C 0 km/h
2315 06-08-2008 15:39:02 32.5 C 6.93 g/m*3 32.5 C 0 km/h
2316 06-08-2008 15:51:02 32.7 C 7.01 g/m*3 32.7 C 0 km/h
2317 06-08-2008 16:03:02 33 C 7.12 g/m*3 33 C 0 km/h
2318 06-08-2008 16:15:02 33.2 C 7.2 g/m*3 33.2 C 0 km/h
2319 06-08-2008 16:27:02 33.5 C 7.31 g/m*3 33.5 C 0 km/h
2320 06-08-2008 16:39:02 33.6 C 7.35 g/m*3 33.6 C 0 km/h
2321 06-08-2008 16:51:02 33.7 C 7.39 g/m*3 33.7 C 0 km/h
2322 06-08-2008 17:03:02 33.9 C 7.46 g/m*3 33.9 C 0 km/h
2323 06-08-2008 17:15:02 33.9 C 7.46 g/m*3 33.9 C 0 km/h
2324 06-08-2008 17:27:02 33.6 C 7.35 g/m*3 33.6 C 0 km/h
2325 06-08-2008 17:39:02 33.7 C 7.39 g/m*3 33.7 C 0 km/h
Sensor: Nr:Datum:Temp:Abs-Feuchte:Windchill:Wind:
Aussen-T/F 2326 06-08-2008 17:51:02 33.8 C 7.43 g/m*3 33.8 C 0 km/h
2327 06-08-2008 18:03:02 34 C 7.5 g/m*3 34 C 0 km/h
2328 06-08-2008 18:15:02 34.2 C 7.58 g/m*3 34.2 C 0 km/h
2329 06-08-2008 18:27:02 33.9 C 7.46 g/m*3 33.9 C 0 km/h
2330 06-08-2008 18:39:02 34 C 7.5 g/m*3 34 C 0 km/h
2331 06-08-2008 18:51:02 33.9 C 7.46 g/m*3 33.9 C 0 km/h
2332 06-08-2008 19:03:01 33.9 C 7.46 g/m*3 33.9 C 0 km/h
2333 06-08-2008 19:15:02 33.3 C 7.23 g/m*3 33.3 C 0 km/h
2334 06-08-2008 19:27:02 33.3 C 7.59 g/m*3 33.3 C 0 km/h
2335 06-08-2008 19:39:02 32.7 C 7.36 g/m*3 32.7 C 0 km/h
2336 06-08-2008 19:51:02 31.6 C 8.59 g/m*3 31.6 C 0 km/h
2337 06-08-2008 20:03:02 30.6 C 9.4 g/m*3 30.6 C 0 km/h
2338 06-08-2008 20:15:02 30.1 C 9.45 g/m*3 30.1 C 0 km/h
2339 06-08-2008 20:27:03 29.5 C 9.44 g/m*3 29.5 C 0 km/h
2340 06-08-2008 20:39:02 28.9 C 9.43 g/m*3 28.9 C 0 km/h
2341 06-08-2008 20:51:02 28.4 C 9.45 g/m*3 28.4 C 0 km/h
2342 06-08-2008 21:03:02 27.8 C 9.15 g/m*3 27.8 C 0 km/h
2343 06-08-2008 21:15:03 27.3 C 9.16 g/m*3 27.3 C 0 km/h
2344 06-08-2008 21:27:03 27 C 9.01 g/m*3 27 C 0 km/h
2345 06-08-2008 21:39:02 26.7 C 9.11 g/m*3 26.7 C 0 km/h
2346 06-08-2008 21:51:01 26.6 C 9.31 g/m*3 26.6 C 0 km/h
2347 06-08-2008 22:03:01 26.6 C 9.06 g/m*3 26.6 C 0 km/h
2348 06-08-2008 22:15:01 26.4 C 9.21 g/m*3 26.4 C 0 km/h
2349 06-08-2008 22:27:01 26 C 9.49 g/m*3 26 C 0 km/h
2350 06-08-2008 22:40:02 25.8 C 9.39 g/m*3 25.8 C 0 km/h
Sensor: Nr:Datum:Temp:Abs-Feuchte:Windchill:Wind:
Aussen-T/F 2351 06-08-2008 22:52:02 25.6 C 9.28 g/m*3 25.6 C 0 km/h
2352 06-08-2008 23:04:02 25.1 C 9.26 g/m*3 25.1 C 0 km/h
2353 06-08-2008 23:16:02 24.8 C 9.79 g/m*3 24.8 C 0 km/h
2354 06-08-2008 23:28:02 24.5 C 10.07 g/m*3 24.5 C 0 km/h
2355 06-08-2008 23:40:02 24.1 C 9.85 g/m*3 24.1 C 0 km/h
2356 06-08-2008 23:52:02 24 C 10.01 g/m*3 24 C 0 km/h
2357 07-08-2008 00:04:02 23.7 C 9.84 g/m*3 23.7 C 0 km/h
2358 07-08-2008 00:16:02 23.6 C 10.21 g/m*3 23.6 C 0 km/h
2359 07-08-2008 00:28:02 23.3 C 10.25 g/m*3 23.3 C 0 km/h
2360 07-08-2008 00:40:02 23 C 10.28 g/m*3 23 C 0 km/h
2361 07-08-2008 00:52:02 22.7 C 10.51 g/m*3 22.7 C 0 km/h
2362 07-08-2008 01:04:02 22.5 C 10.59 g/m*3 22.5 C 0 km/h
2363 07-08-2008 01:16:02 22.3 C 10.66 g/m*3 22.3 C 0 km/h
2364 07-08-2008 01:28:02 22.1 C 10.74 g/m*3 22.1 C 0 km/h
2365 07-08-2008 01:40:02 21.9 C 11 g/m*3 21.9 C 0 km/h
2366 07-08-2008 01:52:03 21.7 C 11.06 g/m*3 21.7 C 0 km/h
2367 07-08-2008 02:04:03 21.4 C 11.06 g/m*3 21.4 C 0 km/h
2368 07-08-2008 02:16:03 21.3 C 11 g/m*3 21.3 C 0 km/h
2369 07-08-2008 02:28:03 21.1 C 11.06 g/m*3 21.1 C 0 km/h
2370 07-08-2008 02:40:03 20.9 C 11.29 g/m*3 20.9 C 0 km/h
2371 07-08-2008 02:52:03 20.7 C 11.34 g/m*3 20.7 C 0 km/h
2372 07-08-2008 03:04:03 20.6 C 11.28 g/m*3 20.6 C 0 km/h
2373 07-08-2008 03:16:03 20.4 C 11.14 g/m*3 20.4 C 0 km/h
2374 07-08-2008 03:28:03 20.3 C 11.26 g/m*3 20.3 C 0 km/h
2375 07-08-2008 03:40:03 20.3 C 11.26 g/m*3 20.3 C 0 km/h
Sensor: Nr:Datum:Temp:Abs-Feuchte:Windchill:Wind:
Aussen-T/F 2376 07-08-2008 03:52:03 20.2 C 11.19 g/m*3 20.2 C 0 km/h
2377 07-08-2008 04:04:03 19.9 C 11.34 g/m*3 19.9 C 0 km/h
2378 07-08-2008 04:16:03 19.7 C 11.38 g/m*3 19.7 C 0 km/h
2379 07-08-2008 04:28:03 19.6 C 11.31 g/m*3 19.6 C 0 km/h
2380 07-08-2008 04:40:03 19.4 C 11.35 g/m*3 19.4 C 0 km/h
2381 07-08-2008 04:52:03 19.3 C 11.44 g/m*3 19.3 C 0 km/h
2382 07-08-2008 05:04:03 19.3 C 11.44 g/m*3 19.3 C 0 km/h
2383 07-08-2008 05:16:03 19.1 C 11.47 g/m*3 19.1 C 0 km/h
2384 07-08-2008 05:28:03 18.8 C 11.6 g/m*3 18.8 C 0 km/h
2385 07-08-2008 05:40:03 18.8 C 11.6 g/m*3 18.8 C 0 km/h
2386 07-08-2008 05:52:04 18.6 C 11.62 g/m*3 18.6 C 0 km/h
2387 07-08-2008 06:04:04 18.6 C 11.62 g/m*3 18.6 C 0 km/h
2388 07-08-2008 06:16:04 18.5 C 11.71 g/m*3 18.5 C 0 km/h
2389 07-08-2008 06:28:04 18.4 C 11.64 g/m*3 18.4 C 0 km/h
2390 07-08-2008 06:40:04 18.3 C 11.57 g/m*3 18.3 C 0 km/h
2391 07-08-2008 06:52:04 18.5 C 11.87 g/m*3 18.5 C 0 km/h
2392 07-08-2008 07:04:03 18.7 C 12.01 g/m*3 18.7 C 0 km/h
2393 07-08-2008 07:16:02 18.8 C 11.92 g/m*3 18.8 C 0 km/h
2394 07-08-2008 07:28:02 18.6 C 11.94 g/m*3 18.6 C 0 km/h
2395 07-08-2008 07:40:02 18.8 C 12.08 g/m*3 18.8 C 0 km/h
2396 07-08-2008 07:52:02 19.1 C 11.97 g/m*3 19.1 C 0 km/h
2397 07-08-2008 08:04:02 19.2 C 12.04 g/m*3 19.2 C 0 km/h
2398 07-08-2008 08:16:02 19.6 C 12.15 g/m*3 19.6 C 0 km/h
2399 07-08-2008 08:28:02 19.9 C 12.2 g/m*3 19.9 C 0 km/h
2400 07-08-2008 08:40:02 20.3 C 12.14 g/m*3 20.3 C 0 km/h
Sensor: Nr:Datum:Temp:Abs-Feuchte:Windchill:Wind:
Aussen-T/F 2401 07-08-2008 08:52:02 20.9 C 12.38 g/m*3 20.9 C 0 km/h
2402 07-08-2008 09:04:02 21.6 C 12.52 g/m*3 21.6 C 0 km/h
2403 07-08-2008 09:16:02 22.5 C 12.58 g/m*3 22.5 C 0 km/h
2404 07-08-2008 09:28:02 23 C 12.33 g/m*3 23 C 0 km/h
2405 07-08-2008 09:40:02 23.7 C 12.62 g/m*3 23.7 C 0 km/h
2406 07-08-2008 09:52:03 24.2 C 12.54 g/m*3 24.2 C 0 km/h
2407 07-08-2008 10:04:02 24.7 C 12.22 g/m*3 24.7 C 0 km/h
2408 07-08-2008 10:16:02 25.3 C 11.47 g/m*3 25.3 C 0 km/h
2409 07-08-2008 10:28:02 26.2 C 11.32 g/m*3 26.2 C 0 km/h
2410 07-08-2008 10:40:02 26.8 C 11.45 g/m*3 26.8 C 0 km/h
2411 07-08-2008 10:52:02 27.2 C 11.19 g/m*3 27.2 C 0 km/h
2412 07-08-2008 11:04:02 27.4 C 11.31 g/m*3 27.4 C 0 km/h
2413 07-08-2008 11:16:02 28 C 11.42 g/m*3 28 C 0 km/h
2414 07-08-2008 11:28:02 28.3 C 11.06 g/m*3 28.3 C 0 km/h
2415 07-08-2008 11:40:02 28.3 C 11.33 g/m*3 28.3 C 0 km/h
2416 07-08-2008 11:52:02 28.7 C 10.74 g/m*3 28.7 C 0 km/h
2417 07-08-2008 12:04:02 29.1 C 10.69 g/m*3 29.1 C 0 km/h
2418 07-08-2008 12:16:02 29.1 C 10.69 g/m*3 29.1 C 0 km/h
2419 07-08-2008 12:28:02 28.7 C 10.74 g/m*3 28.7 C 0 km/h
2420 07-08-2008 12:40:02 29.3 C 10.51 g/m*3 29.3 C 0 km/h
2421 07-08-2008 12:52:02 29.9 C 10.56 g/m*3 29.9 C 0 km/h
2422 07-08-2008 13:04:02 30.4 C 10.54 g/m*3 30.4 C 0 km/h
2423 07-08-2008 13:16:02 30.6 C 10.02 g/m*3 30.6 C 0 km/h
2424 07-08-2008 13:28:02 30.4 C 10.23 g/m*3 30.4 C 0 km/h
2425 07-08-2008 13:40:02 29.6 C 10.09 g/m*3 29.6 C 0 km/h
Sensor: Nr:Datum:Temp:Abs-Feuchte:Windchill:Wind:
Aussen-T/F 2426 07-08-2008 13:52:01 29.8 C 10.5 g/m*3 29.8 C 0 km/h
2427 07-08-2008 14:04:02 29.4 C 10.57 g/m*3 29.4 C 0 km/h
2428 07-08-2008 14:16:01 29.8 C 10.5 g/m*3 29.8 C 0 km/h
2429 07-08-2008 14:28:01 28.8 C 10.51 g/m*3 28.8 C 0 km/h
2430 07-08-2008 14:40:02 28.1 C 10.39 g/m*3 28.1 C 0 km/h
2431 07-08-2008 14:52:02 28.4 C 10.56 g/m*3 28.4 C 0 km/h
2432 07-08-2008 15:04:02 28 C 10.33 g/m*3 28 C 0 km/h
2433 07-08-2008 15:16:02 28.2 C 10.72 g/m*3 28.2 C 0 km/h
2434 07-08-2008 15:28:02 28.5 C 10.34 g/m*3 28.5 C 0 km/h
2435 07-08-2008 15:40:02 29.2 C 9.87 g/m*3 29.2 C 0 km/h
2436 07-08-2008 15:52:01 29.1 C 9.24 g/m*3 29.1 C 0 km/h
2437 07-08-2008 16:04:02 29.3 C 9.63 g/m*3 29.3 C 0 km/h
2438 07-08-2008 16:16:01 28.7 C 9.89 g/m*3 28.7 C 0 km/h
2439 07-08-2008 16:28:01 29.3 C 9.63 g/m*3 29.3 C 0 km/h
2440 07-08-2008 16:40:02 29.4 C 9.39 g/m*3 29.4 C 0 km/h
2441 07-08-2008 16:52:02 30.4 C 9.3 g/m*3 30.4 C 0 km/h
2442 07-08-2008 17:04:01 30.7 C 9.13 g/m*3 30.7 C 0 km/h
2443 07-08-2008 17:16:02 30.1 C 8.84 g/m*3 30.1 C 0 km/h
2444 07-08-2008 17:28:02 29.4 C 8.81 g/m*3 29.4 C 0 km/h
2445 07-08-2008 17:40:01 29.4 C 8.81 g/m*3 29.4 C 0 km/h
2446 07-08-2008 17:52:02 28.7 C 8.48 g/m*3 28.7 C 0 km/h
2447 07-08-2008 18:04:01 30.1 C 8.54 g/m*3 30.1 C 0 km/h
2448 07-08-2008 18:16:02 29.9 C 8.14 g/m*3 29.9 C 0 km/h
2449 07-08-2008 18:28:03 28.8 C 8.52 g/m*3 28.8 C 0 km/h
2450 07-08-2008 18:40:01 28.6 C 8.71 g/m*3 28.6 C 0 km/h
Sensor: Nr:Datum:Temp:Abs-Feuchte:Windchill:Wind:
Aussen-T/F 2451 07-08-2008 18:52:02 28.5 C 8.66 g/m*3 28.5 C 0 km/h
2452 07-08-2008 19:04:01 28.3 C 8.57 g/m*3 28.3 C 0 km/h
2453 07-08-2008 19:16:02 27.7 C 8.56 g/m*3 27.7 C 0 km/h
2454 07-08-2008 19:28:02 27.1 C 8.54 g/m*3 27.1 C 0 km/h
2455 07-08-2008 19:40:01 26.9 C 8.96 g/m*3 26.9 C 0 km/h
2456 07-08-2008 19:52:02 26.6 C 9.06 g/m*3 26.6 C 0 km/h
2457 07-08-2008 20:04:02 26.7 C 9.11 g/m*3 26.7 C 0 km/h
2458 07-08-2008 20:16:02 27.2 C 8.85 g/m*3 27.2 C 0 km/h
2459 07-08-2008 20:28:02 26.1 C 8.81 g/m*3 26.1 C 0 km/h
2460 07-08-2008 20:40:02 25.4 C 8.71 g/m*3 25.4 C 0 km/h
2461 07-08-2008 20:52:02 24.8 C 8.42 g/m*3 24.8 C 0 km/h
2462 07-08-2008 21:04:02 24.6 C 8.33 g/m*3 24.6 C 0 km/h
2463 07-08-2008 21:16:02 24.3 C 8.41 g/m*3 24.3 C 0 km/h
2464 07-08-2008 21:28:02 24 C 8.49 g/m*3 24 C 0 km/h
2465 07-08-2008 21:40:02 23.7 C 8.77 g/m*3 23.7 C 0 km/h
2466 07-08-2008 21:52:02 23.4 C 8.83 g/m*3 23.4 C 0 km/h
2467 07-08-2008 22:04:02 23.3 C 8.78 g/m*3 23.3 C 0 km/h
2468 07-08-2008 22:17:02 23.3 C 8.57 g/m*3 23.3 C 0 km/h
2469 07-08-2008 22:29:02 23.1 C 8.27 g/m*3 23.1 C 0 km/h
2470 07-08-2008 22:41:02 23 C 8.43 g/m*3 23 C 0 km/h
2471 07-08-2008 22:53:02 20.4 C 10.79 g/m*3 20.4 C 0 km/h
2472 07-08-2008 23:05:02 19.2 C 12.7 g/m*3 19.2 C 0 km/h
2473 07-08-2008 23:17:02 18.5 C 12.82 g/m*3 18.5 C 0 km/h
2474 07-08-2008 23:29:01 17.9 C 12.67 g/m*3 17.9 C 0 km/h
2475 07-08-2008 23:41:01 17.8 C 12.9 g/m*3 17.8 C 0 km/h
Sensor: Nr:Datum:Temp:Abs-Feuchte:Windchill:Wind:
Aussen-T/F 2476 07-08-2008 23:53:02 17.9 C 12.98 g/m*3 17.9 C 0 km/h
2477 08-08-2008 00:05:02 18.2 C 13.06 g/m*3 18.2 C 0 km/h
2478 08-08-2008 00:17:02 18.2 C 12.9 g/m*3 18.2 C 0 km/h
2479 08-08-2008 00:29:02 17.9 C 12.67 g/m*3 17.9 C 0 km/h
2480 08-08-2008 00:41:02 17.8 C 12.6 g/m*3 17.8 C 0 km/h
2481 08-08-2008 00:53:03 17.7 C 12.52 g/m*3 17.7 C 0 km/h
2482 08-08-2008 01:05:03 17.6 C 12.45 g/m*3 17.6 C 0 km/h
2483 08-08-2008 01:17:03 17.6 C 12.45 g/m*3 17.6 C 0 km/h
2484 08-08-2008 01:41:03 17.7 C 12.37 g/m*3 17.7 C 0 km/h
2485 08-08-2008 01:53:03 17.7 C 12.37 g/m*3 17.7 C 0 km/h
2486 08-08-2008 02:05:03 17.7 C 12.22 g/m*3 17.7 C 0 km/h
2487 08-08-2008 02:29:03 17.8 C 12.45 g/m*3 17.8 C 0 km/h
2488 08-08-2008 02:41:04 17.7 C 12.37 g/m*3 17.7 C 0 km/h
2489 08-08-2008 02:53:04 17.7 C 12.37 g/m*3 17.7 C 0 km/h
2490 08-08-2008 03:05:34 17.6 C 12.3 g/m*3 17.6 C 0 km/h
2491 08-08-2008 03:17:34 17.7 C 12.37 g/m*3 17.7 C 0 km/h
2492 08-08-2008 03:29:34 17.7 C 12.37 g/m*3 17.7 C 0 km/h
2493 08-08-2008 03:41:04 17.7 C 12.37 g/m*3 17.7 C 0 km/h
2494 08-08-2008 03:53:05 17.8 C 12.29 g/m*3 17.8 C 0 km/h
2495 08-08-2008 04:05:05 18.1 C 12.05 g/m*3 18.1 C 0 km/h
2496 08-08-2008 04:17:35 18 C 11.83 g/m*3 18 C 0 km/h
2497 08-08-2008 04:29:35 17.9 C 11.76 g/m*3 17.9 C 0 km/h
2498 08-08-2008 04:41:02 17.9 C 11.6 g/m*3 17.9 C 0 km/h
2499 08-08-2008 04:53:02 17.7 C 11.47 g/m*3 17.7 C 0 km/h
2500 08-08-2008 05:05:02 17.7 C 11.47 g/m*3 17.7 C 0 km/h
Sensor: Nr:Datum:Temp:Abs-Feuchte:Windchill:Wind:
Aussen-T/F 2501 08-08-2008 05:17:02 17.7 C 11.47 g/m*3 17.7 C 0 km/h
2502 08-08-2008 05:29:01 17.6 C 11.55 g/m*3 17.6 C 0 km/h
2503 08-08-2008 05:41:01 17.7 C 11.47 g/m*3 17.7 C 0 km/h
2504 08-08-2008 05:53:02 17.7 C 11.32 g/m*3 17.7 C 0 km/h
2505 08-08-2008 06:05:02 17.6 C 11.25 g/m*3 17.6 C 0 km/h
2506 08-08-2008 06:17:02 17.7 C 11.16 g/m*3 17.7 C 0 km/h
2507 08-08-2008 06:29:02 17.8 C 11.23 g/m*3 17.8 C 0 km/h
2508 08-08-2008 06:41:02 17.7 C 11.47 g/m*3 17.7 C 0 km/h
2509 08-08-2008 06:53:33 17.1 C 11.65 g/m*3 17.1 C 0 km/h
2510 08-08-2008 07:05:33 17.2 C 11.72 g/m*3 17.2 C 0 km/h
2511 08-08-2008 07:17:33 17.7 C 11.62 g/m*3 17.7 C 0 km/h
2512 08-08-2008 07:29:33 18 C 11.21 g/m*3 18 C 0 km/h
2513 08-08-2008 07:41:33 17.7 C 11.16 g/m*3 17.7 C 0 km/h
2514 08-08-2008 07:53:33 16.6 C 11.72 g/m*3 16.6 C 0 km/h
2515 08-08-2008 08:17:34 16.3 C 11.93 g/m*3 16.3 C 0 km/h
2516 08-08-2008 08:29:34 16.6 C 12.29 g/m*3 16.6 C 0 km/h
2517 08-08-2008 08:41:34 16.9 C 12.37 g/m*3 16.9 C 0 km/h
2518 08-08-2008 09:05:34 17 C 11.72 g/m*3 17 C 0 km/h
2519 08-08-2008 09:17:34 17 C 11.87 g/m*3 17 C 0 km/h
2520 08-08-2008 09:29:34 16.8 C 11.87 g/m*3 16.8 C 0 km/h
2521 08-08-2008 09:41:03 17.2 C 12.15 g/m*3 17.2 C 0 km/h
2522 08-08-2008 09:53:03 17.5 C 12.08 g/m*3 17.5 C 0 km/h
2523 08-08-2008 10:05:03 17.7 C 11.92 g/m*3 17.7 C 0 km/h
2524 08-08-2008 10:17:02 17.7 C 11.62 g/m*3 17.7 C 0 km/h
2525 08-08-2008 10:29:02 17.8 C 11.84 g/m*3 17.8 C 0 km/h
Sensor: Nr:Datum:Temp:Abs-Feuchte:Windchill:Wind:
Aussen-T/F 2526 08-08-2008 10:41:02 18.2 C 11.81 g/m*3 18.2 C 0 km/h
2527 08-08-2008 10:53:02 18.5 C 11.55 g/m*3 18.5 C 0 km/h
2528 08-08-2008 11:05:02 18.8 C 11.76 g/m*3 18.8 C 0 km/h
2529 08-08-2008 11:17:03 19.4 C 11.85 g/m*3 19.4 C 0 km/h
2530 08-08-2008 11:29:03 20.3 C 11.78 g/m*3 20.3 C 0 km/h
2531 08-08-2008 11:41:02 20.9 C 11.47 g/m*3 20.9 C 0 km/h
2532 08-08-2008 11:53:02 21.9 C 11 g/m*3 21.9 C 0 km/h
2533 08-08-2008 12:05:02 21.7 C 10.68 g/m*3 21.7 C 0 km/h
2534 08-08-2008 12:17:03 21.4 C 10.87 g/m*3 21.4 C 0 km/h
2535 08-08-2008 12:29:03 21.7 C 11.06 g/m*3 21.7 C 0 km/h
2536 08-08-2008 12:41:02 16.9 C 10.64 g/m*3 16.9 C 0 km/h
2537 08-08-2008 12:53:02 16 C 11.44 g/m*3 16 C 0 km/h
2538 08-08-2008 13:05:02 17.8 C 13.2 g/m*3 17.8 C 0 km/h
2539 08-08-2008 13:17:02 19.2 C 13.85 g/m*3 19.2 C 0 km/h
2540 08-08-2008 13:29:02 20.9 C 13.11 g/m*3 20.9 C 0 km/h
2541 08-08-2008 13:41:02 21.8 C 12.28 g/m*3 21.8 C 0 km/h
2542 08-08-2008 13:53:01 20.8 C 13.04 g/m*3 20.8 C 0 km/h
2543 08-08-2008 14:05:02 20.4 C 13.27 g/m*3 20.4 C 0 km/h
2544 08-08-2008 14:17:02 20.3 C 14.07 g/m*3 20.3 C 0 km/h
2545 08-08-2008 14:29:02 21.1 C 13.82 g/m*3 21.1 C 0 km/h
2546 08-08-2008 14:41:02 22 C 13.78 g/m*3 22 C 0 km/h
2547 08-08-2008 14:53:02 22.7 C 12.73 g/m*3 22.7 C 0 km/h
2548 08-08-2008 15:05:02 21.7 C 12.02 g/m*3 21.7 C 0 km/h
2549 08-08-2008 15:17:02 19.2 C 11.71 g/m*3 19.2 C 0 km/h
2550 08-08-2008 15:29:03 20 C 12.96 g/m*3 20 C 0 km/h
Sensor: Nr:Datum:Temp:Abs-Feuchte:Windchill:Wind:
Aussen-T/F 2551 08-08-2008 15:41:03 21.9 C 11.77 g/m*3 21.9 C 0 km/h
2552 08-08-2008 15:53:03 22.1 C 11.52 g/m*3 22.1 C 0 km/h
2553 08-08-2008 16:05:03 21.1 C 9.58 g/m*3 21.1 C 0 km/h
2554 08-08-2008 16:17:02 21.1 C 9.95 g/m*3 21.1 C 0 km/h
2555 08-08-2008 16:29:02 22.7 C 9.7 g/m*3 22.7 C 0 km/h
2556 08-08-2008 16:41:02 22.1 C 9.17 g/m*3 22.1 C 0 km/h
2557 08-08-2008 16:53:01 21.6 C 9.48 g/m*3 21.6 C 0 km/h
2558 08-08-2008 17:05:01 21.8 C 9.21 g/m*3 21.8 C 0 km/h
2559 08-08-2008 17:17:01 21.8 C 9.4 g/m*3 21.8 C 0 km/h
2560 08-08-2008 17:29:01 21.4 C 9.19 g/m*3 21.4 C 0 km/h
2561 08-08-2008 17:41:01 19.7 C 9.85 g/m*3 19.7 C 0 km/h
2562 08-08-2008 17:53:02 18.7 C 11.05 g/m*3 18.7 C 0 km/h
2563 08-08-2008 18:05:02 18.9 C 11.66 g/m*3 18.9 C 0 km/h
2564 08-08-2008 18:17:02 19.5 C 11.24 g/m*3 19.5 C 0 km/h
2565 08-08-2008 18:29:02 19.5 C 10.74 g/m*3 19.5 C 0 km/h
2566 08-08-2008 18:41:02 19.4 C 10.51 g/m*3 19.4 C 0 km/h
2567 08-08-2008 18:53:28 19.3 C 10.28 g/m*3 19.3 C 0 km/h
2568 08-08-2008 19:05:02 19.4 C 10.34 g/m*3 19.4 C 0 km/h
2569 08-08-2008 19:17:03 19.4 C 10.34 g/m*3 19.4 C 0 km/h
2570 08-08-2008 19:29:03 19.3 C 10.28 g/m*3 19.3 C 0 km/h
2571 08-08-2008 19:41:03 19.3 C 10.12 g/m*3 19.3 C 0 km/h
2572 08-08-2008 19:53:02 19.3 C 10.12 g/m*3 19.3 C 0 km/h
2573 08-08-2008 20:05:03 19 C 10.27 g/m*3 19 C 0 km/h
2574 08-08-2008 20:17:02 17.8 C 11.08 g/m*3 17.8 C 0 km/h
2575 08-08-2008 20:29:02 17.5 C 11.18 g/m*3 17.5 C 0 km/h
Sensor: Nr:Datum:Temp:Abs-Feuchte:Windchill:Wind:
Aussen-T/F 2576 08-08-2008 20:41:03 16.8 C 11.58 g/m*3 16.8 C 0 km/h
2577 08-08-2008 20:53:02 16.5 C 11.8 g/m*3 16.5 C 0 km/h
2578 08-08-2008 21:05:02 16.4 C 12 g/m*3 16.4 C 0 km/h
2579 08-08-2008 21:17:02 16.3 C 12.07 g/m*3 16.3 C 0 km/h
2580 08-08-2008 21:29:01 16.3 C 12.21 g/m*3 16.3 C 0 km/h
2581 08-08-2008 21:41:01 16.5 C 12.22 g/m*3 16.5 C 0 km/h
2582 08-08-2008 21:54:01 16.6 C 12.15 g/m*3 16.6 C 0 km/h
2583 08-08-2008 22:06:01 16.7 C 12.08 g/m*3 16.7 C 0 km/h
2584 08-08-2008 22:18:01 16.7 C 11.94 g/m*3 16.7 C 0 km/h
2585 08-08-2008 22:30:01 16.8 C 11.87 g/m*3 16.8 C 0 km/h
2586 08-08-2008 22:42:01 16.4 C 11.58 g/m*3 16.4 C 0 km/h
2587 08-08-2008 22:54:01 16.1 C 11.93 g/m*3 16.1 C 0 km/h
2588 08-08-2008 23:06:01 16 C 11.99 g/m*3 16 C 0 km/h
2589 08-08-2008 23:18:01 16 C 12.13 g/m*3 16 C 0 km/h
2590 08-08-2008 23:30:02 16.1 C 12.34 g/m*3 16.1 C 0 km/h
2591 08-08-2008 23:42:02 16.2 C 12.41 g/m*3 16.2 C 0 km/h
2592 08-08-2008 23:54:02 16.1 C 12.2 g/m*3 16.1 C 0 km/h
2593 09-08-2008 00:06:02 16 C 11.99 g/m*3 16 C 0 km/h
2594 09-08-2008 00:18:02 16.1 C 12.06 g/m*3 16.1 C 0 km/h
2595 09-08-2008 00:30:02 16.2 C 12 g/m*3 16.2 C 0 km/h
2596 09-08-2008 00:42:02 16.2 C 11.86 g/m*3 16.2 C 0 km/h
2597 09-08-2008 00:54:02 16.1 C 11.65 g/m*3 16.1 C 0 km/h
2598 09-08-2008 01:06:02 15.9 C 11.51 g/m*3 15.9 C 0 km/h
2599 09-08-2008 01:18:02 15.7 C 11.37 g/m*3 15.7 C 0 km/h
2600 09-08-2008 01:30:02 15.4 C 11.3 g/m*3 15.4 C 0 km/h
Sensor: Nr:Datum:Temp:Abs-Feuchte:Windchill:Wind:
Aussen-T/F 2601 09-08-2008 01:42:02 15.1 C 11.09 g/m*3 15.1 C 0 km/h
2602 09-08-2008 01:54:02 14.9 C 11.22 g/m*3 14.9 C 0 km/h
2603 09-08-2008 02:06:02 14.9 C 11.22 g/m*3 14.9 C 0 km/h
2604 09-08-2008 02:18:02 14.7 C 11.08 g/m*3 14.7 C 0 km/h
2605 09-08-2008 02:30:02 14.5 C 10.94 g/m*3 14.5 C 0 km/h
2606 09-08-2008 02:42:02 14.5 C 10.94 g/m*3 14.5 C 0 km/h
2607 09-08-2008 02:54:02 14.4 C 10.88 g/m*3 14.4 C 0 km/h
2608 09-08-2008 03:06:02 14.4 C 10.88 g/m*3 14.4 C 0 km/h
2609 09-08-2008 03:18:03 14.5 C 10.7 g/m*3 14.5 C 0 km/h
2610 09-08-2008 03:30:03 14.5 C 10.32 g/m*3 14.5 C 0 km/h
2611 09-08-2008 03:42:03 14.4 C 10.26 g/m*3 14.4 C 0 km/h
2612 09-08-2008 03:54:03 14.4 C 10.26 g/m*3 14.4 C 0 km/h
2613 09-08-2008 04:06:03 14.5 C 10.45 g/m*3 14.5 C 0 km/h
2614 09-08-2008 04:18:03 14.5 C 10.45 g/m*3 14.5 C 0 km/h
2615 09-08-2008 04:30:03 14.5 C 10.57 g/m*3 14.5 C 0 km/h
2616 09-08-2008 04:42:03 14.6 C 10.64 g/m*3 14.6 C 0 km/h
2617 09-08-2008 04:54:03 14.6 C 10.64 g/m*3 14.6 C 0 km/h
2618 09-08-2008 05:06:03 14.7 C 10.58 g/m*3 14.7 C 0 km/h
2619 09-08-2008 05:18:03 14.6 C 10.51 g/m*3 14.6 C 0 km/h
2620 09-08-2008 05:30:03 14.6 C 10.51 g/m*3 14.6 C 0 km/h
2621 09-08-2008 05:42:03 14.6 C 10.39 g/m*3 14.6 C 0 km/h
2622 09-08-2008 05:54:03 14.7 C 10.2 g/m*3 14.7 C 0 km/h
2623 09-08-2008 06:06:03 14.7 C 10.07 g/m*3 14.7 C 0 km/h
2624 09-08-2008 06:18:03 14.9 C 9.81 g/m*3 14.9 C 0 km/h
2625 09-08-2008 06:30:03 14.9 C 9.69 g/m*3 14.9 C 0 km/h
Sensor: Nr:Datum:Temp:Abs-Feuchte:Windchill:Wind:
Aussen-T/F 2626 09-08-2008 06:42:03 14.9 C 9.69 g/m*3 14.9 C 0 km/h
2627 09-08-2008 06:54:03 15 C 9.87 g/m*3 15 C 0 km/h
2628 09-08-2008 07:06:03 15 C 9.75 g/m*3 15 C 0 km/h
2629 09-08-2008 07:18:04 14.9 C 9.43 g/m*3 14.9 C 0 km/h
2630 09-08-2008 07:30:04 14.8 C 9.37 g/m*3 14.8 C 0 km/h
2631 09-08-2008 07:42:04 15 C 9.36 g/m*3 15 C 0 km/h
2632 09-08-2008 07:54:04 15.1 C 9.29 g/m*3 15.1 C 0 km/h
2633 09-08-2008 08:06:02 14.7 C 9.19 g/m*3 14.7 C 0 km/h
2634 09-08-2008 08:18:02 14.7 C 9.44 g/m*3 14.7 C 0 km/h
2635 09-08-2008 08:30:02 15.1 C 9.42 g/m*3 15.1 C 0 km/h
2636 09-08-2008 08:42:01 15.7 C 9.1 g/m*3 15.7 C 0 km/h
2637 09-08-2008 08:54:02 16.2 C 9.38 g/m*3 16.2 C 0 km/h
2638 09-08-2008 09:06:02 16.3 C 9.02 g/m*3 16.3 C 0 km/h
2639 09-08-2008 09:18:02 16.3 C 9.43 g/m*3 16.3 C 0 km/h
2640 09-08-2008 09:30:02 16.8 C 9.72 g/m*3 16.8 C 0 km/h
2641 09-08-2008 09:42:02 17.1 C 9.17 g/m*3 17.1 C 0 km/h
2642 09-08-2008 09:54:02 16.6 C 9.04 g/m*3 16.6 C 0 km/h
2643 09-08-2008 10:06:02 17.6 C 8.85 g/m*3 17.6 C 0 km/h
2644 09-08-2008 10:18:01 17.9 C 8.09 g/m*3 17.9 C 0 km/h
2645 09-08-2008 10:30:01 18.1 C 7.73 g/m*3 18.1 C 0 km/h
2646 09-08-2008 10:42:02 18.5 C 7.91 g/m*3 18.5 C 0 km/h
2647 09-08-2008 10:54:02 18.6 C 6.84 g/m*3 18.6 C 0 km/h
2648 09-08-2008 11:06:02 19 C 7.66 g/m*3 19 C 0 km/h
2649 09-08-2008 11:18:02 20.2 C 6.64 g/m*3 20.2 C 0 km/h
2650 09-08-2008 11:30:02 19.9 C 7.22 g/m*3 19.9 C 0 km/h
Sensor: Nr:Datum:Temp:Abs-Feuchte:Windchill:Wind:
Aussen-T/F 2651 09-08-2008 11:42:02 20.4 C 6.72 g/m*3 20.4 C 0 km/h
2652 09-08-2008 11:54:02 20.7 C 6.48 g/m*3 20.7 C 0 km/h
2653 09-08-2008 12:06:01 20.9 C 6.19 g/m*3 20.9 C 0 km/h
2654 09-08-2008 12:18:02 21.9 C 6.18 g/m*3 21.9 C 0 km/h
2655 09-08-2008 12:30:02 22.5 C 6.19 g/m*3 22.5 C 0 km/h
2656 09-08-2008 12:42:01 21.5 C 6.03 g/m*3 21.5 C 0 km/h
2657 09-08-2008 12:54:02 22.3 C 5.73 g/m*3 22.3 C 0 km/h
2658 09-08-2008 13:06:01 22.4 C 5.56 g/m*3 22.4 C 0 km/h
2659 09-08-2008 13:18:02 23.1 C 5.37 g/m*3 23.1 C 0 km/h
2660 09-08-2008 13:30:02 23.5 C 5.29 g/m*3 23.5 C 0 km/h
2661 09-08-2008 13:42:01 23.5 C 5.5 g/m*3 23.5 C 0 km/h
2662 09-08-2008 13:54:03 22.9 C 5.11 g/m*3 22.9 C 0 km/h
2663 09-08-2008 14:06:02 23.2 C 5.61 g/m*3 23.2 C 0 km/h
2664 09-08-2008 14:18:03 23 C 5.34 g/m*3 23 C 0 km/h
2665 09-08-2008 14:30:03 23.2 C 5.2 g/m*3 23.2 C 0 km/h
2666 09-08-2008 14:42:02 24.4 C 5.56 g/m*3 24.4 C 0 km/h
2667 09-08-2008 14:54:02 25.2 C 5.12 g/m*3 25.2 C 0 km/h
2668 09-08-2008 15:06:03 24.3 C 5.53 g/m*3 24.3 C 0 km/h
2669 09-08-2008 15:18:03 24.9 C 5.72 g/m*3 24.9 C 0 km/h
2670 09-08-2008 15:30:03 25.6 C 5.48 g/m*3 25.6 C 0 km/h
2671 09-08-2008 15:42:03 26.1 C 5.63 g/m*3 26.1 C 0 km/h
2672 09-08-2008 15:54:02 26.1 C 5.39 g/m*3 26.1 C 0 km/h
2673 09-08-2008 16:06:03 25.9 C 5.33 g/m*3 25.9 C 0 km/h
2674 09-08-2008 16:18:02 25.9 C 6.05 g/m*3 25.9 C 0 km/h
2675 09-08-2008 16:30:02 25.4 C 5.65 g/m*3 25.4 C 0 km/h
Sensor: Nr:Datum:Temp:Abs-Feuchte:Windchill:Wind:
Aussen-T/F 2676 09-08-2008 16:42:03 24.8 C 5.92 g/m*3 24.8 C 0 km/h
2677 09-08-2008 16:54:03 24.8 C 5.92 g/m*3 24.8 C 0 km/h
2678 09-08-2008 17:06:02 26.3 C 5.94 g/m*3 26.3 C 0 km/h
2679 09-08-2008 17:18:02 26.4 C 5.48 g/m*3 26.4 C 0 km/h
2680 09-08-2008 17:30:02 25.4 C 5.89 g/m*3 25.4 C 0 km/h
2681 09-08-2008 17:42:02 24.9 C 5.95 g/m*3 24.9 C 0 km/h
2682 09-08-2008 17:54:01 26 C 6.09 g/m*3 26 C 0 km/h
2683 09-08-2008 18:06:02 26.2 C 6.15 g/m*3 26.2 C 0 km/h
2684 09-08-2008 18:18:01 25.2 C 6.05 g/m*3 25.2 C 0 km/h
2685 09-08-2008 18:30:01 25 C 6.22 g/m*3 25 C 0 km/h
2686 09-08-2008 18:42:02 25.9 C 6.29 g/m*3 25.9 C 0 km/h
2687 09-08-2008 18:54:01 25.8 C 6.74 g/m*3 25.8 C 0 km/h
2688 09-08-2008 19:06:02 25.3 C 6.79 g/m*3 25.3 C 0 km/h
2689 09-08-2008 19:18:02 24.9 C 7.1 g/m*3 24.9 C 0 km/h
2690 09-08-2008 19:30:02 23.9 C 7.14 g/m*3 23.9 C 0 km/h
2691 09-08-2008 19:42:01 23.8 C 7.1 g/m*3 23.8 C 0 km/h
2692 09-08-2008 19:54:01 23.3 C 7.32 g/m*3 23.3 C 0 km/h
2693 09-08-2008 20:06:02 22.9 C 7.56 g/m*3 22.9 C 0 km/h
2694 09-08-2008 20:18:01 22.3 C 7.7 g/m*3 22.3 C 0 km/h
2695 09-08-2008 20:30:01 21.6 C 7.78 g/m*3 21.6 C 0 km/h
2696 09-08-2008 20:42:02 21 C 7.69 g/m*3 21 C 0 km/h
2697 09-08-2008 20:54:02 20.7 C 8.1 g/m*3 20.7 C 0 km/h
2698 09-08-2008 21:06:02 20 C 7.95 g/m*3 20 C 0 km/h
2699 09-08-2008 21:18:02 19.9 C 8.25 g/m*3 19.9 C 0 km/h
2700 09-08-2008 21:30:02 19.8 C 8.2 g/m*3 19.8 C 0 km/h
Sensor: Nr:Datum:Temp:Abs-Feuchte:Windchill:Wind:
Aussen-T/F 2701 09-08-2008 21:42:02 19.6 C 8.27 g/m*3 19.6 C 0 km/h
2702 09-08-2008 21:54:02 19.5 C 8.39 g/m*3 19.5 C 0 km/h
2703 09-08-2008 22:06:01 19.3 C 8.63 g/m*3 19.3 C 0 km/h
2704 09-08-2008 22:18:02 19 C 8.8 g/m*3 19 C 0 km/h
2705 09-08-2008 22:30:02 19 C 8.8 g/m*3 19 C 0 km/h
2706 09-08-2008 22:42:01 18.9 C 9.23 g/m*3 18.9 C 0 km/h
2707 09-08-2008 22:54:02 18.9 C 9.23 g/m*3 18.9 C 0 km/h
2708 09-08-2008 23:06:01 18.8 C 9.34 g/m*3 18.8 C 0 km/h
2709 09-08-2008 23:18:02 18.7 C 9.13 g/m*3 18.7 C 0 km/h
2710 09-08-2008 23:30:02 18.4 C 9.28 g/m*3 18.4 C 0 km/h
2711 09-08-2008 23:43:02 18.2 C 9.33 g/m*3 18.2 C 0 km/h
2712 09-08-2008 23:55:02 18 C 9.37 g/m*3 18 C 0 km/h
2713 10-08-2008 00:07:02 17.8 C 9.56 g/m*3 17.8 C 0 km/h
2714 10-08-2008 00:19:02 17.7 C 9.51 g/m*3 17.7 C 0 km/h
2715 10-08-2008 00:31:02 17.7 C 9.51 g/m*3 17.7 C 0 km/h
2716 10-08-2008 00:43:02 17.9 C 9.77 g/m*3 17.9 C 0 km/h
2717 10-08-2008 00:55:02 17.9 C 9.77 g/m*3 17.9 C 0 km/h
2718 10-08-2008 01:07:02 18 C 9.68 g/m*3 18 C 0 km/h
2719 10-08-2008 01:19:02 18.1 C 9.73 g/m*3 18.1 C 0 km/h
2720 10-08-2008 01:31:02 17.9 C 9.77 g/m*3 17.9 C 0 km/h
2721 10-08-2008 01:43:02 17.9 C 9.92 g/m*3 17.9 C 0 km/h
2722 10-08-2008 01:55:02 18 C 9.83 g/m*3 18 C 0 km/h
2723 10-08-2008 02:07:02 17.9 C 10.08 g/m*3 17.9 C 0 km/h
2724 10-08-2008 02:19:02 17.7 C 10.11 g/m*3 17.7 C 0 km/h
2725 10-08-2008 02:31:02 18 C 10.14 g/m*3 18 C 0 km/h
Sensor: Nr:Datum:Temp:Abs-Feuchte:Windchill:Wind:
Aussen-T/F 2726 10-08-2008 02:43:02 18.1 C 9.73 g/m*3 18.1 C 0 km/h
2727 10-08-2008 02:55:02 18.3 C 9.85 g/m*3 18.3 C 0 km/h
2728 10-08-2008 03:07:02 18.3 C 9.69 g/m*3 18.3 C 0 km/h
2729 10-08-2008 03:19:03 18.2 C 9.79 g/m*3 18.2 C 0 km/h
2730 10-08-2008 03:31:03 18.2 C 9.79 g/m*3 18.2 C 0 km/h
2731 10-08-2008 03:43:03 18.2 C 9.64 g/m*3 18.2 C 0 km/h
2732 10-08-2008 03:55:03 17.7 C 10.11 g/m*3 17.7 C 0 km/h
2733 10-08-2008 04:07:03 17.6 C 10.2 g/m*3 17.6 C 0 km/h
2734 10-08-2008 04:19:03 18 C 9.68 g/m*3 18 C 0 km/h
2735 10-08-2008 04:31:03 17.9 C 9.77 g/m*3 17.9 C 0 km/h
2736 10-08-2008 04:43:03 18 C 9.68 g/m*3 18 C 0 km/h
2737 10-08-2008 04:55:03 18 C 9.68 g/m*3 18 C 0 km/h
2738 10-08-2008 05:07:03 18 C 9.68 g/m*3 18 C 0 km/h
2739 10-08-2008 05:19:03 17.9 C 9.47 g/m*3 17.9 C 0 km/h
2740 10-08-2008 05:31:03 17.9 C 9.47 g/m*3 17.9 C 0 km/h
2741 10-08-2008 05:43:03 17.9 C 9.47 g/m*3 17.9 C 0 km/h
2742 10-08-2008 05:55:03 18.2 C 9.33 g/m*3 18.2 C 0 km/h
2743 10-08-2008 06:07:03 18.2 C 9.33 g/m*3 18.2 C 0 km/h
2744 10-08-2008 06:19:03 18.2 C 9.17 g/m*3 18.2 C 0 km/h
2745 10-08-2008 06:31:03 18.1 C 9.27 g/m*3 18.1 C 0 km/h
2746 10-08-2008 06:43:03 17.5 C 9.99 g/m*3 17.5 C 0 km/h
2747 10-08-2008 06:55:03 17.7 C 10.26 g/m*3 17.7 C 0 km/h
2748 10-08-2008 07:07:04 17.9 C 10.08 g/m*3 17.9 C 0 km/h
2749 10-08-2008 07:19:04 18.1 C 9.89 g/m*3 18.1 C 0 km/h
2750 10-08-2008 07:31:04 18.1 C 9.89 g/m*3 18.1 C 0 km/h
Sensor: Nr:Datum:Temp:Abs-Feuchte:Windchill:Wind:
Aussen-T/F 2751 10-08-2008 07:43:04 18.4 C 9.75 g/m*3 18.4 C 0 km/h
2752 10-08-2008 07:55:04 18.8 C 9.66 g/m*3 18.8 C 0 km/h
2753 10-08-2008 08:07:04 19.2 C 9.07 g/m*3 19.2 C 0 km/h
2754 10-08-2008 08:19:04 19.4 C 9.01 g/m*3 19.4 C 0 km/h
2755 10-08-2008 08:31:04 19.5 C 9.06 g/m*3 19.5 C 0 km/h
2756 10-08-2008 08:43:04 19.7 C 9 g/m*3 19.7 C 0 km/h
2757 10-08-2008 08:55:04 19.9 C 8.93 g/m*3 19.9 C 0 km/h
2758 10-08-2008 09:07:02 19.9 C 9.11 g/m*3 19.9 C 0 km/h
2759 10-08-2008 09:19:02 20.2 C 9.09 g/m*3 20.2 C 0 km/h
2760 10-08-2008 09:31:02 20.2 C 8.92 g/m*3 20.2 C 0 km/h
2761 10-08-2008 09:43:02 20.3 C 8.97 g/m*3 20.3 C 0 km/h
2762 10-08-2008 09:55:02 20.1 C 9.04 g/m*3 20.1 C 0 km/h
2763 10-08-2008 10:07:02 20 C 9.16 g/m*3 20 C 0 km/h
2764 10-08-2008 10:19:02 19.9 C 9.79 g/m*3 19.9 C 0 km/h
2765 10-08-2008 10:31:02 19.5 C 9.9 g/m*3 19.5 C 0 km/h
2766 10-08-2008 10:43:02 19.6 C 10.13 g/m*3 19.6 C 0 km/h
2767 10-08-2008 10:55:02 20 C 10.02 g/m*3 20 C 0 km/h
2768 10-08-2008 11:07:02 20 C 9.68 g/m*3 20 C 0 km/h
2769 10-08-2008 11:19:02 19 C 10.27 g/m*3 19 C 0 km/h
2770 10-08-2008 11:31:02 18.8 C 10.79 g/m*3 18.8 C 0 km/h
2771 10-08-2008 11:43:02 18.5 C 10.44 g/m*3 18.5 C 0 km/h
2772 10-08-2008 11:58:02 19.3 C 10.12 g/m*3 19.3 C 0 km/h
2773 10-08-2008 12:10:01 19.6 C 9.96 g/m*3 19.6 C 0 km/h
2774 10-08-2008 12:22:02 20 C 9.68 g/m*3 20 C 0 km/h
2775 10-08-2008 12:34:01 20.7 C 9.9 g/m*3 20.7 C 0 km/h
Sensor: Nr:Datum:Temp:Abs-Feuchte:Windchill:Wind:
Aussen-T/F 2776 10-08-2008 12:46:02 20.9 C 9.29 g/m*3 20.9 C 0 km/h
2777 10-08-2008 12:58:02 21.2 C 9.27 g/m*3 21.2 C 0 km/h
2778 10-08-2008 13:10:02 21.5 C 8.86 g/m*3 21.5 C 0 km/h
2779 10-08-2008 13:22:02 21.1 C 9.03 g/m*3 21.1 C 0 km/h
2780 10-08-2008 13:34:02 21.5 C 9.05 g/m*3 21.5 C 0 km/h
2781 10-08-2008 13:46:02 22.3 C 8.49 g/m*3 22.3 C 0 km/h
2782 10-08-2008 13:58:02 22.8 C 8.33 g/m*3 22.8 C 0 km/h
2783 10-08-2008 14:10:02 22.6 C 8.24 g/m*3 22.6 C 0 km/h
2784 10-08-2008 14:22:02 22.4 C 8.14 g/m*3 22.4 C 0 km/h
2785 10-08-2008 14:34:02 21.6 C 8.91 g/m*3 21.6 C 0 km/h
2786 10-08-2008 14:46:02 20.7 C 9.54 g/m*3 20.7 C 0 km/h
2787 10-08-2008 14:58:02 21.5 C 10.18 g/m*3 21.5 C 0 km/h
2788 10-08-2008 15:10:01 22.6 C 9.24 g/m*3 22.6 C 0 km/h
2789 10-08-2008 15:22:02 22.7 C 9.5 g/m*3 22.7 C 0 km/h
2790 10-08-2008 15:34:01 22.6 C 9.84 g/m*3 22.6 C 0 km/h
2791 10-08-2008 15:46:02 22.2 C 8.83 g/m*3 22.2 C 0 km/h
2792 10-08-2008 15:58:02 22.6 C 8.24 g/m*3 22.6 C 0 km/h
2793 10-08-2008 16:10:02 23.2 C 8.11 g/m*3 23.2 C 0 km/h
2794 10-08-2008 16:22:02 24.5 C 8.06 g/m*3 24.5 C 0 km/h
2795 10-08-2008 16:34:02 24 C 7.61 g/m*3 24 C 0 km/h
2796 10-08-2008 16:46:02 23.8 C 7.74 g/m*3 23.8 C 0 km/h
2797 10-08-2008 16:58:02 24 C 7.4 g/m*3 24 C 0 km/h
2798 10-08-2008 17:10:02 23.8 C 7.74 g/m*3 23.8 C 0 km/h
2799 10-08-2008 17:22:02 23.9 C 7.79 g/m*3 23.9 C 0 km/h
2800 10-08-2008 17:34:01 24 C 7.4 g/m*3 24 C 0 km/h
Sensor: Nr:Datum:Temp:Abs-Feuchte:Windchill:Wind:
Aussen-T/F 2801 10-08-2008 17:46:02 23.8 C 7.53 g/m*3 23.8 C 0 km/h
2802 10-08-2008 17:58:02 23.7 C 7.91 g/m*3 23.7 C 0 km/h
2803 10-08-2008 18:10:02 23.5 C 7.61 g/m*3 23.5 C 0 km/h
2804 10-08-2008 18:22:01 23.7 C 7.91 g/m*3 23.7 C 0 km/h
2805 10-08-2008 18:34:03 23.9 C 7.79 g/m*3 23.9 C 0 km/h
2806 10-08-2008 18:46:03 23.6 C 7.87 g/m*3 23.6 C 0 km/h
2807 10-08-2008 18:58:03 23.3 C 8.36 g/m*3 23.3 C 0 km/h
2808 10-08-2008 19:10:02 23.3 C 8.36 g/m*3 23.3 C 0 km/h
2809 10-08-2008 19:22:03 22.9 C 8.58 g/m*3 22.9 C 0 km/h
2810 10-08-2008 19:34:02 22.5 C 8.39 g/m*3 22.5 C 0 km/h
2811 10-08-2008 19:46:02 22.2 C 8.44 g/m*3 22.2 C 0 km/h
2812 10-08-2008 19:58:02 21.9 C 9.07 g/m*3 21.9 C 0 km/h
2813 10-08-2008 20:10:02 21.7 C 8.97 g/m*3 21.7 C 0 km/h
2814 10-08-2008 20:22:02 21.3 C 9.13 g/m*3 21.3 C 0 km/h
2815 10-08-2008 20:34:02 21 C 8.98 g/m*3 21 C 0 km/h
2816 10-08-2008 20:46:02 21 C 9.16 g/m*3 21 C 0 km/h
2817 10-08-2008 20:58:02 20.8 C 9.42 g/m*3 20.8 C 0 km/h
2818 10-08-2008 21:10:03 20.6 C 9.31 g/m*3 20.6 C 0 km/h
2819 10-08-2008 21:22:02 20.6 C 9.31 g/m*3 20.6 C 0 km/h
2820 10-08-2008 21:34:03 20.4 C 9.55 g/m*3 20.4 C 0 km/h
2821 10-08-2008 21:46:02 20.2 C 9.44 g/m*3 20.2 C 0 km/h
2822 10-08-2008 21:58:03 20 C 9.51 g/m*3 20 C 0 km/h
2823 10-08-2008 22:10:01 19.6 C 9.79 g/m*3 19.6 C 0 km/h
2824 10-08-2008 22:23:02 19.4 C 9.84 g/m*3 19.4 C 0 km/h
2825 10-08-2008 22:35:02 19.1 C 9.84 g/m*3 19.1 C 0 km/h
Sensor: Nr:Datum:Temp:Abs-Feuchte:Windchill:Wind:
Aussen-T/F 2826 10-08-2008 22:47:02 19.1 C 10 g/m*3 19.1 C 0 km/h
2827 10-08-2008 22:59:02 19 C 9.78 g/m*3 19 C 0 km/h
2828 10-08-2008 23:11:02 18.8 C 9.82 g/m*3 18.8 C 0 km/h
2829 10-08-2008 23:23:02 18.7 C 9.77 g/m*3 18.7 C 0 km/h
2830 10-08-2008 23:35:03 18.5 C 9.65 g/m*3 18.5 C 0 km/h
2831 10-08-2008 23:47:03 18.4 C 9.44 g/m*3 18.4 C 0 km/h
2832 10-08-2008 23:59:03 18.3 C 9.07 g/m*3 18.3 C 0 km/h
2833 11-08-2008 00:11:03 18.1 C 9.12 g/m*3 18.1 C 0 km/h
2834 11-08-2008 00:23:03 18.1 C 9.27 g/m*3 18.1 C 0 km/h
2835 11-08-2008 00:35:03 18.1 C 9.27 g/m*3 18.1 C 0 km/h
2836 11-08-2008 00:47:03 18.1 C 9.27 g/m*3 18.1 C 0 km/h
2837 11-08-2008 00:59:03 18.2 C 9.33 g/m*3 18.2 C 0 km/h
2838 11-08-2008 01:11:03 18.4 C 9.28 g/m*3 18.4 C 0 km/h
2839 11-08-2008 01:23:03 18.6 C 9.39 g/m*3 18.6 C 0 km/h
2840 11-08-2008 01:35:03 18.7 C 9.45 g/m*3 18.7 C 0 km/h
2841 11-08-2008 01:47:03 18.5 C 9.65 g/m*3 18.5 C 0 km/h
2842 11-08-2008 01:59:03 18.3 C 9.69 g/m*3 18.3 C 0 km/h
2843 11-08-2008 02:11:03 18 C 9.68 g/m*3 18 C 0 km/h
2844 11-08-2008 02:23:03 17.6 C 9.9 g/m*3 17.6 C 0 km/h
2845 11-08-2008 02:35:03 17.3 C 10.02 g/m*3 17.3 C 0 km/h
2846 11-08-2008 02:47:03 17.4 C 10.23 g/m*3 17.4 C 0 km/h
2847 11-08-2008 02:59:03 17.5 C 10.44 g/m*3 17.5 C 0 km/h
2848 11-08-2008 03:11:03 17.5 C 10.59 g/m*3 17.5 C 0 km/h
2849 11-08-2008 03:23:03 17.5 C 10.59 g/m*3 17.5 C 0 km/h
2850 11-08-2008 03:35:04 17.7 C 10.56 g/m*3 17.7 C 0 km/h
Sensor: Nr:Datum:Temp:Abs-Feuchte:Windchill:Wind:
Aussen-T/F 2851 11-08-2008 03:47:04 17.7 C 10.56 g/m*3 17.7 C 0 km/h
2852 11-08-2008 03:59:04 17.5 C 10.44 g/m*3 17.5 C 0 km/h
2853 11-08-2008 04:11:04 17.4 C 10.37 g/m*3 17.4 C 0 km/h
2854 11-08-2008 04:23:04 17.1 C 10.19 g/m*3 17.1 C 0 km/h
2855 11-08-2008 04:35:04 16.8 C 10.15 g/m*3 16.8 C 0 km/h
2856 11-08-2008 04:47:04 16.6 C 10.03 g/m*3 16.6 C 0 km/h
2857 11-08-2008 04:59:04 16 C 9.67 g/m*3 16 C 0 km/h
2858 11-08-2008 05:11:04 15.7 C 9.63 g/m*3 15.7 C 0 km/h
2859 11-08-2008 05:23:04 15.6 C 9.71 g/m*3 15.6 C 0 km/h
2860 11-08-2008 05:35:04 15.9 C 9.62 g/m*3 15.9 C 0 km/h
2861 11-08-2008 05:47:04 15.8 C 9.69 g/m*3 15.8 C 0 km/h
2862 11-08-2008 05:59:04 15.4 C 9.59 g/m*3 15.4 C 0 km/h
2863 11-08-2008 06:11:02 15.1 C 9.68 g/m*3 15.1 C 0 km/h
2864 11-08-2008 06:23:02 14.8 C 9.88 g/m*3 14.8 C 0 km/h
2865 11-08-2008 06:35:02 15 C 10.13 g/m*3 15 C 0 km/h
2866 11-08-2008 06:47:02 15.2 C 10.12 g/m*3 15.2 C 0 km/h
2867 11-08-2008 06:59:02 15 C 10 g/m*3 15 C 0 km/h
2868 11-08-2008 07:11:02 14.9 C 10.2 g/m*3 14.9 C 0 km/h
2869 11-08-2008 07:23:02 14.9 C 10.2 g/m*3 14.9 C 0 km/h
2870 11-08-2008 07:35:02 15 C 10.26 g/m*3 15 C 0 km/h
2871 11-08-2008 07:47:02 15.4 C 10.51 g/m*3 15.4 C 0 km/h
2872 11-08-2008 07:59:02 15.6 C 10.37 g/m*3 15.6 C 0 km/h
2873 11-08-2008 08:11:01 15.5 C 10.31 g/m*3 15.5 C 0 km/h
2874 11-08-2008 08:23:02 15.9 C 10.56 g/m*3 15.9 C 0 km/h
2875 11-08-2008 08:35:01 16.3 C 10.41 g/m*3 16.3 C 0 km/h
Sensor: Nr:Datum:Temp:Abs-Feuchte:Windchill:Wind:
Aussen-T/F 2876 11-08-2008 08:47:02 16.7 C 10.37 g/m*3 16.7 C 0 km/h
2877 11-08-2008 08:59:02 17.5 C 10.14 g/m*3 17.5 C 0 km/h
2878 11-08-2008 09:11:01 18.2 C 10.41 g/m*3 18.2 C 0 km/h
2879 11-08-2008 09:23:02 19.1 C 10.16 g/m*3 19.1 C 0 km/h
2880 11-08-2008 09:35:02 19.6 C 10.13 g/m*3 19.6 C 0 km/h
2881 11-08-2008 09:47:02 20.2 C 9.97 g/m*3 20.2 C 0 km/h
2882 11-08-2008 09:59:03 20.8 C 9.78 g/m*3 20.8 C 0 km/h
2883 11-08-2008 10:11:02 20.9 C 9.47 g/m*3 20.9 C 0 km/h
2884 11-08-2008 10:23:02 21 C 9.53 g/m*3 21 C 0 km/h
2885 11-08-2008 10:35:01 21.3 C 9.51 g/m*3 21.3 C 0 km/h
2886 11-08-2008 10:47:02 21.6 C 8.72 g/m*3 21.6 C 0 km/h
2887 11-08-2008 10:59:02 21.9 C 8.1 g/m*3 21.9 C 0 km/h
2888 11-08-2008 11:11:01 22.4 C 8.14 g/m*3 22.4 C 0 km/h
2889 11-08-2008 11:23:02 22.5 C 7.99 g/m*3 22.5 C 0 km/h
2890 11-08-2008 11:35:01 22.1 C 8.2 g/m*3 22.1 C 0 km/h
2891 11-08-2008 11:47:01 22.6 C 8.84 g/m*3 22.6 C 0 km/h
2892 11-08-2008 11:59:01 22 C 8.73 g/m*3 22 C 0 km/h
2893 11-08-2008 12:11:02 22.7 C 8.49 g/m*3 22.7 C 0 km/h
2894 11-08-2008 12:23:01 23.4 C 8.41 g/m*3 23.4 C 0 km/h
2895 11-08-2008 12:35:02 23.7 C 7.91 g/m*3 23.7 C 0 km/h
2896 11-08-2008 12:47:02 24.2 C 7.26 g/m*3 24.2 C 0 km/h
2897 11-08-2008 12:59:02 24.1 C 7 g/m*3 24.1 C 0 km/h
2898 11-08-2008 13:11:03 25.2 C 7.22 g/m*3 25.2 C 0 km/h
2899 11-08-2008 13:23:02 25.9 C 6.78 g/m*3 25.9 C 0 km/h
2900 11-08-2008 13:35:02 26 C 6.33 g/m*3 26 C 0 km/h
Sensor: Nr:Datum:Temp:Abs-Feuchte:Windchill:Wind:
Aussen-T/F 2901 11-08-2008 13:47:02 25.8 C 6.5 g/m*3 25.8 C 0 km/h
2902 11-08-2008 13:59:02 26.4 C 6.22 g/m*3 26.4 C 0 km/h
2903 11-08-2008 14:11:02 26.2 C 5.91 g/m*3 26.2 C 0 km/h
2904 11-08-2008 14:23:02 26.5 C 6.26 g/m*3 26.5 C 0 km/h
2905 11-08-2008 14:35:02 27.1 C 6.47 g/m*3 27.1 C 0 km/h
2906 11-08-2008 14:47:01 27.2 C 6.25 g/m*3 27.2 C 0 km/h
2907 11-08-2008 14:59:01 27 C 5.66 g/m*3 27 C 0 km/h
2908 11-08-2008 15:11:02 27.8 C 6.72 g/m*3 27.8 C 0 km/h
2909 11-08-2008 15:23:01 27.4 C 5.26 g/m*3 27.4 C 0 km/h
2910 11-08-2008 15:35:02 26.7 C 5.32 g/m*3 26.7 C 0 km/h
2911 11-08-2008 15:47:02 26.7 C 5.82 g/m*3 26.7 C 0 km/h
2912 11-08-2008 15:59:02 26.8 C 5.85 g/m*3 26.8 C 0 km/h
2913 11-08-2008 16:11:01 26.8 C 5.85 g/m*3 26.8 C 0 km/h
2914 11-08-2008 16:23:02 26.2 C 5.91 g/m*3 26.2 C 0 km/h
2915 11-08-2008 16:35:02 26.2 C 6.15 g/m*3 26.2 C 0 km/h
2916 11-08-2008 16:47:02 25.7 C 6.46 g/m*3 25.7 C 0 km/h
2917 11-08-2008 16:59:02 25 C 6.22 g/m*3 25 C 0 km/h
2918 11-08-2008 17:11:01 25 C 6.22 g/m*3 25 C 0 km/h
2919 11-08-2008 17:23:02 24.5 C 6.49 g/m*3 24.5 C 0 km/h
2920 11-08-2008 17:35:01 24.3 C 6.86 g/m*3 24.3 C 0 km/h
2921 11-08-2008 17:47:02 23.9 C 6.71 g/m*3 23.9 C 0 km/h
2922 11-08-2008 17:59:03 23.9 C 6.49 g/m*3 23.9 C 0 km/h
2923 11-08-2008 18:11:02 23.9 C 6.92 g/m*3 23.9 C 0 km/h
2924 11-08-2008 18:23:02 22.9 C 7.97 g/m*3 22.9 C 0 km/h
2925 11-08-2008 18:35:02 23.3 C 7.95 g/m*3 23.3 C 0 km/h
Sensor: Nr:Datum:Temp:Abs-Feuchte:Windchill:Wind:
Aussen-T/F 2926 11-08-2008 18:47:02 23.2 C 8.11 g/m*3 23.2 C 0 km/h
2927 11-08-2008 18:59:02 22.6 C 8.64 g/m*3 22.6 C 0 km/h
2928 11-08-2008 19:11:02 22.7 C 8.28 g/m*3 22.7 C 0 km/h
2929 11-08-2008 19:23:02 22.9 C 8.79 g/m*3 22.9 C 0 km/h
2930 11-08-2008 19:35:01 22.9 C 8.79 g/m*3 22.9 C 0 km/h
2931 11-08-2008 19:47:02 22.5 C 9.19 g/m*3 22.5 C 0 km/h
2932 11-08-2008 19:59:02 22.1 C 8.98 g/m*3 22.1 C 0 km/h
2933 11-08-2008 20:11:02 21.9 C 9.46 g/m*3 21.9 C 0 km/h
2934 11-08-2008 20:23:01 21.5 C 9.43 g/m*3 21.5 C 0 km/h
2935 11-08-2008 20:35:02 21.2 C 9.45 g/m*3 21.2 C 0 km/h
2936 11-08-2008 20:47:02 21.1 C 9.4 g/m*3 21.1 C 0 km/h
2937 11-08-2008 20:59:02 20.6 C 9.84 g/m*3 20.6 C 0 km/h
2938 11-08-2008 21:11:02 20.1 C 9.91 g/m*3 20.1 C 0 km/h
2939 11-08-2008 21:23:02 19.9 C 10.31 g/m*3 19.9 C 0 km/h
2940 11-08-2008 21:35:02 19.7 C 10.19 g/m*3 19.7 C 0 km/h
2941 11-08-2008 21:47:02 19.9 C 10.14 g/m*3 19.9 C 0 km/h
2942 11-08-2008 21:59:02 20.1 C 10.08 g/m*3 20.1 C 0 km/h
2943 11-08-2008 22:11:03 19.8 C 10.25 g/m*3 19.8 C 0 km/h
2944 11-08-2008 22:24:33 19.9 C 10.65 g/m*3 19.9 C 0 km/h
2945 11-08-2008 22:36:33 20 C 10.71 g/m*3 20 C 0 km/h
2946 11-08-2008 22:48:33 20 C 10.89 g/m*3 20 C 0 km/h
2947 11-08-2008 23:00:33 19.8 C 10.93 g/m*3 19.8 C 0 km/h
2948 11-08-2008 23:12:33 19.9 C 11.17 g/m*3 19.9 C 0 km/h
2949 11-08-2008 23:24:34 19.7 C 11.04 g/m*3 19.7 C 0 km/h
2950 11-08-2008 23:36:34 19.5 C 11.24 g/m*3 19.5 C 0 km/h
Sensor: Nr:Datum:Temp:Abs-Feuchte:Windchill:Wind:
Aussen-T/F 2951 11-08-2008 23:48:34 19.1 C 11.64 g/m*3 19.1 C 0 km/h
2952 12-08-2008 00:00:34 18.6 C 11.78 g/m*3 18.6 C 0 km/h
2953 12-08-2008 00:12:34 18.3 C 11.88 g/m*3 18.3 C 0 km/h
2954 12-08-2008 00:24:34 18.2 C 12.12 g/m*3 18.2 C 0 km/h
2955 12-08-2008 00:36:34 17.9 C 12.37 g/m*3 17.9 C 0 km/h
2956 12-08-2008 00:48:34 17.7 C 12.52 g/m*3 17.7 C 0 km/h
2957 12-08-2008 01:00:34 17.3 C 12.37 g/m*3 17.3 C 0 km/h
2958 12-08-2008 01:12:34 17 C 12.3 g/m*3 17 C 0 km/h
2959 12-08-2008 01:24:34 17.2 C 12.59 g/m*3 17.2 C 0 km/h
2960 12-08-2008 01:36:34 17.5 C 12.82 g/m*3 17.5 C 0 km/h
2961 12-08-2008 01:48:34 17.2 C 12.59 g/m*3 17.2 C 0 km/h
2962 12-08-2008 02:00:34 17.1 C 12.66 g/m*3 17.1 C 0 km/h
2963 12-08-2008 02:12:34 17 C 12.59 g/m*3 17 C 0 km/h
2964 12-08-2008 02:24:34 16.8 C 12.58 g/m*3 16.8 C 0 km/h
2965 12-08-2008 02:36:34 16.8 C 12.72 g/m*3 16.8 C 0 km/h
2966 12-08-2008 02:48:34 16.6 C 12.57 g/m*3 16.6 C 0 km/h
2967 12-08-2008 03:00:34 16.7 C 12.65 g/m*3 16.7 C 0 km/h
2968 12-08-2008 03:12:34 16.8 C 12.72 g/m*3 16.8 C 0 km/h
2969 12-08-2008 03:24:34 16.9 C 12.8 g/m*3 16.9 C 0 km/h
2970 12-08-2008 03:36:35 16.8 C 12.58 g/m*3 16.8 C 0 km/h
2971 12-08-2008 03:48:35 16.4 C 12.28 g/m*3 16.4 C 0 km/h
2972 12-08-2008 04:00:35 16.2 C 12.14 g/m*3 16.2 C 0 km/h
2973 12-08-2008 04:12:35 16 C 11.85 g/m*3 16 C 0 km/h
2974 12-08-2008 04:24:35 15.8 C 11.85 g/m*3 15.8 C 0 km/h
2975 12-08-2008 04:36:35 16 C 11.99 g/m*3 16 C 0 km/h
Sensor: Nr:Datum:Temp:Abs-Feuchte:Windchill:Wind:
Aussen-T/F 2976 12-08-2008 04:48:35 15.8 C 11.98 g/m*3 15.8 C 0 km/h
2977 12-08-2008 05:00:35 16 C 11.99 g/m*3 16 C 0 km/h
2978 12-08-2008 05:12:35 16.3 C 12.21 g/m*3 16.3 C 0 km/h
2979 12-08-2008 05:24:35 16.2 C 12.14 g/m*3 16.2 C 0 km/h
2980 12-08-2008 05:36:35 16.2 C 12 g/m*3 16.2 C 0 km/h
2981 12-08-2008 05:48:35 16.2 C 12 g/m*3 16.2 C 0 km/h
2982 12-08-2008 06:00:35 16.1 C 11.93 g/m*3 16.1 C 0 km/h
2983 12-08-2008 06:12:35 16 C 11.85 g/m*3 16 C 0 km/h
2984 12-08-2008 06:24:35 16 C 11.85 g/m*3 16 C 0 km/h
2985 12-08-2008 06:36:35 16.1 C 12.06 g/m*3 16.1 C 0 km/h
2986 12-08-2008 06:48:35 16 C 11.85 g/m*3 16 C 0 km/h
2987 12-08-2008 07:00:35 16.1 C 12.06 g/m*3 16.1 C 0 km/h
2988 12-08-2008 07:12:04 16.1 C 12.06 g/m*3 16.1 C 0 km/h
2989 12-08-2008 07:24:03 16.1 C 12.06 g/m*3 16.1 C 0 km/h
2990 12-08-2008 07:36:03 16.2 C 12.14 g/m*3 16.2 C 0 km/h
2991 12-08-2008 07:48:02 16.2 C 12.27 g/m*3 16.2 C 0 km/h
2992 12-08-2008 08:00:02 16.2 C 12.27 g/m*3 16.2 C 0 km/h
2993 12-08-2008 08:12:02 16.6 C 12.71 g/m*3 16.6 C 0 km/h
2994 12-08-2008 08:24:02 16.8 C 12.87 g/m*3 16.8 C 0 km/h
2995 12-08-2008 08:36:02 16.8 C 12.72 g/m*3 16.8 C 0 km/h
2996 12-08-2008 08:48:02 16.9 C 12.8 g/m*3 16.9 C 0 km/h
2997 12-08-2008 09:00:02 16.6 C 12.57 g/m*3 16.6 C 0 km/h
2998 12-08-2008 09:12:02 16.6 C 12.71 g/m*3 16.6 C 0 km/h
2999 12-08-2008 09:24:02 16.9 C 12.94 g/m*3 16.9 C 0 km/h
3000 12-08-2008 09:36:03 17 C 12.88 g/m*3 17 C 0 km/h
Sensor: Nr:Datum:Temp:Abs-Feuchte:Windchill:Wind:
Aussen-T/F 3001 12-08-2008 09:48:02 17.2 C 13.03 g/m*3 17.2 C 0 km/h
3002 12-08-2008 10:00:02 17.2 C 13.03 g/m*3 17.2 C 0 km/h
3003 12-08-2008 10:12:02 17.3 C 12.96 g/m*3 17.3 C 0 km/h
3004 12-08-2008 10:24:02 17.4 C 13.04 g/m*3 17.4 C 0 km/h
3005 12-08-2008 10:36:02 17.6 C 13.2 g/m*3 17.6 C 0 km/h
3006 12-08-2008 10:48:02 17.6 C 13.35 g/m*3 17.6 C 0 km/h
3007 12-08-2008 11:00:02 17.9 C 13.59 g/m*3 17.9 C 0 km/h
3008 12-08-2008 11:12:02 18 C 13.52 g/m*3 18 C 0 km/h
3009 12-08-2008 11:24:02 18.2 C 13.68 g/m*3 18.2 C 0 km/h
3010 12-08-2008 11:36:02 18.4 C 13.84 g/m*3 18.4 C 0 km/h
3011 12-08-2008 11:48:02 18.9 C 14.26 g/m*3 18.9 C 0 km/h
3012 12-08-2008 12:00:02 19.5 C 14.27 g/m*3 19.5 C 0 km/h
3013 12-08-2008 12:12:01 19.7 C 14.09 g/m*3 19.7 C 0 km/h
3014 12-08-2008 12:24:02 20.5 C 14.41 g/m*3 20.5 C 0 km/h
3015 12-08-2008 12:36:01 21.1 C 14.19 g/m*3 21.1 C 0 km/h
3016 12-08-2008 12:48:01 21.9 C 14.09 g/m*3 21.9 C 0 km/h
3017 12-08-2008 13:00:01 22.4 C 13.7 g/m*3 22.4 C 0 km/h
3018 12-08-2008 13:12:02 22.1 C 13.27 g/m*3 22.1 C 0 km/h
3019 12-08-2008 13:24:01 22.4 C 13.31 g/m*3 22.4 C 0 km/h
3020 12-08-2008 13:36:02 21.8 C 13.24 g/m*3 21.8 C 0 km/h
3021 12-08-2008 13:48:02 21.3 C 13.42 g/m*3 21.3 C 0 km/h
3022 12-08-2008 14:00:02 20.7 C 13.68 g/m*3 20.7 C 0 km/h
3023 12-08-2008 14:12:02 21.2 C 13.9 g/m*3 21.2 C 0 km/h
3024 12-08-2008 14:24:02 22.2 C 13.55 g/m*3 22.2 C 0 km/h
3025 12-08-2008 14:36:02 23.4 C 13.46 g/m*3 23.4 C 0 km/h
Sensor: Nr:Datum:Temp:Abs-Feuchte:Windchill:Wind:
Aussen-T/F 3026 12-08-2008 14:48:02 23.5 C 13.11 g/m*3 23.5 C 0 km/h
3027 12-08-2008 15:00:02 22.8 C 12.4 g/m*3 22.8 C 0 km/h
3028 12-08-2008 15:12:02 22.9 C 12.47 g/m*3 22.9 C 0 km/h
3029 12-08-2008 15:24:02 22.2 C 12.17 g/m*3 22.2 C 0 km/h
3030 12-08-2008 15:36:03 21.4 C 12.75 g/m*3 21.4 C 0 km/h
3031 12-08-2008 15:48:02 20.6 C 13.07 g/m*3 20.6 C 0 km/h
3032 12-08-2008 16:00:02 19.7 C 13.92 g/m*3 19.7 C 0 km/h
3033 12-08-2008 16:12:03 19.9 C 14.43 g/m*3 19.9 C 0 km/h
3034 12-08-2008 16:24:02 20.9 C 14.93 g/m*3 20.9 C 0 km/h
3035 12-08-2008 16:36:03 21.5 C 14.9 g/m*3 21.5 C 0 km/h
3036 12-08-2008 16:48:02 21.2 C 12.97 g/m*3 21.2 C 0 km/h
3037 12-08-2008 17:00:02 21.6 C 12.52 g/m*3 21.6 C 0 km/h
3038 12-08-2008 17:12:02 21.5 C 12.45 g/m*3 21.5 C 0 km/h
3039 12-08-2008 17:24:02 21.5 C 12.07 g/m*3 21.5 C 0 km/h
3040 12-08-2008 17:36:02 21.3 C 12.86 g/m*3 21.3 C 0 km/h
3041 12-08-2008 17:48:02 21.4 C 12.37 g/m*3 21.4 C 0 km/h
3042 12-08-2008 18:00:02 21.4 C 12 g/m*3 21.4 C 0 km/h
3043 12-08-2008 18:12:02 21.3 C 11.93 g/m*3 21.3 C 0 km/h
3044 12-08-2008 18:24:02 21.5 C 12.26 g/m*3 21.5 C 0 km/h
3045 12-08-2008 18:36:03 21.9 C 12.16 g/m*3 21.9 C 0 km/h
3046 12-08-2008 18:48:02 21.8 C 11.32 g/m*3 21.8 C 0 km/h
3047 12-08-2008 19:00:02 21.9 C 11.39 g/m*3 21.9 C 0 km/h
3048 12-08-2008 19:12:02 22.3 C 11.65 g/m*3 22.3 C 0 km/h
3049 12-08-2008 19:24:02 22.6 C 11.05 g/m*3 22.6 C 0 km/h
3050 12-08-2008 19:36:02 22.5 C 10.79 g/m*3 22.5 C 0 km/h
Sensor: Nr:Datum:Temp:Abs-Feuchte:Windchill:Wind:
Aussen-T/F 3051 12-08-2008 19:48:02 22.6 C 10.65 g/m*3 22.6 C 0 km/h
3052 12-08-2008 20:00:02 22.5 C 10.39 g/m*3 22.5 C 0 km/h
3053 12-08-2008 20:12:01 22.8 C 10.36 g/m*3 22.8 C 0 km/h
3054 12-08-2008 20:24:02 22.5 C 10.39 g/m*3 22.5 C 0 km/h
3055 12-08-2008 20:36:01 21.8 C 10.55 g/m*3 21.8 C 0 km/h
3056 12-08-2008 20:48:01 21.2 C 10.56 g/m*3 21.2 C 0 km/h
3057 12-08-2008 21:00:01 20.7 C 10.62 g/m*3 20.7 C 0 km/h
3058 12-08-2008 21:12:02 20.2 C 10.84 g/m*3 20.2 C 0 km/h
3059 12-08-2008 21:24:02 20 C 11.06 g/m*3 20 C 0 km/h
3060 12-08-2008 21:36:02 19.7 C 11.38 g/m*3 19.7 C 0 km/h
3061 12-08-2008 21:48:03 19.4 C 11.68 g/m*3 19.4 C 0 km/h
3062 12-08-2008 22:00:03 19.1 C 11.8 g/m*3 19.1 C 0 km/h
3063 12-08-2008 22:12:02 19 C 11.57 g/m*3 19 C 0 km/h
3064 12-08-2008 22:24:02 18.9 C 11.83 g/m*3 18.9 C 0 km/h
3065 12-08-2008 22:36:02 18.6 C 11.62 g/m*3 18.6 C 0 km/h
3066 12-08-2008 22:48:02 18.4 C 11.48 g/m*3 18.4 C 0 km/h
3067 12-08-2008 23:00:03 18.6 C 11.46 g/m*3 18.6 C 0 km/h
3068 12-08-2008 23:12:02 18.9 C 11.18 g/m*3 18.9 C 0 km/h
3069 12-08-2008 23:25:03 19.3 C 11.11 g/m*3 19.3 C 0 km/h
3070 12-08-2008 23:37:03 16.6 C 9.89 g/m*3 16.6 C 0 km/h
3071 12-08-2008 23:49:03 15.6 C 9.97 g/m*3 15.6 C 0 km/h
3072 13-08-2008 00:01:03 15.2 C 9.99 g/m*3 15.2 C 0 km/h
3073 13-08-2008 00:13:03 15 C 10.26 g/m*3 15 C 0 km/h
3074 13-08-2008 00:25:03 14.7 C 10.2 g/m*3 14.7 C 0 km/h
3075 13-08-2008 00:37:03 14.4 C 10.14 g/m*3 14.4 C 0 km/h
Sensor: Nr:Datum:Temp:Abs-Feuchte:Windchill:Wind:
Aussen-T/F 3076 13-08-2008 00:49:04 14.2 C 10.14 g/m*3 14.2 C 0 km/h
3077 13-08-2008 01:01:04 14.2 C 10.26 g/m*3 14.2 C 0 km/h
3078 13-08-2008 01:13:04 14.3 C 10.44 g/m*3 14.3 C 0 km/h
3079 13-08-2008 01:25:04 14.3 C 10.57 g/m*3 14.3 C 0 km/h
3080 13-08-2008 01:37:04 14.3 C 10.57 g/m*3 14.3 C 0 km/h
3081 13-08-2008 01:49:04 14.6 C 10.76 g/m*3 14.6 C 0 km/h
3082 13-08-2008 02:01:04 14.6 C 10.76 g/m*3 14.6 C 0 km/h
3083 13-08-2008 02:13:04 14.7 C 10.83 g/m*3 14.7 C 0 km/h
3084 13-08-2008 02:25:04 14.5 C 10.7 g/m*3 14.5 C 0 km/h
3085 13-08-2008 02:37:04 14.3 C 10.57 g/m*3 14.3 C 0 km/h
3086 13-08-2008 02:49:04 14.2 C 10.5 g/m*3 14.2 C 0 km/h
3087 13-08-2008 03:01:04 14.2 C 10.62 g/m*3 14.2 C 0 km/h
3088 13-08-2008 03:13:04 14.3 C 10.81 g/m*3 14.3 C 0 km/h
3089 13-08-2008 03:25:04 14.3 C 10.81 g/m*3 14.3 C 0 km/h
3090 13-08-2008 03:37:04 14.3 C 10.69 g/m*3 14.3 C 0 km/h
3091 13-08-2008 03:49:04 14.2 C 10.62 g/m*3 14.2 C 0 km/h
3092 13-08-2008 04:01:04 14.1 C 10.56 g/m*3 14.1 C 0 km/h
3093 13-08-2008 04:13:04 14.4 C 10.38 g/m*3 14.4 C 0 km/h
3094 13-08-2008 04:25:04 14.7 C 10.07 g/m*3 14.7 C 0 km/h
3095 13-08-2008 04:37:04 15 C 9.49 g/m*3 15 C 0 km/h
3096 13-08-2008 04:49:05 15.4 C 9.2 g/m*3 15.4 C 0 km/h
3097 13-08-2008 05:01:05 15.2 C 9.09 g/m*3 15.2 C 0 km/h
3098 13-08-2008 05:13:05 15.4 C 8.93 g/m*3 15.4 C 0 km/h
3099 13-08-2008 05:25:05 15.4 C 8.93 g/m*3 15.4 C 0 km/h
3100 13-08-2008 05:37:05 15.6 C 8.78 g/m*3 15.6 C 0 km/h
Sensor: Nr:Datum:Temp:Abs-Feuchte:Windchill:Wind:
Aussen-T/F 3101 13-08-2008 05:49:05 15.8 C 8.62 g/m*3 15.8 C 0 km/h
3102 13-08-2008 06:01:05 15.8 C 8.62 g/m*3 15.8 C 0 km/h
3103 13-08-2008 06:13:05 15.9 C 8.53 g/m*3 15.9 C 0 km/h
3104 13-08-2008 06:25:05 15.9 C 8.53 g/m*3 15.9 C 0 km/h
3105 13-08-2008 06:37:03 15.9 C 8.53 g/m*3 15.9 C 0 km/h
3106 13-08-2008 06:49:02 15.7 C 8.43 g/m*3 15.7 C 0 km/h
3107 13-08-2008 07:01:02 15.8 C 8.48 g/m*3 15.8 C 0 km/h
3108 13-08-2008 07:13:02 15.9 C 8.53 g/m*3 15.9 C 0 km/h
3109 13-08-2008 07:25:03 15.9 C 8.53 g/m*3 15.9 C 0 km/h
3110 13-08-2008 07:37:02 16.4 C 8.51 g/m*3 16.4 C 0 km/h
3111 13-08-2008 07:49:02 16.6 C 8.33 g/m*3 16.6 C 0 km/h
3112 13-08-2008 08:01:02 16.5 C 8.43 g/m*3 16.5 C 0 km/h
3113 13-08-2008 08:13:02 16.6 C 8.33 g/m*3 16.6 C 0 km/h
3114 13-08-2008 08:25:02 16.8 C 8.44 g/m*3 16.8 C 0 km/h
3115 13-08-2008 08:37:02 16.9 C 8.2 g/m*3 16.9 C 0 km/h
3116 13-08-2008 08:49:01 16.8 C 8.15 g/m*3 16.8 C 0 km/h
3117 13-08-2008 09:01:02 17.1 C 8.01 g/m*3 17.1 C 0 km/h
3118 13-08-2008 09:13:02 17.4 C 8.15 g/m*3 17.4 C 0 km/h
3119 13-08-2008 09:25:02 17.7 C 8 g/m*3 17.7 C 0 km/h
3120 13-08-2008 09:37:02 17.6 C 8.1 g/m*3 17.6 C 0 km/h
3121 13-08-2008 09:49:02 17.6 C 7.95 g/m*3 17.6 C 0 km/h
3122 13-08-2008 10:01:02 18.1 C 7.88 g/m*3 18.1 C 0 km/h
3123 13-08-2008 10:13:03 18.3 C 7.82 g/m*3 18.3 C 0 km/h
3124 13-08-2008 10:25:02 18.3 C 7.97 g/m*3 18.3 C 0 km/h
3125 13-08-2008 10:37:02 18.5 C 7.91 g/m*3 18.5 C 0 km/h
Sensor: Nr:Datum:Temp:Abs-Feuchte:Windchill:Wind:
Aussen-T/F 3126 13-08-2008 10:49:02 17 C 8.54 g/m*3 17 C 0 km/h
3127 13-08-2008 11:01:03 17.2 C 9.08 g/m*3 17.2 C 0 km/h
3128 13-08-2008 11:13:03 18.1 C 9.12 g/m*3 18.1 C 0 km/h
3129 13-08-2008 11:25:02 18.3 C 8.6 g/m*3 18.3 C 0 km/h
3130 13-08-2008 11:37:03 19.3 C 8.46 g/m*3 19.3 C 0 km/h
3131 13-08-2008 11:49:02 19.7 C 8.15 g/m*3 19.7 C 0 km/h
3132 13-08-2008 12:01:02 20 C 8.12 g/m*3 20 C 0 km/h
3133 13-08-2008 12:13:02 20 C 7.78 g/m*3 20 C 0 km/h
3134 13-08-2008 12:25:02 19.7 C 7.47 g/m*3 19.7 C 0 km/h
3135 13-08-2008 12:37:02 20.7 C 7.74 g/m*3 20.7 C 0 km/h
3136 13-08-2008 12:49:03 21.3 C 7.46 g/m*3 21.3 C 0 km/h
3137 13-08-2008 13:01:02 20.8 C 7.24 g/m*3 20.8 C 0 km/h
3138 13-08-2008 13:13:02 21.2 C 7.41 g/m*3 21.2 C 0 km/h
3139 13-08-2008 13:25:02 21.4 C 7.5 g/m*3 21.4 C 0 km/h
3140 13-08-2008 13:37:02 21.2 C 7.41 g/m*3 21.2 C 0 km/h
3141 13-08-2008 13:49:02 21.2 C 7.41 g/m*3 21.2 C 0 km/h
3142 13-08-2008 14:01:02 21.6 C 7.59 g/m*3 21.6 C 0 km/h
3143 13-08-2008 14:13:02 21.7 C 7.82 g/m*3 21.7 C 0 km/h
3144 13-08-2008 14:25:02 22.5 C 7.59 g/m*3 22.5 C 0 km/h
3145 13-08-2008 14:37:02 22 C 7.38 g/m*3 22 C 0 km/h
3146 13-08-2008 14:49:02 21.6 C 7.59 g/m*3 21.6 C 0 km/h
3147 13-08-2008 15:01:02 19.1 C 6.56 g/m*3 19.1 C 0 km/h
3148 13-08-2008 15:13:02 19.1 C 10.98 g/m*3 19.1 C 0 km/h
3149 13-08-2008 15:25:02 20.5 C 10.32 g/m*3 20.5 C 0 km/h
3150 13-08-2008 15:37:02 20.4 C 9.38 g/m*3 20.4 C 0 km/h
Sensor: Nr:Datum:Temp:Abs-Feuchte:Windchill:Wind:
Aussen-T/F 3151 13-08-2008 15:49:02 22.2 C 8.83 g/m*3 22.2 C 0 km/h
3152 13-08-2008 16:01:02 22.6 C 8.24 g/m*3 22.6 C 0 km/h
3153 13-08-2008 16:13:02 23.6 C 7.87 g/m*3 23.6 C 0 km/h
3154 13-08-2008 16:25:02 23.5 C 6.98 g/m*3 23.5 C 0 km/h
3155 13-08-2008 16:37:02 23.8 C 6.88 g/m*3 23.8 C 0 km/h
3156 13-08-2008 16:49:02 24.3 C 6.86 g/m*3 24.3 C 0 km/h
3157 13-08-2008 17:01:02 24.1 C 6.35 g/m*3 24.1 C 0 km/h
3158 13-08-2008 17:13:02 23.5 C 6.56 g/m*3 23.5 C 0 km/h
3159 13-08-2008 17:25:02 24.3 C 6.64 g/m*3 24.3 C 0 km/h
3160 13-08-2008 17:37:02 23.8 C 6.45 g/m*3 23.8 C 0 km/h
3161 13-08-2008 17:49:02 23.4 C 6.52 g/m*3 23.4 C 0 km/h
3162 13-08-2008 18:01:02 23.3 C 6.48 g/m*3 23.3 C 0 km/h
3163 13-08-2008 18:13:02 23.6 C 6.59 g/m*3 23.6 C 0 km/h
3164 13-08-2008 18:25:02 23.5 C 6.56 g/m*3 23.5 C 0 km/h
3165 13-08-2008 18:37:02 22.6 C 6.63 g/m*3 22.6 C 0 km/h
3166 13-08-2008 18:49:02 22 C 6.79 g/m*3 22 C 0 km/h
3167 13-08-2008 19:01:02 21.6 C 7.59 g/m*3 21.6 C 0 km/h
3168 13-08-2008 19:13:02 21.7 C 7.25 g/m*3 21.7 C 0 km/h
3169 13-08-2008 19:25:02 21.6 C 6.83 g/m*3 21.6 C 0 km/h
3170 13-08-2008 19:37:02 21.3 C 6.9 g/m*3 21.3 C 0 km/h
3171 13-08-2008 19:49:01 21.2 C 7.04 g/m*3 21.2 C 0 km/h
3172 13-08-2008 20:01:02 19.4 C 8.01 g/m*3 19.4 C 0 km/h
3173 13-08-2008 20:13:02 19.5 C 8.39 g/m*3 19.5 C 0 km/h
3174 13-08-2008 20:25:01 19.5 C 8.56 g/m*3 19.5 C 0 km/h
3175 13-08-2008 20:37:02 19.6 C 8.44 g/m*3 19.6 C 0 km/h
Sensor: Nr:Datum:Temp:Abs-Feuchte:Windchill:Wind:
Aussen-T/F 3176 13-08-2008 20:49:02 19.5 C 8.39 g/m*3 19.5 C 0 km/h
3177 13-08-2008 21:01:02 19.7 C 6.96 g/m*3 19.7 C 0 km/h
3178 13-08-2008 21:13:02 19.8 C 6.83 g/m*3 19.8 C 0 km/h
3179 13-08-2008 21:25:02 19.5 C 6.88 g/m*3 19.5 C 0 km/h
3180 13-08-2008 21:37:03 18.8 C 7.41 g/m*3 18.8 C 0 km/h
3181 13-08-2008 21:50:04 18.7 C 7.52 g/m*3 18.7 C 0 km/h
3182 13-08-2008 22:02:04 18.3 C 7.66 g/m*3 18.3 C 0 km/h
3183 13-08-2008 22:14:04 18.3 C 7.66 g/m*3 18.3 C 0 km/h
3184 13-08-2008 22:26:04 18.4 C 7.55 g/m*3 18.4 C 0 km/h
3185 13-08-2008 22:38:04 18 C 7.68 g/m*3 18 C 0 km/h
3186 13-08-2008 22:50:04 17.8 C 7.89 g/m*3 17.8 C 0 km/h
3187 13-08-2008 23:02:04 17.8 C 7.74 g/m*3 17.8 C 0 km/h
3188 13-08-2008 23:14:04 17.4 C 7.85 g/m*3 17.4 C 0 km/h
3189 13-08-2008 23:26:04 17.3 C 7.96 g/m*3 17.3 C 0 km/h
3190 13-08-2008 23:38:04 17.1 C 8.01 g/m*3 17.1 C 0 km/h
3191 13-08-2008 23:50:04 17 C 8.25 g/m*3 17 C 0 km/h
3192 14-08-2008 00:02:04 17.1 C 8.3 g/m*3 17.1 C 0 km/h
3193 14-08-2008 00:14:04 16.8 C 8.29 g/m*3 16.8 C 0 km/h
3194 14-08-2008 00:26:04 16.4 C 8.23 g/m*3 16.4 C 0 km/h
3195 14-08-2008 00:38:04 16.2 C 8.27 g/m*3 16.2 C 0 km/h
3196 14-08-2008 00:50:04 16.4 C 8.51 g/m*3 16.4 C 0 km/h
3197 14-08-2008 01:02:04 16.4 C 8.51 g/m*3 16.4 C 0 km/h
3198 14-08-2008 01:14:04 16.4 C 8.65 g/m*3 16.4 C 0 km/h
3199 14-08-2008 01:26:05 16.1 C 8.5 g/m*3 16.1 C 0 km/h
3200 14-08-2008 01:38:05 15.9 C 8.67 g/m*3 15.9 C 0 km/h
Sensor: Nr:Datum:Temp:Abs-Feuchte:Windchill:Wind:
Aussen-T/F 3201 14-08-2008 01:50:05 15.8 C 8.62 g/m*3 15.8 C 0 km/h
3202 14-08-2008 02:02:05 16 C 8.58 g/m*3 16 C 0 km/h
3203 14-08-2008 02:14:05 16 C 8.58 g/m*3 16 C 0 km/h
3204 14-08-2008 02:26:05 15.8 C 8.62 g/m*3 15.8 C 0 km/h
3205 14-08-2008 02:38:05 15.4 C 8.67 g/m*3 15.4 C 0 km/h
3206 14-08-2008 02:50:05 15.3 C 8.88 g/m*3 15.3 C 0 km/h
3207 14-08-2008 03:02:05 15.1 C 8.77 g/m*3 15.1 C 0 km/h
3208 14-08-2008 03:14:05 15 C 8.85 g/m*3 15 C 0 km/h
3209 14-08-2008 03:26:05 14.9 C 8.92 g/m*3 14.9 C 0 km/h
3210 14-08-2008 03:38:05 14.8 C 8.99 g/m*3 14.8 C 0 km/h
3211 14-08-2008 03:50:05 14.7 C 8.94 g/m*3 14.7 C 0 km/h
3212 14-08-2008 04:02:05 14.5 C 8.95 g/m*3 14.5 C 0 km/h
3213 14-08-2008 04:14:05 14.5 C 9.08 g/m*3 14.5 C 0 km/h
3214 14-08-2008 04:26:05 14.3 C 8.97 g/m*3 14.3 C 0 km/h
3215 14-08-2008 04:38:05 14.1 C 8.98 g/m*3 14.1 C 0 km/h
3216 14-08-2008 04:50:05 13.9 C 8.99 g/m*3 13.9 C 0 km/h
3217 14-08-2008 05:02:05 13.9 C 9.11 g/m*3 13.9 C 0 km/h
3218 14-08-2008 05:14:05 13.8 C 9.17 g/m*3 13.8 C 0 km/h
3219 14-08-2008 05:26:05 13.6 C 9.06 g/m*3 13.6 C 0 km/h
3220 14-08-2008 05:38:06 13.6 C 9.06 g/m*3 13.6 C 0 km/h
3221 14-08-2008 05:50:06 13.5 C 9.12 g/m*3 13.5 C 0 km/h
3222 14-08-2008 06:02:06 13.6 C 9.06 g/m*3 13.6 C 0 km/h
3223 14-08-2008 06:14:06 13.6 C 9.06 g/m*3 13.6 C 0 km/h
3224 14-08-2008 06:26:03 13.7 C 9.12 g/m*3 13.7 C 0 km/h
3225 14-08-2008 06:38:04 13.7 C 9.12 g/m*3 13.7 C 0 km/h
Sensor: Nr:Datum:Temp:Abs-Feuchte:Windchill:Wind:
Aussen-T/F 3226 14-08-2008 06:50:02 13.7 C 9.12 g/m*3 13.7 C 0 km/h
3227 14-08-2008 07:02:02 13.8 C 9.06 g/m*3 13.8 C 0 km/h
3228 14-08-2008 07:14:02 13.8 C 9.06 g/m*3 13.8 C 0 km/h
3229 14-08-2008 07:26:02 13.8 C 9.06 g/m*3 13.8 C 0 km/